PWSweather.com
Personal Weather Stations
Station Observations
KNJSTAFF6
Village Harbor, Beach Haven West, Manahawkin, NJ 08050

Village Harbor, Beach Haven WestManahawkin, NJ 08050

Lat: 39.67889410559905, Lon: -74.24244902883606

Elevation: 15

Station Type: Oregon Scientific WMR88A

High Low Average
Temperature 94.8°F34.9°C 69.4°F20.8°C 79.4°F26.3°C
Dew Point 70.8°F21.6°C 61.3°F16.3°C 67.1°F19.5°C
Winds 5.5 mph 8.9 kmh Calm Calm 2.0 mph SE3.2 kmh SE
Wind Gusts 10.3 mph16.6 kmh -- 4.0 mph6.4 kmh
Humidity 91% 37% 69%
Pressure 29.92 in1013.2 mb 29.68 in1005.1 mb -
Precipitation 0.00 in0.0 mm - -
Hour Temp Dew Point Humidity Winds Wind Gusts Pressure Precip Precip Rate Daily Precip Total
12:00 AM 73.2°F22.9°C 64.4°F18.0°C 74% 0.2 mph SW0.3 kmh SW 1.1 mph1.8 kmh 29.71 in1006.1 mb 0.00 in0.0 mm 0.00 in0.0 mm 0.00 in0.0 mm
12:01 AM 73.2°F22.9°C 64.4°F18.0°C 74% 0.1 mph WSW0.2 kmh WSW 0.9 mph1.4 kmh 29.71 in1006.1 mb 0.00 in0.0 mm 0.00 in0.0 mm 0.00 in0.0 mm
12:02 AM 73.2°F22.9°C 64.4°F18.0°C 74% 0.1 mph WSW0.2 kmh WSW 0.9 mph1.4 kmh 29.71 in1006.1 mb 0.00 in0.0 mm 0.00 in0.0 mm 0.00 in0.0 mm
12:03 AM 73.2°F22.9°C 64.4°F18.0°C 74% 0.1 mph WSW0.2 kmh WSW 0.9 mph1.4 kmh 29.71 in1006.1 mb 0.00 in0.0 mm 0.00 in0.0 mm 0.00 in0.0 mm
12:04 AM 73.2°F22.9°C 64.4°F18.0°C 74% 0.1 mph WSW0.2 kmh WSW 0.9 mph1.4 kmh 29.71 in1006.1 mb 0.00 in0.0 mm 0.00 in0.0 mm 0.00 in0.0 mm
12:05 AM 73.2°F22.9°C 64.4°F18.0°C 74% 0.2 mph WSW0.3 kmh WSW 2.0 mph3.2 kmh 29.71 in1006.1 mb 0.00 in0.0 mm 0.00 in0.0 mm 0.00 in0.0 mm
12:06 AM 73.2°F22.9°C 64.4°F18.0°C 74% 0.3 mph WSW0.5 kmh WSW 2.0 mph3.2 kmh 29.71 in1006.1 mb 0.00 in0.0 mm 0.00 in0.0 mm 0.00 in0.0 mm
12:07 AM 73.0°F22.8°C 64.3°F17.9°C 74% 0.3 mph WSW0.5 kmh WSW 2.0 mph3.2 kmh 29.71 in1006.1 mb 0.00 in0.0 mm 0.00 in0.0 mm 0.00 in0.0 mm
12:08 AM 73.0°F22.8°C 64.3°F17.9°C 74% 0.2 mph WSW0.3 kmh WSW 2.0 mph3.2 kmh 29.71 in1006.1 mb 0.00 in0.0 mm 0.00 in0.0 mm 0.00 in0.0 mm
12:09 AM 73.0°F22.8°C 64.3°F17.9°C 74% 0.2 mph WSW0.3 kmh WSW 2.0 mph3.2 kmh 29.71 in1006.1 mb 0.00 in0.0 mm 0.00 in0.0 mm 0.00 in0.0 mm
12:10 AM 73.0°F22.8°C 64.3°F17.9°C 74% 0.3 mph SW0.5 kmh SW 2.0 mph3.2 kmh 29.71 in1006.1 mb 0.00 in0.0 mm 0.00 in0.0 mm 0.00 in0.0 mm
12:11 AM 73.0°F22.8°C 64.3°F17.9°C 74% 0.3 mph SW0.5 kmh SW 2.0 mph3.2 kmh 29.71 in1006.1 mb 0.00 in0.0 mm 0.00 in0.0 mm 0.00 in0.0 mm
12:12 AM 73.0°F22.8°C 64.3°F17.9°C 74% 0.3 mph SW0.5 kmh SW 2.0 mph3.2 kmh 29.71 in1006.1 mb 0.00 in0.0 mm 0.00 in0.0 mm 0.00 in0.0 mm
12:13 AM 73.0°F22.8°C 64.6°F18.1°C 75% 0.4 mph SW0.6 kmh SW 2.0 mph3.2 kmh 29.71 in1006.1 mb 0.00 in0.0 mm 0.00 in0.0 mm 0.00 in0.0 mm
12:14 AM 73.0°F22.8°C 64.6°F18.1°C 75% 0.4 mph SW0.6 kmh SW 2.0 mph3.2 kmh 29.71 in1006.1 mb 0.00 in0.0 mm 0.00 in0.0 mm 0.00 in0.0 mm
12:15 AM 73.0°F22.8°C 64.6°F18.1°C 75% 0.3 mph SW0.5 kmh SW 2.0 mph3.2 kmh 29.71 in1006.1 mb 0.00 in0.0 mm 0.00 in0.0 mm 0.00 in0.0 mm
12:16 AM 72.9°F22.7°C 64.5°F18.1°C 75% 0.2 mph SW0.3 kmh SW 1.6 mph2.6 kmh 29.71 in1006.1 mb 0.00 in0.0 mm 0.00 in0.0 mm 0.00 in0.0 mm
12:17 AM 72.9°F22.7°C 64.5°F18.1°C 75% 0.2 mph SW0.3 kmh SW 1.6 mph2.6 kmh 29.71 in1006.1 mb 0.00 in0.0 mm 0.00 in0.0 mm 0.00 in0.0 mm
12:18 AM 72.9°F22.7°C 64.5°F18.1°C 75% 0.2 mph SW0.3 kmh SW 1.6 mph2.6 kmh 29.71 in1006.1 mb 0.00 in0.0 mm 0.00 in0.0 mm 0.00 in0.0 mm
12:19 AM 72.9°F22.7°C 64.5°F18.1°C 75% 0.2 mph SW0.3 kmh SW 1.6 mph2.6 kmh 29.71 in1006.1 mb 0.00 in0.0 mm 0.00 in0.0 mm 0.00 in0.0 mm
12:20 AM 72.9°F22.7°C 64.5°F18.1°C 75% 0.1 mph SW0.2 kmh SW 1.1 mph1.8 kmh 29.71 in1006.1 mb 0.00 in0.0 mm 0.00 in0.0 mm 0.00 in0.0 mm
12:21 AM 72.9°F22.7°C 64.5°F18.1°C 75% 0.1 mph SW0.2 kmh SW 1.1 mph1.8 kmh 29.71 in1006.1 mb 0.00 in0.0 mm 0.00 in0.0 mm 0.00 in0.0 mm
12:22 AM 72.9°F22.7°C 64.5°F18.1°C 75% 0.1 mph SW0.2 kmh SW 1.1 mph1.8 kmh 29.71 in1006.1 mb 0.00 in0.0 mm 0.00 in0.0 mm 0.00 in0.0 mm
12:23 AM 72.7°F22.6°C 64.3°F17.9°C 75% 0.1 mph SW0.2 kmh SW 1.1 mph1.8 kmh 29.71 in1006.1 mb 0.00 in0.0 mm 0.00 in0.0 mm 0.00 in0.0 mm
12:24 AM 72.7°F22.6°C 64.3°F17.9°C 75% 0.1 mph SW0.2 kmh SW 1.1 mph1.8 kmh 29.71 in1006.1 mb 0.00 in0.0 mm 0.00 in0.0 mm 0.00 in0.0 mm
12:25 AM 72.7°F22.6°C 64.3°F17.9°C 75% 0.1 mph SW0.2 kmh SW 1.1 mph1.8 kmh 29.71 in1006.1 mb 0.00 in0.0 mm 0.00 in0.0 mm 0.00 in0.0 mm
12:26 AM 72.7°F22.6°C 64.3°F17.9°C 75% Calm Calm -- 29.71 in1006.1 mb 0.00 in0.0 mm 0.00 in0.0 mm 0.00 in0.0 mm
12:27 AM 72.7°F22.6°C 64.3°F17.9°C 75% Calm Calm -- 29.71 in1006.1 mb 0.00 in0.0 mm 0.00 in0.0 mm 0.00 in0.0 mm
12:28 AM 72.7°F22.6°C 64.3°F17.9°C 75% 0.1 mph WSW0.2 kmh WSW 1.3 mph2.1 kmh 29.71 in1006.1 mb 0.00 in0.0 mm 0.00 in0.0 mm 0.00 in0.0 mm
12:29 AM 72.7°F22.6°C 64.3°F17.9°C 75% 0.1 mph WSW0.2 kmh WSW 1.3 mph2.1 kmh 29.71 in1006.1 mb 0.00 in0.0 mm 0.00 in0.0 mm 0.00 in0.0 mm
12:30 AM 72.7°F22.6°C 64.3°F17.9°C 75% 0.1 mph WSW0.2 kmh WSW 1.3 mph2.1 kmh 29.71 in1006.1 mb 0.00 in0.0 mm 0.00 in0.0 mm 0.00 in0.0 mm
12:31 AM 72.7°F22.6°C 64.3°F17.9°C 75% 0.2 mph SW0.3 kmh SW 1.3 mph2.1 kmh 29.71 in1006.1 mb 0.00 in0.0 mm 0.00 in0.0 mm 0.00 in0.0 mm
12:32 AM 72.7°F22.6°C 64.3°F17.9°C 75% 0.2 mph SW0.3 kmh SW 1.3 mph2.1 kmh 29.71 in1006.1 mb 0.00 in0.0 mm 0.00 in0.0 mm 0.00 in0.0 mm
12:33 AM 72.5°F22.5°C 64.1°F17.8°C 75% 0.4 mph WSW0.6 kmh WSW 2.0 mph3.2 kmh 29.71 in1006.1 mb 0.00 in0.0 mm 0.00 in0.0 mm 0.00 in0.0 mm
12:34 AM 72.5°F22.5°C 64.1°F17.8°C 75% 0.5 mph WSW0.8 kmh WSW 2.0 mph3.2 kmh 29.71 in1006.1 mb 0.00 in0.0 mm 0.00 in0.0 mm 0.00 in0.0 mm
12:35 AM 72.5°F22.5°C 64.1°F17.8°C 75% 0.5 mph WSW0.8 kmh WSW 2.0 mph3.2 kmh 29.71 in1006.1 mb 0.00 in0.0 mm 0.00 in0.0 mm 0.00 in0.0 mm
12:36 AM 72.5°F22.5°C 64.1°F17.8°C 75% 0.5 mph WSW0.8 kmh WSW 2.0 mph3.2 kmh 29.71 in1006.1 mb 0.00 in0.0 mm 0.00 in0.0 mm 0.00 in0.0 mm
12:37 AM 72.5°F22.5°C 64.1°F17.8°C 75% 0.5 mph WSW0.8 kmh WSW 2.0 mph3.2 kmh 29.71 in1006.1 mb 0.00 in0.0 mm 0.00 in0.0 mm 0.00 in0.0 mm
12:38 AM 72.5°F22.5°C 64.1°F17.8°C 75% 0.4 mph WSW0.6 kmh WSW 2.0 mph3.2 kmh 29.71 in1006.1 mb 0.00 in0.0 mm 0.00 in0.0 mm 0.00 in0.0 mm
12:39 AM 72.5°F22.5°C 64.1°F17.8°C 75% 0.4 mph WSW0.6 kmh WSW 2.0 mph3.2 kmh 29.71 in1006.1 mb 0.00 in0.0 mm 0.00 in0.0 mm 0.00 in0.0 mm
12:40 AM 72.5°F22.5°C 64.5°F18.1°C 76% 0.4 mph WSW0.6 kmh WSW 2.0 mph3.2 kmh 29.71 in1006.1 mb 0.00 in0.0 mm 0.00 in0.0 mm 0.00 in0.0 mm
12:41 AM 72.5°F22.5°C 64.5°F18.1°C 76% 0.3 mph W0.5 kmh W 2.0 mph3.2 kmh 29.71 in1006.1 mb 0.00 in0.0 mm 0.00 in0.0 mm 0.00 in0.0 mm
12:42 AM 72.3°F22.4°C 64.3°F17.9°C 76% 0.3 mph W0.5 kmh W 2.0 mph3.2 kmh 29.71 in1006.1 mb 0.00 in0.0 mm 0.00 in0.0 mm 0.00 in0.0 mm
12:43 AM 72.3°F22.4°C 64.3°F17.9°C 76% Calm Calm -- 29.71 in1006.1 mb 0.00 in0.0 mm 0.00 in0.0 mm 0.00 in0.0 mm
12:44 AM 72.3°F22.4°C 64.3°F17.9°C 76% Calm Calm -- 29.71 in1006.1 mb 0.00 in0.0 mm 0.00 in0.0 mm 0.00 in0.0 mm
12:45 AM 72.3°F22.4°C 64.3°F17.9°C 76% Calm Calm -- 29.71 in1006.1 mb 0.00 in0.0 mm 0.00 in0.0 mm 0.00 in0.0 mm
12:46 AM 72.3°F22.4°C 64.3°F17.9°C 76% Calm Calm -- 29.71 in1006.1 mb 0.00 in0.0 mm 0.00 in0.0 mm 0.00 in0.0 mm
12:47 AM 72.3°F22.4°C 64.3°F17.9°C 76% Calm Calm -- 29.71 in1006.1 mb 0.00 in0.0 mm 0.00 in0.0 mm 0.00 in0.0 mm
12:48 AM 72.3°F22.4°C 64.3°F17.9°C 76% Calm Calm -- 29.71 in1006.1 mb 0.00 in0.0 mm 0.00 in0.0 mm 0.00 in0.0 mm
12:49 AM 72.3°F22.4°C 64.3°F17.9°C 76% Calm Calm -- 29.71 in1006.1 mb 0.00 in0.0 mm 0.00 in0.0 mm 0.00 in0.0 mm
12:50 AM 72.3°F22.4°C 64.3°F17.9°C 76% 0.1 mph W0.2 kmh W 1.3 mph2.1 kmh 29.71 in1006.1 mb 0.00 in0.0 mm 0.00 in0.0 mm 0.00 in0.0 mm
12:51 AM 72.3°F22.4°C 64.3°F17.9°C 76% 0.1 mph W0.2 kmh W 1.3 mph2.1 kmh 29.71 in1006.1 mb 0.00 in0.0 mm 0.00 in0.0 mm 0.00 in0.0 mm
12:52 AM 72.3°F22.4°C 64.3°F17.9°C 76% 0.1 mph W0.2 kmh W 1.3 mph2.1 kmh 29.71 in1006.1 mb 0.00 in0.0 mm 0.00 in0.0 mm 0.00 in0.0 mm
12:53 AM 72.3°F22.4°C 64.3°F17.9°C 76% 0.1 mph W0.2 kmh W 1.3 mph2.1 kmh 29.71 in1006.1 mb 0.00 in0.0 mm 0.00 in0.0 mm 0.00 in0.0 mm
12:54 AM 72.3°F22.4°C 64.3°F17.9°C 76% 0.3 mph W0.5 kmh W 1.3 mph2.1 kmh 29.71 in1006.1 mb 0.00 in0.0 mm 0.00 in0.0 mm 0.00 in0.0 mm
12:55 AM 72.3°F22.4°C 64.3°F17.9°C 76% 0.3 mph W0.5 kmh W 1.3 mph2.1 kmh 29.71 in1006.1 mb 0.00 in0.0 mm 0.00 in0.0 mm 0.00 in0.0 mm
12:56 AM 72.3°F22.4°C 64.3°F17.9°C 76% 0.3 mph W0.5 kmh W 1.3 mph2.1 kmh 29.71 in1006.1 mb 0.00 in0.0 mm 0.00 in0.0 mm 0.00 in0.0 mm
12:57 AM 72.3°F22.4°C 64.3°F17.9°C 76% 0.3 mph W0.5 kmh W 1.3 mph2.1 kmh 29.71 in1006.1 mb 0.00 in0.0 mm 0.00 in0.0 mm 0.00 in0.0 mm
12:58 AM 72.3°F22.4°C 64.3°F17.9°C 76% 0.3 mph W0.5 kmh W 1.3 mph2.1 kmh 29.71 in1006.1 mb 0.00 in0.0 mm 0.00 in0.0 mm 0.00 in0.0 mm
12:59 AM 72.3°F22.4°C 64.3°F17.9°C 76% 0.3 mph W0.5 kmh W 1.3 mph2.1 kmh 29.71 in1006.1 mb 0.00 in0.0 mm 0.00 in0.0 mm 0.00 in0.0 mm
01:00 AM 72.3°F22.4°C 64.3°F17.9°C 76% 0.2 mph W0.3 kmh W 1.3 mph2.1 kmh 29.71 in1006.1 mb 0.00 in0.0 mm 0.00 in0.0 mm 0.00 in0.0 mm
01:01 AM 72.1°F22.3°C 64.2°F17.9°C 76% 0.2 mph W0.3 kmh W 1.3 mph2.1 kmh 29.71 in1006.1 mb 0.00 in0.0 mm 0.00 in0.0 mm 0.00 in0.0 mm
01:02 AM 72.1°F22.3°C 64.2°F17.9°C 76% 0.2 mph W0.3 kmh W 1.3 mph2.1 kmh 29.71 in1006.1 mb 0.00 in0.0 mm 0.00 in0.0 mm 0.00 in0.0 mm
01:03 AM 72.1°F22.3°C 64.2°F17.9°C 76% 0.2 mph W0.3 kmh W 1.3 mph2.1 kmh 29.71 in1006.1 mb 0.00 in0.0 mm 0.00 in0.0 mm 0.00 in0.0 mm
01:04 AM 72.1°F22.3°C 64.2°F17.9°C 76% 0.1 mph W0.2 kmh W 1.3 mph2.1 kmh 29.71 in1006.1 mb 0.00 in0.0 mm 0.00 in0.0 mm 0.00 in0.0 mm
01:05 AM 72.1°F22.3°C 64.2°F17.9°C 76% Calm Calm -- 29.71 in1006.1 mb 0.00 in0.0 mm 0.00 in0.0 mm 0.00 in0.0 mm
01:06 AM 72.1°F22.3°C 64.2°F17.9°C 76% Calm Calm -- 29.68 in1005.1 mb 0.00 in0.0 mm 0.00 in0.0 mm 0.00 in0.0 mm
01:07 AM 72.1°F22.3°C 64.2°F17.9°C 76% Calm Calm -- 29.68 in1005.1 mb 0.00 in0.0 mm 0.00 in0.0 mm 0.00 in0.0 mm
01:08 AM 72.0°F22.2°C 64.0°F17.8°C 76% Calm Calm -- 29.68 in1005.1 mb 0.00 in0.0 mm 0.00 in0.0 mm 0.00 in0.0 mm
01:09 AM 72.0°F22.2°C 64.0°F17.8°C 76% Calm Calm -- 29.68 in1005.1 mb 0.00 in0.0 mm 0.00 in0.0 mm 0.00 in0.0 mm
01:10 AM 72.0°F22.2°C 64.0°F17.8°C 76% 0.1 mph W0.2 kmh W 1.3 mph2.1 kmh 29.68 in1005.1 mb 0.00 in0.0 mm 0.00 in0.0 mm 0.00 in0.0 mm
01:11 AM 72.0°F22.2°C 64.0°F17.8°C 76% 0.1 mph W0.2 kmh W 1.3 mph2.1 kmh 29.68 in1005.1 mb 0.00 in0.0 mm 0.00 in0.0 mm 0.00 in0.0 mm
01:12 AM 72.0°F22.2°C 64.0°F17.8°C 76% 0.1 mph W0.2 kmh W 1.3 mph2.1 kmh 29.68 in1005.1 mb 0.00 in0.0 mm 0.00 in0.0 mm 0.00 in0.0 mm
01:13 AM 72.0°F22.2°C 64.0°F17.8°C 76% 0.1 mph W0.2 kmh W 1.3 mph2.1 kmh 29.68 in1005.1 mb 0.00 in0.0 mm 0.00 in0.0 mm 0.00 in0.0 mm
01:14 AM 72.0°F22.2°C 64.0°F17.8°C 76% 0.1 mph W0.2 kmh W 1.3 mph2.1 kmh 29.68 in1005.1 mb 0.00 in0.0 mm 0.00 in0.0 mm 0.00 in0.0 mm
01:15 AM 72.0°F22.2°C 64.0°F17.8°C 76% 0.1 mph W0.2 kmh W 1.3 mph2.1 kmh 29.68 in1005.1 mb 0.00 in0.0 mm 0.00 in0.0 mm 0.00 in0.0 mm
01:16 AM 72.0°F22.2°C 64.0°F17.8°C 76% 0.2 mph W0.3 kmh W 1.3 mph2.1 kmh 29.68 in1005.1 mb 0.00 in0.0 mm 0.00 in0.0 mm 0.00 in0.0 mm
01:17 AM 72.0°F22.2°C 64.0°F17.8°C 76% 0.2 mph W0.3 kmh W 1.3 mph2.1 kmh 29.68 in1005.1 mb 0.00 in0.0 mm 0.00 in0.0 mm 0.00 in0.0 mm
01:18 AM 72.0°F22.2°C 64.0°F17.8°C 76% 0.2 mph W0.3 kmh W 1.3 mph2.1 kmh 29.68 in1005.1 mb 0.00 in0.0 mm 0.00 in0.0 mm 0.00 in0.0 mm
01:19 AM 72.0°F22.2°C 64.4°F18.0°C 77% 0.2 mph W0.3 kmh W 1.3 mph2.1 kmh 29.68 in1005.1 mb 0.00 in0.0 mm 0.00 in0.0 mm 0.00 in0.0 mm
01:20 AM 72.0°F22.2°C 64.4°F18.0°C 77% 0.2 mph W0.3 kmh W 1.3 mph2.1 kmh 29.68 in1005.1 mb 0.00 in0.0 mm 0.00 in0.0 mm 0.00 in0.0 mm
01:21 AM 71.8°F22.1°C 64.2°F17.9°C 77% 0.1 mph W0.2 kmh W 0.9 mph1.4 kmh 29.68 in1005.1 mb 0.00 in0.0 mm 0.00 in0.0 mm 0.00 in0.0 mm
01:22 AM 71.8°F22.1°C 64.2°F17.9°C 77% 0.1 mph W0.2 kmh W 0.9 mph1.4 kmh 29.68 in1005.1 mb 0.00 in0.0 mm 0.00 in0.0 mm 0.00 in0.0 mm
01:23 AM 71.8°F22.1°C 64.2°F17.9°C 77% 0.1 mph W0.2 kmh W 0.9 mph1.4 kmh 29.68 in1005.1 mb 0.00 in0.0 mm 0.00 in0.0 mm 0.00 in0.0 mm
01:24 AM 71.8°F22.1°C 64.2°F17.9°C 77% 0.1 mph W0.2 kmh W 0.9 mph1.4 kmh 29.68 in1005.1 mb 0.00 in0.0 mm 0.00 in0.0 mm 0.00 in0.0 mm
01:25 AM 71.8°F22.1°C 64.2°F17.9°C 77% 0.1 mph W0.2 kmh W 0.9 mph1.4 kmh 29.68 in1005.1 mb 0.00 in0.0 mm 0.00 in0.0 mm 0.00 in0.0 mm
01:26 AM 71.8°F22.1°C 64.2°F17.9°C 77% Calm Calm -- 29.68 in1005.1 mb 0.00 in0.0 mm 0.00 in0.0 mm 0.00 in0.0 mm
01:27 AM 71.8°F22.1°C 64.2°F17.9°C 77% Calm Calm -- 29.68 in1005.1 mb 0.00 in0.0 mm 0.00 in0.0 mm 0.00 in0.0 mm
01:28 AM 71.8°F22.1°C 64.2°F17.9°C 77% Calm Calm -- 29.68 in1005.1 mb 0.00 in0.0 mm 0.00 in0.0 mm 0.00 in0.0 mm
01:29 AM 71.8°F22.1°C 64.2°F17.9°C 77% Calm Calm -- 29.68 in1005.1 mb 0.00 in0.0 mm 0.00 in0.0 mm 0.00 in0.0 mm
01:30 AM 71.6°F22.0°C 64.0°F17.8°C 77% Calm Calm -- 29.68 in1005.1 mb 0.00 in0.0 mm 0.00 in0.0 mm 0.00 in0.0 mm
01:31 AM 71.6°F22.0°C 64.0°F17.8°C 77% Calm Calm -- 29.68 in1005.1 mb 0.00 in0.0 mm 0.00 in0.0 mm 0.00 in0.0 mm
01:32 AM 71.6°F22.0°C 64.0°F17.8°C 77% Calm Calm -- 29.68 in1005.1 mb 0.00 in0.0 mm 0.00 in0.0 mm 0.00 in0.0 mm
01:33 AM 71.6°F22.0°C 64.0°F17.8°C 77% Calm Calm -- 29.68 in1005.1 mb 0.00 in0.0 mm 0.00 in0.0 mm 0.00 in0.0 mm
01:34 AM 71.6°F22.0°C 64.0°F17.8°C 77% Calm Calm -- 29.68 in1005.1 mb 0.00 in0.0 mm 0.00 in0.0 mm 0.00 in0.0 mm
01:35 AM 71.6°F22.0°C 64.0°F17.8°C 77% Calm Calm -- 29.68 in1005.1 mb 0.00 in0.0 mm 0.00 in0.0 mm 0.00 in0.0 mm
01:36 AM 71.6°F22.0°C 64.0°F17.8°C 77% Calm Calm -- 29.68 in1005.1 mb 0.00 in0.0 mm 0.00 in0.0 mm 0.00 in0.0 mm
01:37 AM 71.6°F22.0°C 64.0°F17.8°C 77% Calm Calm -- 29.68 in1005.1 mb 0.00 in0.0 mm 0.00 in0.0 mm 0.00 in0.0 mm
01:38 AM 71.4°F21.9°C 64.2°F17.9°C 78% Calm Calm -- 29.68 in1005.1 mb 0.00 in0.0 mm 0.00 in0.0 mm 0.00 in0.0 mm
01:39 AM 71.4°F21.9°C 64.2°F17.9°C 78% Calm Calm -- 29.68 in1005.1 mb 0.00 in0.0 mm 0.00 in0.0 mm 0.00 in0.0 mm
01:40 AM 71.4°F21.9°C 64.2°F17.9°C 78% Calm Calm -- 29.68 in1005.1 mb 0.00 in0.0 mm 0.00 in0.0 mm 0.00 in0.0 mm
01:41 AM 71.4°F21.9°C 64.2°F17.9°C 78% Calm Calm -- 29.68 in1005.1 mb 0.00 in0.0 mm 0.00 in0.0 mm 0.00 in0.0 mm
01:42 AM 71.4°F21.9°C 64.2°F17.9°C 78% Calm Calm -- 29.68 in1005.1 mb 0.00 in0.0 mm 0.00 in0.0 mm 0.00 in0.0 mm
01:43 AM 71.2°F21.8°C 64.0°F17.8°C 78% 0.2 mph SW0.3 kmh SW 2.5 mph4.0 kmh 29.68 in1005.1 mb 0.00 in0.0 mm 0.00 in0.0 mm 0.00 in0.0 mm
01:44 AM 71.2°F21.8°C 64.0°F17.8°C 78% 0.3 mph SW0.5 kmh SW 2.5 mph4.0 kmh 29.68 in1005.1 mb 0.00 in0.0 mm 0.00 in0.0 mm 0.00 in0.0 mm
01:45 AM 71.4°F21.9°C 64.2°F17.9°C 78% 0.5 mph SW0.8 kmh SW 2.5 mph4.0 kmh 29.68 in1005.1 mb 0.00 in0.0 mm 0.00 in0.0 mm 0.00 in0.0 mm
01:46 AM 71.4°F21.9°C 64.2°F17.9°C 78% 0.5 mph SW0.8 kmh SW 2.5 mph4.0 kmh 29.68 in1005.1 mb 0.00 in0.0 mm 0.00 in0.0 mm 0.00 in0.0 mm
01:47 AM 71.2°F21.8°C 64.0°F17.8°C 78% 0.5 mph SW0.8 kmh SW 2.5 mph4.0 kmh 29.68 in1005.1 mb 0.00 in0.0 mm 0.00 in0.0 mm 0.00 in0.0 mm
01:48 AM 71.2°F21.8°C 64.0°F17.8°C 78% 0.5 mph SW0.8 kmh SW 2.5 mph4.0 kmh 29.68 in1005.1 mb 0.00 in0.0 mm 0.00 in0.0 mm 0.00 in0.0 mm
01:49 AM 71.2°F21.8°C 64.0°F17.8°C 78% 0.5 mph SW0.8 kmh SW 2.5 mph4.0 kmh 29.68 in1005.1 mb 0.00 in0.0 mm 0.00 in0.0 mm 0.00 in0.0 mm
01:50 AM 71.2°F21.8°C 64.0°F17.8°C 78% 0.5 mph SW0.8 kmh SW 2.5 mph4.0 kmh 29.68 in1005.1 mb 0.00 in0.0 mm 0.00 in0.0 mm 0.00 in0.0 mm
01:51 AM 71.2°F21.8°C 64.0°F17.8°C 78% 0.5 mph SW0.8 kmh SW 2.5 mph4.0 kmh 29.68 in1005.1 mb 0.00 in0.0 mm 0.00 in0.0 mm 0.00 in0.0 mm
01:52 AM 71.2°F21.8°C 64.0°F17.8°C 78% 0.5 mph SW0.8 kmh SW 2.5 mph4.0 kmh 29.68 in1005.1 mb 0.00 in0.0 mm 0.00 in0.0 mm 0.00 in0.0 mm
01:53 AM 71.2°F21.8°C 64.0°F17.8°C 78% 0.5 mph SW0.8 kmh SW 2.5 mph4.0 kmh 29.68 in1005.1 mb 0.00 in0.0 mm 0.00 in0.0 mm 0.00 in0.0 mm
01:54 AM 71.4°F21.9°C 64.2°F17.9°C 78% 0.4 mph WSW0.6 kmh WSW 2.5 mph4.0 kmh 29.68 in1005.1 mb 0.00 in0.0 mm 0.00 in0.0 mm 0.00 in0.0 mm
01:55 AM 71.4°F21.9°C 64.2°F17.9°C 78% Calm Calm -- 29.68 in1005.1 mb 0.00 in0.0 mm 0.00 in0.0 mm 0.00 in0.0 mm
01:56 AM 71.4°F21.9°C 64.6°F18.1°C 79% Calm Calm -- 29.68 in1005.1 mb 0.00 in0.0 mm 0.00 in0.0 mm 0.00 in0.0 mm
01:57 AM 71.2°F21.8°C 64.4°F18.0°C 79% Calm Calm -- 29.68 in1005.1 mb 0.00 in0.0 mm 0.00 in0.0 mm 0.00 in0.0 mm
01:58 AM 71.2°F21.8°C 64.4°F18.0°C 79% Calm Calm -- 29.68 in1005.1 mb 0.00 in0.0 mm 0.00 in0.0 mm 0.00 in0.0 mm
01:59 AM 71.2°F21.8°C 64.4°F18.0°C 79% Calm Calm -- 29.68 in1005.1 mb 0.00 in0.0 mm 0.00 in0.0 mm 0.00 in0.0 mm
02:00 AM 71.2°F21.8°C 64.4°F18.0°C 79% Calm Calm -- 29.68 in1005.1 mb 0.00 in0.0 mm 0.00 in0.0 mm 0.00 in0.0 mm
02:01 AM 71.1°F21.7°C 64.2°F17.9°C 79% 0.2 mph NW0.3 kmh NW 3.1 mph5.0 kmh 29.68 in1005.1 mb 0.00 in0.0 mm 0.00 in0.0 mm 0.00 in0.0 mm
02:02 AM 71.1°F21.7°C 64.2°F17.9°C 79% 0.2 mph NW0.3 kmh NW 3.1 mph5.0 kmh 29.68 in1005.1 mb 0.00 in0.0 mm 0.00 in0.0 mm 0.00 in0.0 mm
02:03 AM 71.1°F21.7°C 64.2°F17.9°C 79% 0.2 mph NW0.3 kmh NW 3.1 mph5.0 kmh 29.68 in1005.1 mb 0.00 in0.0 mm 0.00 in0.0 mm 0.00 in0.0 mm
02:04 AM 71.1°F21.7°C 64.6°F18.1°C 80% 0.2 mph NW0.3 kmh NW 3.1 mph5.0 kmh 29.68 in1005.1 mb 0.00 in0.0 mm 0.00 in0.0 mm 0.00 in0.0 mm
02:05 AM 71.1°F21.7°C 64.6°F18.1°C 80% 0.2 mph NW0.3 kmh NW 3.1 mph5.0 kmh 29.68 in1005.1 mb 0.00 in0.0 mm 0.00 in0.0 mm 0.00 in0.0 mm
02:06 AM 71.1°F21.7°C 64.6°F18.1°C 80% 0.2 mph NW0.3 kmh NW 3.1 mph5.0 kmh 29.68 in1005.1 mb 0.00 in0.0 mm 0.00 in0.0 mm 0.00 in0.0 mm
02:07 AM 71.1°F21.7°C 64.6°F18.1°C 80% 0.2 mph NW0.3 kmh NW 3.1 mph5.0 kmh 29.68 in1005.1 mb 0.00 in0.0 mm 0.00 in0.0 mm 0.00 in0.0 mm
02:08 AM 71.1°F21.7°C 64.6°F18.1°C 80% 0.2 mph NW0.3 kmh NW 3.1 mph5.0 kmh 29.68 in1005.1 mb 0.00 in0.0 mm 0.00 in0.0 mm 0.00 in0.0 mm
02:09 AM 71.1°F21.7°C 64.6°F18.1°C 80% 0.2 mph NW0.3 kmh NW 3.1 mph5.0 kmh 29.68 in1005.1 mb 0.00 in0.0 mm 0.00 in0.0 mm 0.00 in0.0 mm
02:10 AM 70.9°F21.6°C 64.4°F18.0°C 80% 0.2 mph NW0.3 kmh NW 3.1 mph5.0 kmh 29.68 in1005.1 mb 0.00 in0.0 mm 0.00 in0.0 mm 0.00 in0.0 mm
02:11 AM 70.9°F21.6°C 64.8°F18.2°C 81% 0.1 mph W0.2 kmh W 0.9 mph1.4 kmh 29.68 in1005.1 mb 0.00 in0.0 mm 0.00 in0.0 mm 0.00 in0.0 mm
02:12 AM 70.9°F21.6°C 64.8°F18.2°C 81% 0.1 mph W0.2 kmh W 0.9 mph1.4 kmh 29.68 in1005.1 mb 0.00 in0.0 mm 0.00 in0.0 mm 0.00 in0.0 mm
02:13 AM 70.9°F21.6°C 64.8°F18.2°C 81% 0.1 mph W0.2 kmh W 0.9 mph1.4 kmh 29.68 in1005.1 mb 0.00 in0.0 mm 0.00 in0.0 mm 0.00 in0.0 mm
02:14 AM 70.9°F21.6°C 64.8°F18.2°C 81% 0.1 mph W0.2 kmh W 0.9 mph1.4 kmh 29.68 in1005.1 mb 0.00 in0.0 mm 0.00 in0.0 mm 0.00 in0.0 mm
02:15 AM 70.9°F21.6°C 64.8°F18.2°C 81% 0.1 mph W0.2 kmh W 0.9 mph1.4 kmh 29.68 in1005.1 mb 0.00 in0.0 mm 0.00 in0.0 mm 0.00 in0.0 mm
02:16 AM 70.9°F21.6°C 64.8°F18.2°C 81% 0.1 mph W0.2 kmh W 0.9 mph1.4 kmh 29.68 in1005.1 mb 0.00 in0.0 mm 0.00 in0.0 mm 0.00 in0.0 mm
02:17 AM 70.9°F21.6°C 64.8°F18.2°C 81% 0.1 mph W0.2 kmh W 0.9 mph1.4 kmh 29.68 in1005.1 mb 0.00 in0.0 mm 0.00 in0.0 mm 0.00 in0.0 mm
02:18 AM 70.9°F21.6°C 64.8°F18.2°C 81% 0.2 mph NW0.3 kmh NW 2.0 mph3.2 kmh 29.68 in1005.1 mb 0.00 in0.0 mm 0.00 in0.0 mm 0.00 in0.0 mm
02:19 AM 70.9°F21.6°C 64.8°F18.2°C 81% 0.3 mph NW0.5 kmh NW 2.0 mph3.2 kmh 29.68 in1005.1 mb 0.00 in0.0 mm 0.00 in0.0 mm 0.00 in0.0 mm
02:20 AM 70.9°F21.6°C 64.8°F18.2°C 81% 0.4 mph NW0.6 kmh NW 2.5 mph4.0 kmh 29.68 in1005.1 mb 0.00 in0.0 mm 0.00 in0.0 mm 0.00 in0.0 mm
02:21 AM 70.9°F21.6°C 64.8°F18.2°C 81% 0.4 mph NW0.6 kmh NW 2.5 mph4.0 kmh 29.68 in1005.1 mb 0.00 in0.0 mm 0.00 in0.0 mm 0.00 in0.0 mm
02:22 AM 70.9°F21.6°C 64.8°F18.2°C 81% 0.5 mph NW0.8 kmh NW 2.5 mph4.0 kmh 29.68 in1005.1 mb 0.00 in0.0 mm 0.00 in0.0 mm 0.00 in0.0 mm
02:23 AM 70.9°F21.6°C 64.8°F18.2°C 81% 0.5 mph NW0.8 kmh NW 2.5 mph4.0 kmh 29.68 in1005.1 mb 0.00 in0.0 mm 0.00 in0.0 mm 0.00 in0.0 mm
02:24 AM 70.7°F21.5°C 64.6°F18.1°C 81% 0.5 mph NW0.8 kmh NW 2.5 mph4.0 kmh 29.68 in1005.1 mb 0.00 in0.0 mm 0.00 in0.0 mm 0.00 in0.0 mm
02:25 AM 70.7°F21.5°C 64.6°F18.1°C 81% 0.6 mph NW1.0 kmh NW 2.5 mph4.0 kmh 29.68 in1005.1 mb 0.00 in0.0 mm 0.00 in0.0 mm 0.00 in0.0 mm
02:26 AM 70.9°F21.6°C 64.8°F18.2°C 81% 0.8 mph WNW1.3 kmh WNW 2.5 mph4.0 kmh 29.68 in1005.1 mb 0.00 in0.0 mm 0.00 in0.0 mm 0.00 in0.0 mm
02:27 AM 70.9°F21.6°C 65.1°F18.4°C 82% 1.1 mph WNW1.8 kmh WNW 3.1 mph5.0 kmh 29.68 in1005.1 mb 0.00 in0.0 mm 0.00 in0.0 mm 0.00 in0.0 mm
02:28 AM 70.9°F21.6°C 65.1°F18.4°C 82% 1.3 mph WNW2.1 kmh WNW 3.8 mph6.1 kmh 29.68 in1005.1 mb 0.00 in0.0 mm 0.00 in0.0 mm 0.00 in0.0 mm
02:29 AM 71.1°F21.7°C 65.3°F18.5°C 82% 1.4 mph WNW2.3 kmh WNW 3.8 mph6.1 kmh 29.68 in1005.1 mb 0.00 in0.0 mm 0.00 in0.0 mm 0.00 in0.0 mm
02:30 AM 71.1°F21.7°C 65.3°F18.5°C 82% 1.5 mph WNW2.4 kmh WNW 3.8 mph6.1 kmh 29.68 in1005.1 mb 0.00 in0.0 mm 0.00 in0.0 mm 0.00 in0.0 mm
02:31 AM 71.1°F21.7°C 65.3°F18.5°C 82% 1.7 mph WNW2.7 kmh WNW 3.8 mph6.1 kmh 29.68 in1005.1 mb 0.00 in0.0 mm 0.00 in0.0 mm 0.00 in0.0 mm
02:32 AM 71.1°F21.7°C 65.3°F18.5°C 82% 1.8 mph WNW2.9 kmh WNW 3.8 mph6.1 kmh 29.68 in1005.1 mb 0.00 in0.0 mm 0.00 in0.0 mm 0.00 in0.0 mm
02:33 AM 71.1°F21.7°C 65.3°F18.5°C 82% 2.2 mph WNW3.5 kmh WNW 4.0 mph6.4 kmh 29.68 in1005.1 mb 0.00 in0.0 mm 0.00 in0.0 mm 0.00 in0.0 mm
02:34 AM 71.2°F21.8°C 65.8°F18.8°C 83% 2.6 mph WNW4.2 kmh WNW 4.0 mph6.4 kmh 29.68 in1005.1 mb 0.00 in0.0 mm 0.00 in0.0 mm 0.00 in0.0 mm
02:35 AM 71.2°F21.8°C 65.8°F18.8°C 83% 2.6 mph WNW4.2 kmh WNW 4.0 mph6.4 kmh 29.68 in1005.1 mb 0.00 in0.0 mm 0.00 in0.0 mm 0.00 in0.0 mm
02:36 AM 71.1°F21.7°C 65.3°F18.5°C 82% 2.8 mph WNW4.5 kmh WNW 4.0 mph6.4 kmh 29.68 in1005.1 mb 0.00 in0.0 mm 0.00 in0.0 mm 0.00 in0.0 mm
02:37 AM 71.1°F21.7°C 65.3°F18.5°C 82% 2.7 mph WNW4.3 kmh WNW 4.0 mph6.4 kmh 29.68 in1005.1 mb 0.00 in0.0 mm 0.00 in0.0 mm 0.00 in0.0 mm
02:38 AM 71.1°F21.7°C 65.3°F18.5°C 82% 2.5 mph WNW4.0 kmh WNW 4.0 mph6.4 kmh 29.68 in1005.1 mb 0.00 in0.0 mm 0.00 in0.0 mm 0.00 in0.0 mm
02:39 AM 71.1°F21.7°C 65.3°F18.5°C 82% 2.6 mph WNW4.2 kmh WNW 5.6 mph9.0 kmh 29.68 in1005.1 mb 0.00 in0.0 mm 0.00 in0.0 mm 0.00 in0.0 mm
02:40 AM 71.1°F21.7°C 65.6°F18.7°C 83% 2.8 mph WNW4.5 kmh WNW 5.6 mph9.0 kmh 29.68 in1005.1 mb 0.00 in0.0 mm 0.00 in0.0 mm 0.00 in0.0 mm
02:41 AM 71.1°F21.7°C 65.6°F18.7°C 83% 2.9 mph W4.7 kmh W 5.6 mph9.0 kmh 29.68 in1005.1 mb 0.00 in0.0 mm 0.00 in0.0 mm 0.00 in0.0 mm
02:42 AM 71.1°F21.7°C 65.6°F18.7°C 83% 2.9 mph W4.7 kmh W 5.6 mph9.0 kmh 29.68 in1005.1 mb 0.00 in0.0 mm 0.00 in0.0 mm 0.00 in0.0 mm
02:43 AM 71.2°F21.8°C 65.8°F18.8°C 83% 2.7 mph W4.3 kmh W 5.6 mph9.0 kmh 29.68 in1005.1 mb 0.00 in0.0 mm 0.00 in0.0 mm 0.00 in0.0 mm
02:44 AM 71.1°F21.7°C 65.6°F18.7°C 83% 2.7 mph W4.3 kmh W 5.6 mph9.0 kmh 29.68 in1005.1 mb 0.00 in0.0 mm 0.00 in0.0 mm 0.00 in0.0 mm
02:45 AM 71.1°F21.7°C 65.6°F18.7°C 83% 2.4 mph W3.9 kmh W 5.6 mph9.0 kmh 29.68 in1005.1 mb 0.00 in0.0 mm 0.00 in0.0 mm 0.00 in0.0 mm
02:46 AM 71.2°F21.8°C 65.8°F18.8°C 83% 2.4 mph W3.9 kmh W 5.6 mph9.0 kmh 29.68 in1005.1 mb 0.00 in0.0 mm 0.00 in0.0 mm 0.00 in0.0 mm
02:47 AM 71.2°F21.8°C 65.8°F18.8°C 83% 2.4 mph W3.9 kmh W 5.6 mph9.0 kmh 29.68 in1005.1 mb 0.00 in0.0 mm 0.00 in0.0 mm 0.00 in0.0 mm
02:48 AM 71.1°F21.7°C 66.0°F18.9°C 84% 2.5 mph WNW4.0 kmh WNW 5.6 mph9.0 kmh 29.68 in1005.1 mb 0.00 in0.0 mm 0.00 in0.0 mm 0.00 in0.0 mm
02:49 AM 71.1°F21.7°C 66.0°F18.9°C 84% 2.3 mph W3.7 kmh W 5.6 mph9.0 kmh 29.68 in1005.1 mb 0.00 in0.0 mm 0.00 in0.0 mm 0.00 in0.0 mm
02:50 AM 71.2°F21.8°C 66.2°F19.0°C 84% 2.4 mph W3.9 kmh W 5.8 mph9.3 kmh 29.68 in1005.1 mb 0.00 in0.0 mm 0.00 in0.0 mm 0.00 in0.0 mm
02:51 AM 71.2°F21.8°C 66.2°F19.0°C 84% 2.4 mph W3.9 kmh W 5.8 mph9.3 kmh 29.68 in1005.1 mb 0.00 in0.0 mm 0.00 in0.0 mm 0.00 in0.0 mm
02:52 AM 71.2°F21.8°C 66.2°F19.0°C 84% 2.2 mph W3.5 kmh W 5.8 mph9.3 kmh 29.68 in1005.1 mb 0.00 in0.0 mm 0.00 in0.0 mm 0.00 in0.0 mm
02:53 AM 71.2°F21.8°C 66.2°F19.0°C 84% 2.1 mph W3.4 kmh W 5.8 mph9.3 kmh 29.68 in1005.1 mb 0.00 in0.0 mm 0.00 in0.0 mm 0.00 in0.0 mm
02:54 AM 71.2°F21.8°C 66.2°F19.0°C 84% 2.1 mph W3.4 kmh W 5.8 mph9.3 kmh 29.68 in1005.1 mb 0.00 in0.0 mm 0.00 in0.0 mm 0.00 in0.0 mm
02:55 AM 71.2°F21.8°C 66.2°F19.0°C 84% 2.3 mph W3.7 kmh W 5.8 mph9.3 kmh 29.68 in1005.1 mb 0.00 in0.0 mm 0.00 in0.0 mm 0.00 in0.0 mm
02:56 AM 71.2°F21.8°C 66.2°F19.0°C 84% 2.4 mph W3.9 kmh W 5.8 mph9.3 kmh 29.68 in1005.1 mb 0.00 in0.0 mm 0.00 in0.0 mm 0.00 in0.0 mm
02:57 AM 71.2°F21.8°C 66.2°F19.0°C 84% 2.6 mph W4.2 kmh W 5.8 mph9.3 kmh 29.68 in1005.1 mb 0.00 in0.0 mm 0.00 in0.0 mm 0.00 in0.0 mm
02:58 AM 71.2°F21.8°C 66.2°F19.0°C 84% 2.2 mph W3.5 kmh W 5.8 mph9.3 kmh 29.68 in1005.1 mb 0.00 in0.0 mm 0.00 in0.0 mm 0.00 in0.0 mm
02:59 AM 71.2°F21.8°C 66.2°F19.0°C 84% 2.1 mph W3.4 kmh W 5.8 mph9.3 kmh 29.68 in1005.1 mb 0.00 in0.0 mm 0.00 in0.0 mm 0.00 in0.0 mm
03:00 AM 71.2°F21.8°C 66.2°F19.0°C 84% 1.9 mph W3.1 kmh W 5.8 mph9.3 kmh 29.68 in1005.1 mb 0.00 in0.0 mm 0.00 in0.0 mm 0.00 in0.0 mm
03:01 AM 71.2°F21.8°C 66.2°F19.0°C 84% 1.7 mph W2.7 kmh W 4.0 mph6.4 kmh 29.68 in1005.1 mb 0.00 in0.0 mm 0.00 in0.0 mm 0.00 in0.0 mm
03:02 AM 71.2°F21.8°C 66.2°F19.0°C 84% 1.5 mph W2.4 kmh W 4.0 mph6.4 kmh 29.68 in1005.1 mb 0.00 in0.0 mm 0.00 in0.0 mm 0.00 in0.0 mm
03:03 AM 71.2°F21.8°C 66.2°F19.0°C 84% 1.4 mph W2.3 kmh W 4.0 mph6.4 kmh 29.68 in1005.1 mb 0.00 in0.0 mm 0.00 in0.0 mm 0.00 in0.0 mm
03:04 AM 71.2°F21.8°C 66.2°F19.0°C 84% 1.4 mph WNW2.3 kmh WNW 4.0 mph6.4 kmh 29.68 in1005.1 mb 0.00 in0.0 mm 0.00 in0.0 mm 0.00 in0.0 mm
03:05 AM 71.2°F21.8°C 66.2°F19.0°C 84% 1.4 mph WNW2.3 kmh WNW 4.0 mph6.4 kmh 29.68 in1005.1 mb 0.00 in0.0 mm 0.00 in0.0 mm 0.00 in0.0 mm
03:06 AM 71.2°F21.8°C 66.2°F19.0°C 84% 1.5 mph WNW2.4 kmh WNW 4.0 mph6.4 kmh 29.68 in1005.1 mb 0.00 in0.0 mm 0.00 in0.0 mm 0.00 in0.0 mm
03:07 AM 71.4°F21.9°C 66.3°F19.1°C 84% 1.4 mph NW2.3 kmh NW 3.4 mph5.5 kmh 29.68 in1005.1 mb 0.00 in0.0 mm 0.00 in0.0 mm 0.00 in0.0 mm
03:08 AM 71.4°F21.9°C 66.3°F19.1°C 84% 1.6 mph NW2.6 kmh NW 3.4 mph5.5 kmh 29.68 in1005.1 mb 0.00 in0.0 mm 0.00 in0.0 mm 0.00 in0.0 mm
03:09 AM 71.2°F21.8°C 66.5°F19.2°C 85% 1.9 mph WNW3.1 kmh WNW 3.4 mph5.5 kmh 29.68 in1005.1 mb 0.00 in0.0 mm 0.00 in0.0 mm 0.00 in0.0 mm
03:10 AM 71.2°F21.8°C 66.5°F19.2°C 85% 1.9 mph WNW3.1 kmh WNW 3.4 mph5.5 kmh 29.68 in1005.1 mb 0.00 in0.0 mm 0.00 in0.0 mm 0.00 in0.0 mm
03:11 AM 71.2°F21.8°C 66.5°F19.2°C 85% 1.6 mph WNW2.6 kmh WNW 3.4 mph5.5 kmh 29.68 in1005.1 mb 0.00 in0.0 mm 0.00 in0.0 mm 0.00 in0.0 mm
03:12 AM 71.2°F21.8°C 66.5°F19.2°C 85% 1.9 mph WNW3.1 kmh WNW 4.7 mph7.6 kmh 29.68 in1005.1 mb 0.00 in0.0 mm 0.00 in0.0 mm 0.00 in0.0 mm
03:13 AM 71.2°F21.8°C 66.5°F19.2°C 85% 2.0 mph W3.2 kmh W 4.7 mph7.6 kmh 29.68 in1005.1 mb 0.00 in0.0 mm 0.00 in0.0 mm 0.00 in0.0 mm
03:14 AM 71.2°F21.8°C 66.5°F19.2°C 85% 2.4 mph W3.9 kmh W 4.7 mph7.6 kmh 29.68 in1005.1 mb 0.00 in0.0 mm 0.00 in0.0 mm 0.00 in0.0 mm
03:15 AM 71.2°F21.8°C 66.5°F19.2°C 85% 2.5 mph W4.0 kmh W 4.7 mph7.6 kmh 29.68 in1005.1 mb 0.00 in0.0 mm 0.00 in0.0 mm 0.00 in0.0 mm
03:16 AM 71.1°F21.7°C 66.3°F19.1°C 85% 2.0 mph W3.2 kmh W 4.7 mph7.6 kmh 29.68 in1005.1 mb 0.00 in0.0 mm 0.00 in0.0 mm 0.00 in0.0 mm
03:17 AM 71.1°F21.7°C 66.3°F19.1°C 85% 1.9 mph W3.1 kmh W 4.7 mph7.6 kmh 29.68 in1005.1 mb 0.00 in0.0 mm 0.00 in0.0 mm 0.00 in0.0 mm
03:18 AM 71.1°F21.7°C 66.3°F19.1°C 85% 1.8 mph W2.9 kmh W 4.7 mph7.6 kmh 29.68 in1005.1 mb 0.00 in0.0 mm 0.00 in0.0 mm 0.00 in0.0 mm
03:19 AM 71.1°F21.7°C 66.3°F19.1°C 85% 1.6 mph W2.6 kmh W 4.7 mph7.6 kmh 29.68 in1005.1 mb 0.00 in0.0 mm 0.00 in0.0 mm 0.00 in0.0 mm
03:20 AM 70.9°F21.6°C 66.1°F18.9°C 85% 1.7 mph W2.7 kmh W 4.7 mph7.6 kmh 29.68 in1005.1 mb 0.00 in0.0 mm 0.00 in0.0 mm 0.00 in0.0 mm
03:21 AM 70.9°F21.6°C 66.1°F18.9°C 85% 1.7 mph W2.7 kmh W 4.7 mph7.6 kmh 29.68 in1005.1 mb 0.00 in0.0 mm 0.00 in0.0 mm 0.00 in0.0 mm
03:22 AM 70.9°F21.6°C 66.1°F18.9°C 85% 1.5 mph W2.4 kmh W 4.7 mph7.6 kmh 29.68 in1005.1 mb 0.00 in0.0 mm 0.00 in0.0 mm 0.00 in0.0 mm
03:23 AM 70.9°F21.6°C 66.1°F18.9°C 85% 1.5 mph W2.4 kmh W 3.6 mph5.8 kmh 29.68 in1005.1 mb 0.00 in0.0 mm 0.00 in0.0 mm 0.00 in0.0 mm
03:24 AM 70.9°F21.6°C 66.1°F18.9°C 85% 1.4 mph W2.3 kmh W 3.6 mph5.8 kmh 29.68 in1005.1 mb 0.00 in0.0 mm 0.00 in0.0 mm 0.00 in0.0 mm
03:25 AM 70.7°F21.5°C 66.0°F18.9°C 85% 1.0 mph WNW1.6 kmh WNW 2.7 mph4.3 kmh 29.68 in1005.1 mb 0.00 in0.0 mm 0.00 in0.0 mm 0.00 in0.0 mm
03:26 AM 70.7°F21.5°C 66.0°F18.9°C 85% 1.0 mph WNW1.6 kmh WNW 2.7 mph4.3 kmh 29.68 in1005.1 mb 0.00 in0.0 mm 0.00 in0.0 mm 0.00 in0.0 mm
03:27 AM 70.7°F21.5°C 66.0°F18.9°C 85% 1.0 mph WNW1.6 kmh WNW 2.7 mph4.3 kmh 29.68 in1005.1 mb 0.00 in0.0 mm 0.00 in0.0 mm 0.00 in0.0 mm
03:28 AM 70.7°F21.5°C 66.0°F18.9°C 85% 0.9 mph W1.4 kmh W 2.7 mph4.3 kmh 29.68 in1005.1 mb 0.00 in0.0 mm 0.00 in0.0 mm 0.00 in0.0 mm
03:29 AM 70.7°F21.5°C 66.3°F19.1°C 86% 0.8 mph W1.3 kmh W 2.5 mph4.0 kmh 29.68 in1005.1 mb 0.00 in0.0 mm 0.00 in0.0 mm 0.00 in0.0 mm
03:30 AM 70.7°F21.5°C 66.0°F18.9°C 85% 0.9 mph W1.4 kmh W 2.5 mph4.0 kmh 29.68 in1005.1 mb 0.00 in0.0 mm 0.00 in0.0 mm 0.00 in0.0 mm
03:31 AM 70.7°F21.5°C 66.0°F18.9°C 85% 0.9 mph W1.4 kmh W 2.5 mph4.0 kmh 29.68 in1005.1 mb 0.00 in0.0 mm 0.00 in0.0 mm 0.00 in0.0 mm
03:32 AM 70.5°F21.4°C 65.8°F18.8°C 85% 0.7 mph W1.1 kmh W 2.5 mph4.0 kmh 29.68 in1005.1 mb 0.00 in0.0 mm 0.00 in0.0 mm 0.00 in0.0 mm
03:33 AM 70.5°F21.4°C 65.8°F18.8°C 85% 0.5 mph W0.8 kmh W 2.0 mph3.2 kmh 29.68 in1005.1 mb 0.00 in0.0 mm 0.00 in0.0 mm 0.00 in0.0 mm
03:34 AM 70.5°F21.4°C 65.8°F18.8°C 85% 0.3 mph W0.5 kmh W 2.0 mph3.2 kmh 29.68 in1005.1 mb 0.00 in0.0 mm 0.00 in0.0 mm 0.00 in0.0 mm
03:35 AM 70.5°F21.4°C 65.8°F18.8°C 85% 0.3 mph W0.5 kmh W 2.0 mph3.2 kmh 29.68 in1005.1 mb 0.00 in0.0 mm 0.00 in0.0 mm 0.00 in0.0 mm
03:36 AM 70.5°F21.4°C 65.8°F18.8°C 85% 0.3 mph W0.5 kmh W 2.0 mph3.2 kmh 29.68 in1005.1 mb 0.00 in0.0 mm 0.00 in0.0 mm 0.00 in0.0 mm
03:37 AM 70.3°F21.3°C 66.0°F18.9°C 86% 0.3 mph W0.5 kmh W 2.0 mph3.2 kmh 29.68 in1005.1 mb 0.00 in0.0 mm 0.00 in0.0 mm 0.00 in0.0 mm
03:38 AM 70.3°F21.3°C 66.0°F18.9°C 86% 0.3 mph W0.5 kmh W 2.0 mph3.2 kmh 29.68 in1005.1 mb 0.00 in0.0 mm 0.00 in0.0 mm 0.00 in0.0 mm
03:39 AM 70.3°F21.3°C 66.0°F18.9°C 86% 0.4 mph W0.6 kmh W 2.0 mph3.2 kmh 29.68 in1005.1 mb 0.00 in0.0 mm 0.00 in0.0 mm 0.00 in0.0 mm
03:40 AM 70.3°F21.3°C 66.0°F18.9°C 86% 0.3 mph W0.5 kmh W 2.0 mph3.2 kmh 29.68 in1005.1 mb 0.00 in0.0 mm 0.00 in0.0 mm 0.00 in0.0 mm
03:41 AM 70.2°F21.2°C 65.8°F18.8°C 86% 0.2 mph W0.3 kmh W 1.6 mph2.6 kmh 29.68 in1005.1 mb 0.00 in0.0 mm 0.00 in0.0 mm 0.00 in0.0 mm
03:42 AM 70.2°F21.2°C 65.8°F18.8°C 86% 0.2 mph W0.3 kmh W 1.6 mph2.6 kmh 29.68 in1005.1 mb 0.00 in0.0 mm 0.00 in0.0 mm 0.00 in0.0 mm
03:43 AM 70.2°F21.2°C 65.4°F18.6°C 85% 0.2 mph W0.3 kmh W 1.6 mph2.6 kmh 29.68 in1005.1 mb 0.00 in0.0 mm 0.00 in0.0 mm 0.00 in0.0 mm
03:44 AM 70.2°F21.2°C 65.4°F18.6°C 85% 0.2 mph W0.3 kmh W 1.6 mph2.6 kmh 29.68 in1005.1 mb 0.00 in0.0 mm 0.00 in0.0 mm 0.00 in0.0 mm
03:45 AM 70.2°F21.2°C 65.4°F18.6°C 85% 0.2 mph W0.3 kmh W 1.6 mph2.6 kmh 29.68 in1005.1 mb 0.00 in0.0 mm 0.00 in0.0 mm 0.00 in0.0 mm
03:46 AM 70.0°F21.1°C 65.6°F18.7°C 86% 0.2 mph W0.3 kmh W 1.6 mph2.6 kmh 29.68 in1005.1 mb 0.00 in0.0 mm 0.00 in0.0 mm 0.00 in0.0 mm
03:47 AM 70.0°F21.1°C 65.6°F18.7°C 86% 0.2 mph W0.3 kmh W 1.6 mph2.6 kmh 29.68 in1005.1 mb 0.00 in0.0 mm 0.00 in0.0 mm 0.00 in0.0 mm
03:48 AM 70.0°F21.1°C 65.6°F18.7°C 86% 0.2 mph W0.3 kmh W 1.6 mph2.6 kmh 29.68 in1005.1 mb 0.00 in0.0 mm 0.00 in0.0 mm 0.00 in0.0 mm
03:49 AM 70.0°F21.1°C 65.6°F18.7°C 86% Calm Calm -- 29.68 in1005.1 mb 0.00 in0.0 mm 0.00 in0.0 mm 0.00 in0.0 mm
03:50 AM 69.8°F21.0°C 65.4°F18.6°C 86% Calm Calm -- 29.68 in1005.1 mb 0.00 in0.0 mm 0.00 in0.0 mm 0.00 in0.0 mm
03:51 AM 69.8°F21.0°C 65.4°F18.6°C 86% Calm Calm -- 29.68 in1005.1 mb 0.00 in0.0 mm 0.00 in0.0 mm 0.00 in0.0 mm
03:52 AM 69.8°F21.0°C 65.4°F18.6°C 86% Calm Calm -- 29.68 in1005.1 mb 0.00 in0.0 mm 0.00 in0.0 mm 0.00 in0.0 mm
03:53 AM 69.8°F21.0°C 65.4°F18.6°C 86% Calm Calm -- 29.68 in1005.1 mb 0.00 in0.0 mm 0.00 in0.0 mm 0.00 in0.0 mm
03:54 AM 69.8°F21.0°C 65.4°F18.6°C 86% Calm Calm -- 29.68 in1005.1 mb 0.00 in0.0 mm 0.00 in0.0 mm 0.00 in0.0 mm
03:55 AM 69.6°F20.9°C 65.2°F18.4°C 86% Calm Calm -- 29.68 in1005.1 mb 0.00 in0.0 mm 0.00 in0.0 mm 0.00 in0.0 mm
03:56 AM 69.6°F20.9°C 65.2°F18.4°C 86% Calm Calm -- 29.68 in1005.1 mb 0.00 in0.0 mm 0.00 in0.0 mm 0.00 in0.0 mm
03:57 AM 69.6°F20.9°C 65.2°F18.4°C 86% Calm Calm -- 29.68 in1005.1 mb 0.00 in0.0 mm 0.00 in0.0 mm 0.00 in0.0 mm
03:58 AM 69.6°F20.9°C 65.2°F18.4°C 86% Calm Calm -- 29.68 in1005.1 mb 0.00 in0.0 mm 0.00 in0.0 mm 0.00 in0.0 mm
03:59 AM 69.6°F20.9°C 65.2°F18.4°C 86% 0.1 mph W0.2 kmh W 1.1 mph1.8 kmh 29.68 in1005.1 mb 0.00 in0.0 mm 0.00 in0.0 mm 0.00 in0.0 mm
04:00 AM 69.6°F20.9°C 65.2°F18.4°C 86% 0.1 mph W0.2 kmh W 1.1 mph1.8 kmh 29.68 in1005.1 mb 0.00 in0.0 mm 0.00 in0.0 mm 0.00 in0.0 mm
04:01 AM 69.6°F20.9°C 65.2°F18.4°C 86% 0.1 mph W0.2 kmh W 1.1 mph1.8 kmh 29.68 in1005.1 mb 0.00 in0.0 mm 0.00 in0.0 mm 0.00 in0.0 mm
04:02 AM 69.6°F20.9°C 65.6°F18.7°C 87% 0.1 mph W0.2 kmh W 1.1 mph1.8 kmh 29.68 in1005.1 mb 0.00 in0.0 mm 0.00 in0.0 mm 0.00 in0.0 mm
04:03 AM 69.6°F20.9°C 65.6°F18.7°C 87% 0.1 mph W0.2 kmh W 1.1 mph1.8 kmh 29.68 in1005.1 mb 0.00 in0.0 mm 0.00 in0.0 mm 0.00 in0.0 mm
04:04 AM 69.4°F20.8°C 65.4°F18.6°C 87% 0.1 mph W0.2 kmh W 1.1 mph1.8 kmh 29.68 in1005.1 mb 0.00 in0.0 mm 0.00 in0.0 mm 0.00 in0.0 mm
04:05 AM 69.4°F20.8°C 65.4°F18.6°C 87% 0.1 mph W0.2 kmh W 1.1 mph1.8 kmh 29.68 in1005.1 mb 0.00 in0.0 mm 0.00 in0.0 mm 0.00 in0.0 mm
04:06 AM 69.4°F20.8°C 65.4°F18.6°C 87% 0.1 mph W0.2 kmh W 1.1 mph1.8 kmh 29.68 in1005.1 mb 0.00 in0.0 mm 0.00 in0.0 mm 0.00 in0.0 mm
04:07 AM 69.4°F20.8°C 65.4°F18.6°C 87% 0.1 mph W0.2 kmh W 1.1 mph1.8 kmh 29.68 in1005.1 mb 0.00 in0.0 mm 0.00 in0.0 mm 0.00 in0.0 mm
04:08 AM 69.4°F20.8°C 65.4°F18.6°C 87% 0.1 mph W0.2 kmh W 1.1 mph1.8 kmh 29.68 in1005.1 mb 0.00 in0.0 mm 0.00 in0.0 mm 0.00 in0.0 mm
04:09 AM 69.4°F20.8°C 65.4°F18.6°C 87% Calm Calm -- 29.68 in1005.1 mb 0.00 in0.0 mm 0.00 in0.0 mm 0.00 in0.0 mm
04:10 AM 69.4°F20.8°C 65.4°F18.6°C 87% Calm Calm -- 29.68 in1005.1 mb 0.00 in0.0 mm 0.00 in0.0 mm 0.00 in0.0 mm
04:11 AM 69.4°F20.8°C 65.4°F18.6°C 87% Calm Calm -- 29.68 in1005.1 mb 0.00 in0.0 mm 0.00 in0.0 mm 0.00 in0.0 mm
04:12 AM 69.4°F20.8°C 65.4°F18.6°C 87% Calm Calm -- 29.68 in1005.1 mb 0.00 in0.0 mm 0.00 in0.0 mm 0.00 in0.0 mm
04:13 AM 69.6°F20.9°C 65.6°F18.7°C 87% Calm Calm -- 29.68 in1005.1 mb 0.00 in0.0 mm 0.00 in0.0 mm 0.00 in0.0 mm
04:14 AM 69.6°F20.9°C 65.6°F18.7°C 87% 0.1 mph W0.2 kmh W 1.6 mph2.6 kmh 29.68 in1005.1 mb 0.00 in0.0 mm 0.00 in0.0 mm 0.00 in0.0 mm
04:15 AM 69.6°F20.9°C 65.9°F18.8°C 88% 0.2 mph W0.3 kmh W 1.6 mph2.6 kmh 29.68 in1005.1 mb 0.00 in0.0 mm 0.00 in0.0 mm 0.00 in0.0 mm
04:16 AM 69.6°F20.9°C 65.9°F18.8°C 88% 0.2 mph W0.3 kmh W 1.6 mph2.6 kmh 29.68 in1005.1 mb 0.00 in0.0 mm 0.00 in0.0 mm 0.00 in0.0 mm
04:17 AM 69.6°F20.9°C 65.9°F18.8°C 88% 0.2 mph W0.3 kmh W 1.6 mph2.6 kmh 29.68 in1005.1 mb 0.00 in0.0 mm 0.00 in0.0 mm 0.00 in0.0 mm
04:18 AM 69.6°F20.9°C 65.9°F18.8°C 88% 0.2 mph W0.3 kmh W 1.6 mph2.6 kmh 29.68 in1005.1 mb 0.00 in0.0 mm 0.00 in0.0 mm 0.00 in0.0 mm
04:19 AM 69.6°F20.9°C 65.9°F18.8°C 88% 0.3 mph W0.5 kmh W 2.2 mph3.5 kmh 29.68 in1005.1 mb 0.00 in0.0 mm 0.00 in0.0 mm 0.00 in0.0 mm
04:20 AM 69.8°F21.0°C 66.1°F18.9°C 88% 0.7 mph WSW1.1 kmh WSW 3.1 mph5.0 kmh 29.68 in1005.1 mb 0.00 in0.0 mm 0.00 in0.0 mm 0.00 in0.0 mm
04:21 AM 69.8°F21.0°C 66.1°F18.9°C 88% 0.7 mph WSW1.1 kmh WSW 3.1 mph5.0 kmh 29.68 in1005.1 mb 0.00 in0.0 mm 0.00 in0.0 mm 0.00 in0.0 mm
04:22 AM 69.8°F21.0°C 66.1°F18.9°C 88% 0.9 mph WSW1.4 kmh WSW 3.1 mph5.0 kmh 29.68 in1005.1 mb 0.00 in0.0 mm 0.00 in0.0 mm 0.00 in0.0 mm
04:23 AM 69.8°F21.0°C 66.1°F18.9°C 88% 0.8 mph WSW1.3 kmh WSW 3.1 mph5.0 kmh 29.68 in1005.1 mb 0.00 in0.0 mm 0.00 in0.0 mm 0.00 in0.0 mm
04:24 AM 69.8°F21.0°C 66.1°F18.9°C 88% 0.8 mph WSW1.3 kmh WSW 3.1 mph5.0 kmh 29.68 in1005.1 mb 0.00 in0.0 mm 0.00 in0.0 mm 0.00 in0.0 mm
04:25 AM 69.8°F21.0°C 66.1°F18.9°C 88% 0.7 mph WSW1.1 kmh WSW 3.1 mph5.0 kmh 29.68 in1005.1 mb 0.00 in0.0 mm 0.00 in0.0 mm 0.00 in0.0 mm
04:26 AM 69.8°F21.0°C 66.1°F18.9°C 88% 0.7 mph WSW1.1 kmh WSW 3.1 mph5.0 kmh 29.68 in1005.1 mb 0.00 in0.0 mm 0.00 in0.0 mm 0.00 in0.0 mm
04:27 AM 69.8°F21.0°C 66.1°F18.9°C 88% 0.7 mph WSW1.1 kmh WSW 3.1 mph5.0 kmh 29.68 in1005.1 mb 0.00 in0.0 mm 0.00 in0.0 mm 0.00 in0.0 mm
04:28 AM 69.8°F21.0°C 66.1°F18.9°C 88% 0.8 mph WSW1.3 kmh WSW 3.1 mph5.0 kmh 29.68 in1005.1 mb 0.00 in0.0 mm 0.00 in0.0 mm 0.00 in0.0 mm
04:29 AM 70.0°F21.1°C 66.3°F19.1°C 88% 0.7 mph WSW1.1 kmh WSW 3.1 mph5.0 kmh 29.68 in1005.1 mb 0.00 in0.0 mm 0.00 in0.0 mm 0.00 in0.0 mm
04:30 AM 70.0°F21.1°C 66.3°F19.1°C 88% 0.3 mph W0.5 kmh W 1.3 mph2.1 kmh 29.68 in1005.1 mb 0.00 in0.0 mm 0.00 in0.0 mm 0.00 in0.0 mm
04:31 AM 70.0°F21.1°C 66.3°F19.1°C 88% 0.3 mph W0.5 kmh W 1.3 mph2.1 kmh 29.68 in1005.1 mb 0.00 in0.0 mm 0.00 in0.0 mm 0.00 in0.0 mm
04:32 AM 69.8°F21.0°C 66.1°F18.9°C 88% 0.1 mph W0.2 kmh W 1.1 mph1.8 kmh 29.68 in1005.1 mb 0.00 in0.0 mm 0.00 in0.0 mm 0.00 in0.0 mm
04:33 AM 69.8°F21.0°C 66.1°F18.9°C 88% 0.1 mph W0.2 kmh W 1.1 mph1.8 kmh 29.68 in1005.1 mb 0.00 in0.0 mm 0.00 in0.0 mm 0.00 in0.0 mm
04:34 AM 70.0°F21.1°C 66.3°F19.1°C 88% 0.3 mph WNW0.5 kmh WNW 1.1 mph1.8 kmh 29.68 in1005.1 mb 0.00 in0.0 mm 0.00 in0.0 mm 0.00 in0.0 mm
04:35 AM 70.0°F21.1°C 66.3°F19.1°C 88% 0.3 mph WNW0.5 kmh WNW 1.1 mph1.8 kmh 29.68 in1005.1 mb 0.00 in0.0 mm 0.00 in0.0 mm 0.00 in0.0 mm
04:36 AM 70.0°F21.1°C 66.3°F19.1°C 88% 0.5 mph NW0.8 kmh NW 1.3 mph2.1 kmh 29.68 in1005.1 mb 0.00 in0.0 mm 0.00 in0.0 mm 0.00 in0.0 mm
04:37 AM 70.0°F21.1°C 66.3°F19.1°C 88% 0.5 mph NW0.8 kmh NW 1.3 mph2.1 kmh 29.68 in1005.1 mb 0.00 in0.0 mm 0.00 in0.0 mm 0.00 in0.0 mm
04:38 AM 70.0°F21.1°C 66.3°F19.1°C 88% 0.5 mph NW0.8 kmh NW 2.2 mph3.5 kmh 29.68 in1005.1 mb 0.00 in0.0 mm 0.00 in0.0 mm 0.00 in0.0 mm
04:39 AM 70.0°F21.1°C 66.3°F19.1°C 88% 0.5 mph NW0.8 kmh NW 2.2 mph3.5 kmh 29.68 in1005.1 mb 0.00 in0.0 mm 0.00 in0.0 mm 0.00 in0.0 mm
04:40 AM 70.0°F21.1°C 66.3°F19.1°C 88% 0.5 mph NW0.8 kmh NW 2.2 mph3.5 kmh 29.68 in1005.1 mb 0.00 in0.0 mm 0.00 in0.0 mm 0.00 in0.0 mm
04:41 AM 70.0°F21.1°C 66.3°F19.1°C 88% 0.5 mph NW0.8 kmh NW 2.2 mph3.5 kmh 29.68 in1005.1 mb 0.00 in0.0 mm 0.00 in0.0 mm 0.00 in0.0 mm
04:42 AM 70.0°F21.1°C 66.3°F19.1°C 88% 0.5 mph NW0.8 kmh NW 2.2 mph3.5 kmh 29.68 in1005.1 mb 0.00 in0.0 mm 0.00 in0.0 mm 0.00 in0.0 mm
04:43 AM 70.2°F21.2°C 66.4°F19.1°C 88% 0.5 mph NW0.8 kmh NW 2.2 mph3.5 kmh 29.68 in1005.1 mb 0.00 in0.0 mm 0.00 in0.0 mm 0.00 in0.0 mm
04:44 AM 70.2°F21.2°C 66.4°F19.1°C 88% 0.6 mph NW1.0 kmh NW 2.5 mph4.0 kmh 29.68 in1005.1 mb 0.00 in0.0 mm 0.00 in0.0 mm 0.00 in0.0 mm
04:45 AM 70.2°F21.2°C 66.4°F19.1°C 88% 0.6 mph NW1.0 kmh NW 2.5 mph4.0 kmh 29.68 in1005.1 mb 0.00 in0.0 mm 0.00 in0.0 mm 0.00 in0.0 mm
04:46 AM 70.2°F21.2°C 66.4°F19.1°C 88% 0.4 mph NW0.6 kmh NW 2.5 mph4.0 kmh 29.68 in1005.1 mb 0.00 in0.0 mm 0.00 in0.0 mm 0.00 in0.0 mm
04:47 AM 70.2°F21.2°C 66.4°F19.1°C 88% 0.4 mph NW0.6 kmh NW 2.5 mph4.0 kmh 29.68 in1005.1 mb 0.00 in0.0 mm 0.00 in0.0 mm 0.00 in0.0 mm
04:48 AM 70.2°F21.2°C 66.4°F19.1°C 88% 0.8 mph WNW1.3 kmh WNW 3.6 mph5.8 kmh 29.68 in1005.1 mb 0.00 in0.0 mm 0.00 in0.0 mm 0.00 in0.0 mm
04:49 AM 70.2°F21.2°C 66.4°F19.1°C 88% 0.8 mph WNW1.3 kmh WNW 3.6 mph5.8 kmh 29.68 in1005.1 mb 0.00 in0.0 mm 0.00 in0.0 mm 0.00 in0.0 mm
04:50 AM 70.2°F21.2°C 66.4°F19.1°C 88% 0.8 mph WNW1.3 kmh WNW 3.6 mph5.8 kmh 29.68 in1005.1 mb 0.00 in0.0 mm 0.00 in0.0 mm 0.00 in0.0 mm
04:51 AM 70.2°F21.2°C 66.4°F19.1°C 88% 0.9 mph WNW1.4 kmh WNW 3.6 mph5.8 kmh 29.68 in1005.1 mb 0.00 in0.0 mm 0.00 in0.0 mm 0.00 in0.0 mm
04:52 AM 70.2°F21.2°C 66.4°F19.1°C 88% 0.9 mph WNW1.4 kmh WNW 3.6 mph5.8 kmh 29.68 in1005.1 mb 0.00 in0.0 mm 0.00 in0.0 mm 0.00 in0.0 mm
04:53 AM 70.2°F21.2°C 66.4°F19.1°C 88% 1.0 mph WNW1.6 kmh WNW 3.6 mph5.8 kmh 29.68 in1005.1 mb 0.00 in0.0 mm 0.00 in0.0 mm 0.00 in0.0 mm
04:54 AM 70.2°F21.2°C 66.4°F19.1°C 88% 0.9 mph WNW1.4 kmh WNW 3.6 mph5.8 kmh 29.68 in1005.1 mb 0.00 in0.0 mm 0.00 in0.0 mm 0.00 in0.0 mm
04:55 AM 70.0°F21.1°C 66.3°F19.1°C 88% 1.0 mph WNW1.6 kmh WNW 3.6 mph5.8 kmh 29.68 in1005.1 mb 0.00 in0.0 mm 0.00 in0.0 mm 0.00 in0.0 mm
04:56 AM 70.0°F21.1°C 66.3°F19.1°C 88% 1.0 mph WNW1.6 kmh WNW 3.6 mph5.8 kmh 29.68 in1005.1 mb 0.00 in0.0 mm 0.00 in0.0 mm 0.00 in0.0 mm
04:57 AM 70.0°F21.1°C 66.3°F19.1°C 88% 1.0 mph WNW1.6 kmh WNW 3.6 mph5.8 kmh 29.68 in1005.1 mb 0.00 in0.0 mm 0.00 in0.0 mm 0.00 in0.0 mm
04:58 AM 70.0°F21.1°C 66.3°F19.1°C 88% 0.8 mph WNW1.3 kmh WNW 3.6 mph5.8 kmh 29.68 in1005.1 mb 0.00 in0.0 mm 0.00 in0.0 mm 0.00 in0.0 mm
04:59 AM 70.0°F21.1°C 66.3°F19.1°C 88% 0.5 mph NW0.8 kmh NW 2.2 mph3.5 kmh 29.68 in1005.1 mb 0.00 in0.0 mm 0.00 in0.0 mm 0.00 in0.0 mm
05:00 AM 70.0°F21.1°C 66.3°F19.1°C 88% 0.5 mph NW0.8 kmh NW 2.2 mph3.5 kmh 29.68 in1005.1 mb 0.00 in0.0 mm 0.00 in0.0 mm 0.00 in0.0 mm
05:01 AM 70.0°F21.1°C 66.3°F19.1°C 88% 0.5 mph NW0.8 kmh NW 2.2 mph3.5 kmh 29.68 in1005.1 mb 0.00 in0.0 mm 0.00 in0.0 mm 0.00 in0.0 mm
05:02 AM 70.0°F21.1°C 66.3°F19.1°C 88% 0.4 mph WNW0.6 kmh WNW 2.2 mph3.5 kmh 29.68 in1005.1 mb 0.00 in0.0 mm 0.00 in0.0 mm 0.00 in0.0 mm
05:03 AM 70.0°F21.1°C 66.3°F19.1°C 88% 0.5 mph NW0.8 kmh NW 2.2 mph3.5 kmh 29.68 in1005.1 mb 0.00 in0.0 mm 0.00 in0.0 mm 0.00 in0.0 mm
05:04 AM 70.0°F21.1°C 66.3°F19.1°C 88% 0.3 mph WNW0.5 kmh WNW 2.2 mph3.5 kmh 29.68 in1005.1 mb 0.00 in0.0 mm 0.00 in0.0 mm 0.00 in0.0 mm
05:05 AM 70.0°F21.1°C 66.3°F19.1°C 88% 0.1 mph NW0.2 kmh NW 1.3 mph2.1 kmh 29.68 in1005.1 mb 0.00 in0.0 mm 0.00 in0.0 mm 0.00 in0.0 mm
05:06 AM 70.0°F21.1°C 66.3°F19.1°C 88% 0.1 mph NW0.2 kmh NW 1.3 mph2.1 kmh 29.68 in1005.1 mb 0.00 in0.0 mm 0.00 in0.0 mm 0.00 in0.0 mm
05:07 AM 70.0°F21.1°C 66.3°F19.1°C 88% 0.2 mph WNW0.3 kmh WNW 1.3 mph2.1 kmh 29.68 in1005.1 mb 0.00 in0.0 mm 0.00 in0.0 mm 0.00 in0.0 mm
05:08 AM 70.0°F21.1°C 66.3°F19.1°C 88% 0.3 mph WNW0.5 kmh WNW 1.3 mph2.1 kmh 29.68 in1005.1 mb 0.00 in0.0 mm 0.00 in0.0 mm 0.00 in0.0 mm
05:09 AM 70.0°F21.1°C 66.3°F19.1°C 88% 0.3 mph WNW0.5 kmh WNW 1.3 mph2.1 kmh 29.68 in1005.1 mb 0.00 in0.0 mm 0.00 in0.0 mm 0.00 in0.0 mm
05:10 AM 70.0°F21.1°C 66.3°F19.1°C 88% 0.3 mph WNW0.5 kmh WNW 1.3 mph2.1 kmh 29.68 in1005.1 mb 0.00 in0.0 mm 0.00 in0.0 mm 0.00 in0.0 mm
05:11 AM 70.0°F21.1°C 66.3°F19.1°C 88% 0.3 mph WNW0.5 kmh WNW 1.3 mph2.1 kmh 29.68 in1005.1 mb 0.00 in0.0 mm 0.00 in0.0 mm 0.00 in0.0 mm
05:12 AM 70.0°F21.1°C 66.3°F19.1°C 88% 0.3 mph WNW0.5 kmh WNW 1.3 mph2.1 kmh 29.68 in1005.1 mb 0.00 in0.0 mm 0.00 in0.0 mm 0.00 in0.0 mm
05:13 AM 70.0°F21.1°C 66.3°F19.1°C 88% 0.2 mph W0.3 kmh W 1.3 mph2.1 kmh 29.68 in1005.1 mb 0.00 in0.0 mm 0.00 in0.0 mm 0.00 in0.0 mm
05:14 AM 70.0°F21.1°C 66.3°F19.1°C 88% 0.2 mph W0.3 kmh W 1.3 mph2.1 kmh 29.68 in1005.1 mb 0.00 in0.0 mm 0.00 in0.0 mm 0.00 in0.0 mm
05:15 AM 70.0°F21.1°C 66.3°F19.1°C 88% 0.2 mph W0.3 kmh W 1.3 mph2.1 kmh 29.68 in1005.1 mb 0.00 in0.0 mm 0.00 in0.0 mm 0.00 in0.0 mm
05:16 AM 70.0°F21.1°C 66.3°F19.1°C 88% 0.2 mph W0.3 kmh W 1.3 mph2.1 kmh 29.68 in1005.1 mb 0.00 in0.0 mm 0.00 in0.0 mm 0.00 in0.0 mm
05:17 AM 70.0°F21.1°C 66.3°F19.1°C 88% 0.2 mph W0.3 kmh W 1.3 mph2.1 kmh 29.68 in1005.1 mb 0.00 in0.0 mm 0.00 in0.0 mm 0.00 in0.0 mm
05:18 AM 70.0°F21.1°C 66.3°F19.1°C 88% Calm Calm -- 29.68 in1005.1 mb 0.00 in0.0 mm 0.00 in0.0 mm 0.00 in0.0 mm
05:19 AM 70.0°F21.1°C 66.3°F19.1°C 88% Calm Calm -- 29.68 in1005.1 mb 0.00 in0.0 mm 0.00 in0.0 mm 0.00 in0.0 mm
05:20 AM 70.0°F21.1°C 66.3°F19.1°C 88% Calm Calm -- 29.68 in1005.1 mb 0.00 in0.0 mm 0.00 in0.0 mm 0.00 in0.0 mm
05:21 AM 70.0°F21.1°C 66.3°F19.1°C 88% Calm Calm -- 29.68 in1005.1 mb 0.00 in0.0 mm 0.00 in0.0 mm 0.00 in0.0 mm
05:22 AM 70.0°F21.1°C 66.3°F19.1°C 88% Calm Calm -- 29.68 in1005.1 mb 0.00 in0.0 mm 0.00 in0.0 mm 0.00 in0.0 mm
05:23 AM 70.0°F21.1°C 66.3°F19.1°C 88% Calm Calm -- 29.68 in1005.1 mb 0.00 in0.0 mm 0.00 in0.0 mm 0.00 in0.0 mm
05:24 AM 70.0°F21.1°C 66.3°F19.1°C 88% 0.1 mph W0.2 kmh W 1.3 mph2.1 kmh 29.68 in1005.1 mb 0.00 in0.0 mm 0.00 in0.0 mm 0.00 in0.0 mm
05:25 AM 70.0°F21.1°C 66.3°F19.1°C 88% 0.1 mph W0.2 kmh W 1.3 mph2.1 kmh 29.68 in1005.1 mb 0.00 in0.0 mm 0.00 in0.0 mm 0.00 in0.0 mm
05:26 AM 70.0°F21.1°C 66.3°F19.1°C 88% 0.1 mph W0.2 kmh W 1.3 mph2.1 kmh 29.68 in1005.1 mb 0.00 in0.0 mm 0.00 in0.0 mm 0.00 in0.0 mm
05:27 AM 70.0°F21.1°C 66.3°F19.1°C 88% 0.1 mph W0.2 kmh W 1.3 mph2.1 kmh 29.68 in1005.1 mb 0.00 in0.0 mm 0.00 in0.0 mm 0.00 in0.0 mm
05:28 AM 70.0°F21.1°C 66.3°F19.1°C 88% 0.1 mph W0.2 kmh W 1.3 mph2.1 kmh 29.68 in1005.1 mb 0.00 in0.0 mm 0.00 in0.0 mm 0.00 in0.0 mm
05:29 AM 70.0°F21.1°C 66.3°F19.1°C 88% 0.1 mph W0.2 kmh W 1.3 mph2.1 kmh 29.68 in1005.1 mb 0.00 in0.0 mm 0.00 in0.0 mm 0.00 in0.0 mm
05:30 AM 70.0°F21.1°C 66.3°F19.1°C 88% 0.1 mph W0.2 kmh W 1.3 mph2.1 kmh 29.68 in1005.1 mb 0.00 in0.0 mm 0.00 in0.0 mm 0.00 in0.0 mm
05:31 AM 70.0°F21.1°C 66.3°F19.1°C 88% 0.1 mph W0.2 kmh W 1.3 mph2.1 kmh 29.68 in1005.1 mb 0.00 in0.0 mm 0.00 in0.0 mm 0.00 in0.0 mm
05:32 AM 70.0°F21.1°C 66.3°F19.1°C 88% 0.1 mph W0.2 kmh W 1.3 mph2.1 kmh 29.68 in1005.1 mb 0.00 in0.0 mm 0.00 in0.0 mm 0.00 in0.0 mm
05:33 AM 70.0°F21.1°C 66.3°F19.1°C 88% 0.1 mph W0.2 kmh W 1.3 mph2.1 kmh 29.68 in1005.1 mb 0.00 in0.0 mm 0.00 in0.0 mm 0.00 in0.0 mm
05:34 AM 70.2°F21.2°C 66.4°F19.1°C 88% Calm Calm -- 29.68 in1005.1 mb 0.00 in0.0 mm 0.00 in0.0 mm 0.00 in0.0 mm
05:35 AM 70.2°F21.2°C 66.4°F19.1°C 88% Calm Calm -- 29.68 in1005.1 mb 0.00 in0.0 mm 0.00 in0.0 mm 0.00 in0.0 mm
05:36 AM 70.2°F21.2°C 66.4°F19.1°C 88% 0.1 mph W0.2 kmh W 0.9 mph1.4 kmh 29.68 in1005.1 mb 0.00 in0.0 mm 0.00 in0.0 mm 0.00 in0.0 mm
05:37 AM 70.2°F21.2°C 66.4°F19.1°C 88% 0.1 mph W0.2 kmh W 0.9 mph1.4 kmh 29.68 in1005.1 mb 0.00 in0.0 mm 0.00 in0.0 mm 0.00 in0.0 mm
05:38 AM 70.2°F21.2°C 66.4°F19.1°C 88% 0.1 mph W0.2 kmh W 0.9 mph1.4 kmh 29.68 in1005.1 mb 0.00 in0.0 mm 0.00 in0.0 mm 0.00 in0.0 mm
05:39 AM 70.2°F21.2°C 66.4°F19.1°C 88% 0.1 mph W0.2 kmh W 0.9 mph1.4 kmh 29.68 in1005.1 mb 0.00 in0.0 mm 0.00 in0.0 mm 0.00 in0.0 mm
05:40 AM 70.2°F21.2°C 66.4°F19.1°C 88% 0.1 mph W0.2 kmh W 0.9 mph1.4 kmh 29.68 in1005.1 mb 0.00 in0.0 mm 0.00 in0.0 mm 0.00 in0.0 mm
05:41 AM 70.3°F21.3°C 66.6°F19.2°C 88% 0.1 mph W0.2 kmh W 0.9 mph1.4 kmh 29.68 in1005.1 mb 0.00 in0.0 mm 0.00 in0.0 mm 0.00 in0.0 mm
05:42 AM 70.3°F21.3°C 66.6°F19.2°C 88% 0.1 mph W0.2 kmh W 0.9 mph1.4 kmh 29.68 in1005.1 mb 0.00 in0.0 mm 0.00 in0.0 mm 0.00 in0.0 mm
05:43 AM 70.3°F21.3°C 66.6°F19.2°C 88% 0.1 mph W0.2 kmh W 0.9 mph1.4 kmh 29.68 in1005.1 mb 0.00 in0.0 mm 0.00 in0.0 mm 0.00 in0.0 mm
05:44 AM 70.3°F21.3°C 66.6°F19.2°C 88% 0.3 mph WNW0.5 kmh WNW 3.4 mph5.5 kmh 29.68 in1005.1 mb 0.00 in0.0 mm 0.00 in0.0 mm 0.00 in0.0 mm
05:45 AM 70.5°F21.4°C 66.8°F19.3°C 88% 0.5 mph WNW0.8 kmh WNW 3.4 mph5.5 kmh 29.68 in1005.1 mb 0.00 in0.0 mm 0.00 in0.0 mm 0.00 in0.0 mm
05:46 AM 70.5°F21.4°C 66.8°F19.3°C 88% 0.5 mph WNW0.8 kmh WNW 3.4 mph5.5 kmh 29.68 in1005.1 mb 0.00 in0.0 mm 0.00 in0.0 mm 0.00 in0.0 mm
05:47 AM 70.5°F21.4°C 66.8°F19.3°C 88% 0.4 mph WNW0.6 kmh WNW 3.4 mph5.5 kmh 29.68 in1005.1 mb 0.00 in0.0 mm 0.00 in0.0 mm 0.00 in0.0 mm
05:48 AM 70.7°F21.5°C 67.0°F19.4°C 88% 0.4 mph WNW0.6 kmh WNW 3.4 mph5.5 kmh 29.68 in1005.1 mb 0.00 in0.0 mm 0.00 in0.0 mm 0.00 in0.0 mm
05:49 AM 70.7°F21.5°C 67.0°F19.4°C 88% 0.4 mph WNW0.6 kmh WNW 3.4 mph5.5 kmh 29.68 in1005.1 mb 0.00 in0.0 mm 0.00 in0.0 mm 0.00 in0.0 mm
05:50 AM 70.7°F21.5°C 67.0°F19.4°C 88% 0.4 mph WNW0.6 kmh WNW 3.4 mph5.5 kmh 29.68 in1005.1 mb 0.00 in0.0 mm 0.00 in0.0 mm 0.00 in0.0 mm
05:51 AM 70.7°F21.5°C 67.0°F19.4°C 88% 0.6 mph WNW1.0 kmh WNW 3.4 mph5.5 kmh 29.71 in1006.1 mb 0.00 in0.0 mm 0.00 in0.0 mm 0.00 in0.0 mm
05:52 AM 70.9°F21.6°C 67.1°F19.5°C 88% 0.6 mph WNW1.0 kmh WNW 3.4 mph5.5 kmh 29.71 in1006.1 mb 0.00 in0.0 mm 0.00 in0.0 mm 0.00 in0.0 mm
05:53 AM 70.9°F21.6°C 67.1°F19.5°C 88% 0.7 mph WNW1.1 kmh WNW 3.4 mph5.5 kmh 29.71 in1006.1 mb 0.00 in0.0 mm 0.00 in0.0 mm 0.00 in0.0 mm
05:54 AM 70.9°F21.6°C 67.1°F19.5°C 88% 0.5 mph WNW0.8 kmh WNW 3.4 mph5.5 kmh 29.71 in1006.1 mb 0.00 in0.0 mm 0.00 in0.0 mm 0.00 in0.0 mm
05:55 AM 70.9°F21.6°C 67.1°F19.5°C 88% 0.3 mph WNW0.5 kmh WNW 2.9 mph4.7 kmh 29.71 in1006.1 mb 0.00 in0.0 mm 0.00 in0.0 mm 0.00 in0.0 mm
05:56 AM 71.1°F21.7°C 67.0°F19.4°C 87% 0.3 mph WNW0.5 kmh WNW 2.9 mph4.7 kmh 29.71 in1006.1 mb 0.00 in0.0 mm 0.00 in0.0 mm 0.00 in0.0 mm
05:57 AM 71.2°F21.8°C 67.2°F19.6°C 87% 0.3 mph WNW0.5 kmh WNW 2.9 mph4.7 kmh 29.71 in1006.1 mb 0.00 in0.0 mm 0.00 in0.0 mm 0.00 in0.0 mm
05:58 AM 71.2°F21.8°C 67.2°F19.6°C 87% 0.3 mph WNW0.5 kmh WNW 2.9 mph4.7 kmh 29.71 in1006.1 mb 0.00 in0.0 mm 0.00 in0.0 mm 0.00 in0.0 mm
05:59 AM 71.2°F21.8°C 67.2°F19.6°C 87% 0.3 mph WNW0.5 kmh WNW 2.9 mph4.7 kmh 29.71 in1006.1 mb 0.00 in0.0 mm 0.00 in0.0 mm 0.00 in0.0 mm
06:00 AM 71.4°F21.9°C 67.3°F19.6°C 87% 0.3 mph WNW0.5 kmh WNW 2.9 mph4.7 kmh 29.71 in1006.1 mb 0.00 in0.0 mm 0.00 in0.0 mm 0.00 in0.0 mm
06:01 AM 71.4°F21.9°C 67.3°F19.6°C 87% 0.3 mph NW0.5 kmh NW 3.8 mph6.1 kmh 29.71 in1006.1 mb 0.00 in0.0 mm 0.00 in0.0 mm 0.00 in0.0 mm
06:02 AM 71.6°F22.0°C 67.2°F19.6°C 86% 0.5 mph NW0.8 kmh NW 3.8 mph6.1 kmh 29.71 in1006.1 mb 0.00 in0.0 mm 0.00 in0.0 mm 0.00 in0.0 mm
06:03 AM 71.6°F22.0°C 67.2°F19.6°C 86% 0.6 mph NW1.0 kmh NW 3.8 mph6.1 kmh 29.71 in1006.1 mb 0.00 in0.0 mm 0.00 in0.0 mm 0.00 in0.0 mm
06:04 AM 71.8°F22.1°C 67.4°F19.7°C 86% 0.5 mph NW0.8 kmh NW 3.8 mph6.1 kmh 29.71 in1006.1 mb 0.00 in0.0 mm 0.00 in0.0 mm 0.00 in0.0 mm
06:05 AM 71.8°F22.1°C 67.4°F19.7°C 86% 0.4 mph NW0.6 kmh NW 3.8 mph6.1 kmh 29.71 in1006.1 mb 0.00 in0.0 mm 0.00 in0.0 mm 0.00 in0.0 mm
06:06 AM 71.8°F22.1°C 67.4°F19.7°C 86% 0.5 mph NW0.8 kmh NW 3.8 mph6.1 kmh 29.71 in1006.1 mb 0.00 in0.0 mm 0.00 in0.0 mm 0.00 in0.0 mm
06:07 AM 72.0°F22.2°C 67.5°F19.7°C 86% 0.6 mph NW1.0 kmh NW 3.8 mph6.1 kmh 29.71 in1006.1 mb 0.00 in0.0 mm 0.00 in0.0 mm 0.00 in0.0 mm
06:08 AM 72.0°F22.2°C 67.5°F19.7°C 86% 0.6 mph NW1.0 kmh NW 3.8 mph6.1 kmh 29.71 in1006.1 mb 0.00 in0.0 mm 0.00 in0.0 mm 0.00 in0.0 mm
06:09 AM 72.1°F22.3°C 67.7°F19.8°C 86% 0.7 mph NW1.1 kmh NW 3.8 mph6.1 kmh 29.71 in1006.1 mb 0.00 in0.0 mm 0.00 in0.0 mm 0.00 in0.0 mm
06:10 AM 72.1°F22.3°C 67.7°F19.8°C 86% 0.7 mph NW1.1 kmh NW 3.8 mph6.1 kmh 29.71 in1006.1 mb 0.00 in0.0 mm 0.00 in0.0 mm 0.00 in0.0 mm
06:11 AM 72.3°F22.4°C 67.6°F19.8°C 85% 0.7 mph W1.1 kmh W 3.8 mph6.1 kmh 29.71 in1006.1 mb 0.00 in0.0 mm 0.00 in0.0 mm 0.00 in0.0 mm
06:12 AM 72.3°F22.4°C 67.6°F19.8°C 85% 0.8 mph W1.3 kmh W 3.6 mph5.8 kmh 29.71 in1006.1 mb 0.00 in0.0 mm 0.00 in0.0 mm 0.00 in0.0 mm
06:13 AM 72.3°F22.4°C 67.6°F19.8°C 85% 0.8 mph W1.3 kmh W 3.6 mph5.8 kmh 29.71 in1006.1 mb 0.00 in0.0 mm 0.00 in0.0 mm 0.00 in0.0 mm
06:14 AM 72.7°F22.6°C 67.6°F19.8°C 84% 0.8 mph W1.3 kmh W 3.6 mph5.8 kmh 29.71 in1006.1 mb 0.00 in0.0 mm 0.00 in0.0 mm 0.00 in0.0 mm
06:15 AM 72.7°F22.6°C 67.6°F19.8°C 84% 0.8 mph W1.3 kmh W 3.6 mph5.8 kmh 29.71 in1006.1 mb 0.00 in0.0 mm 0.00 in0.0 mm 0.00 in0.0 mm
06:16 AM 72.9°F22.7°C 67.7°F19.8°C 84% 1.2 mph NW1.9 kmh NW 4.0 mph6.4 kmh 29.71 in1006.1 mb 0.00 in0.0 mm 0.00 in0.0 mm 0.00 in0.0 mm
06:17 AM 72.9°F22.7°C 67.7°F19.8°C 84% 1.4 mph NW2.3 kmh NW 4.0 mph6.4 kmh 29.71 in1006.1 mb 0.00 in0.0 mm 0.00 in0.0 mm 0.00 in0.0 mm
06:18 AM 73.2°F22.9°C 67.7°F19.8°C 83% 1.5 mph NNW2.4 kmh NNW 4.0 mph6.4 kmh 29.71 in1006.1 mb 0.00 in0.0 mm 0.00 in0.0 mm 0.00 in0.0 mm
06:19 AM 73.2°F22.9°C 67.7°F19.8°C 83% 1.9 mph NNW3.1 kmh NNW 4.0 mph6.4 kmh 29.71 in1006.1 mb 0.00 in0.0 mm 0.00 in0.0 mm 0.00 in0.0 mm
06:20 AM 73.2°F22.9°C 67.7°F19.8°C 83% 1.9 mph NNW3.1 kmh NNW 4.0 mph6.4 kmh 29.71 in1006.1 mb 0.00 in0.0 mm 0.00 in0.0 mm 0.00 in0.0 mm
06:21 AM 73.2°F22.9°C 67.4°F19.7°C 82% 1.7 mph N2.7 kmh N 4.0 mph6.4 kmh 29.71 in1006.1 mb 0.00 in0.0 mm 0.00 in0.0 mm 0.00 in0.0 mm
06:22 AM 73.2°F22.9°C 67.4°F19.7°C 82% 1.3 mph N2.1 kmh N 4.0 mph6.4 kmh 29.71 in1006.1 mb 0.00 in0.0 mm 0.00 in0.0 mm 0.00 in0.0 mm
06:23 AM 73.2°F22.9°C 67.4°F19.7°C 82% 1.3 mph N2.1 kmh N 4.0 mph6.4 kmh 29.71 in1006.1 mb 0.00 in0.0 mm 0.00 in0.0 mm 0.00 in0.0 mm
06:24 AM 73.2°F22.9°C 67.4°F19.7°C 82% 1.4 mph N2.3 kmh N 4.0 mph6.4 kmh 29.71 in1006.1 mb 0.00 in0.0 mm 0.00 in0.0 mm 0.00 in0.0 mm
06:25 AM 73.4°F23.0°C 67.2°F19.6°C 81% 1.3 mph N2.1 kmh N 4.0 mph6.4 kmh 29.71 in1006.1 mb 0.00 in0.0 mm 0.00 in0.0 mm 0.00 in0.0 mm
06:26 AM 73.4°F23.0°C 67.2°F19.6°C 81% 1.3 mph N2.1 kmh N 4.0 mph6.4 kmh 29.71 in1006.1 mb 0.00 in0.0 mm 0.00 in0.0 mm 0.00 in0.0 mm
06:27 AM 73.4°F23.0°C 67.2°F19.6°C 81% 1.1 mph NW1.8 kmh NW 3.1 mph5.0 kmh 29.71 in1006.1 mb 0.00 in0.0 mm 0.00 in0.0 mm 0.00 in0.0 mm
06:28 AM 73.4°F23.0°C 67.2°F19.6°C 81% 1.0 mph NW1.6 kmh NW 3.1 mph5.0 kmh 29.71 in1006.1 mb 0.00 in0.0 mm 0.00 in0.0 mm 0.00 in0.0 mm
06:29 AM 73.6°F23.1°C 67.4°F19.7°C 81% 0.8 mph NW1.3 kmh NW 3.1 mph5.0 kmh 29.71 in1006.1 mb 0.00 in0.0 mm 0.00 in0.0 mm 0.00 in0.0 mm
06:30 AM 73.6°F23.1°C 67.4°F19.7°C 81% 0.6 mph WNW1.0 kmh WNW 2.9 mph4.7 kmh 29.71 in1006.1 mb 0.00 in0.0 mm 0.00 in0.0 mm 0.00 in0.0 mm
06:31 AM 73.6°F23.1°C 67.4°F19.7°C 81% 0.6 mph WNW1.0 kmh WNW 2.9 mph4.7 kmh 29.71 in1006.1 mb 0.00 in0.0 mm 0.00 in0.0 mm 0.00 in0.0 mm
06:32 AM 73.6°F23.1°C 67.4°F19.7°C 81% 0.6 mph WNW1.0 kmh WNW 2.9 mph4.7 kmh 29.71 in1006.1 mb 0.00 in0.0 mm 0.00 in0.0 mm 0.00 in0.0 mm
06:33 AM 73.8°F23.2°C 67.6°F19.8°C 81% 0.6 mph WNW1.0 kmh WNW 2.9 mph4.7 kmh 29.71 in1006.1 mb 0.00 in0.0 mm 0.00 in0.0 mm 0.00 in0.0 mm
06:34 AM 73.8°F23.2°C 67.6°F19.8°C 81% 0.7 mph NW1.1 kmh NW 2.9 mph4.7 kmh 29.71 in1006.1 mb 0.00 in0.0 mm 0.00 in0.0 mm 0.00 in0.0 mm
06:35 AM 73.9°F23.3°C 67.4°F19.7°C 80% 0.8 mph NNW1.3 kmh NNW 2.9 mph4.7 kmh 29.71 in1006.1 mb 0.00 in0.0 mm 0.00 in0.0 mm 0.00 in0.0 mm
06:36 AM 74.1°F23.4°C 67.6°F19.8°C 80% 0.8 mph NNW1.3 kmh NNW 2.9 mph4.7 kmh 29.71 in1006.1 mb 0.00 in0.0 mm 0.00 in0.0 mm 0.00 in0.0 mm
06:37 AM 74.1°F23.4°C 67.6°F19.8°C 80% 0.6 mph N1.0 kmh N 2.9 mph4.7 kmh 29.71 in1006.1 mb 0.00 in0.0 mm 0.00 in0.0 mm 0.00 in0.0 mm
06:38 AM 74.3°F23.5°C 67.7°F19.8°C 80% 0.5 mph NE0.8 kmh NE 2.7 mph4.3 kmh 29.71 in1006.1 mb 0.00 in0.0 mm 0.00 in0.0 mm 0.00 in0.0 mm
06:39 AM 74.3°F23.5°C 67.7°F19.8°C 80% 0.5 mph NE0.8 kmh NE 2.7 mph4.3 kmh 29.71 in1006.1 mb 0.00 in0.0 mm 0.00 in0.0 mm 0.00 in0.0 mm
06:40 AM 74.5°F23.6°C 67.9°F19.9°C 80% 0.4 mph NNE0.6 kmh NNE 2.7 mph4.3 kmh 29.71 in1006.1 mb 0.00 in0.0 mm 0.00 in0.0 mm 0.00 in0.0 mm
06:41 AM 74.5°F23.6°C 67.9°F19.9°C 80% 0.4 mph NNE0.6 kmh NNE 2.7 mph4.3 kmh 29.71 in1006.1 mb 0.00 in0.0 mm 0.00 in0.0 mm 0.00 in0.0 mm
06:42 AM 74.7°F23.7°C 68.1°F20.1°C 80% 0.5 mph NNE0.8 kmh NNE 2.7 mph4.3 kmh 29.71 in1006.1 mb 0.00 in0.0 mm 0.00 in0.0 mm 0.00 in0.0 mm
06:43 AM 74.8°F23.8°C 68.3°F20.2°C 80% 0.6 mph NE1.0 kmh NE 2.7 mph4.3 kmh 29.71 in1006.1 mb 0.00 in0.0 mm 0.00 in0.0 mm 0.00 in0.0 mm
06:44 AM 74.8°F23.8°C 68.3°F20.2°C 80% 0.6 mph NE1.0 kmh NE 2.7 mph4.3 kmh 29.71 in1006.1 mb 0.00 in0.0 mm 0.00 in0.0 mm 0.00 in0.0 mm
06:45 AM 75.2°F24.0°C 68.2°F20.1°C 79% 0.6 mph NE1.0 kmh NE 2.7 mph4.3 kmh 29.71 in1006.1 mb 0.00 in0.0 mm 0.00 in0.0 mm 0.00 in0.0 mm
06:46 AM 75.2°F24.0°C 68.2°F20.1°C 79% 0.7 mph NE1.1 kmh NE 2.7 mph4.3 kmh 29.71 in1006.1 mb 0.00 in0.0 mm 0.00 in0.0 mm 0.00 in0.0 mm
06:47 AM 75.4°F24.1°C 68.0°F20.0°C 78% 0.7 mph NE1.1 kmh NE 2.7 mph4.3 kmh 29.71 in1006.1 mb 0.00 in0.0 mm 0.00 in0.0 mm 0.00 in0.0 mm
06:48 AM 75.4°F24.1°C 68.0°F20.0°C 78% 0.9 mph NE1.4 kmh NE 2.7 mph4.3 kmh 29.71 in1006.1 mb 0.00 in0.0 mm 0.00 in0.0 mm 0.00 in0.0 mm
06:49 AM 75.6°F24.2°C 68.2°F20.1°C 78% 0.9 mph NNE1.4 kmh NNE 2.7 mph4.3 kmh 29.71 in1006.1 mb 0.00 in0.0 mm 0.00 in0.0 mm 0.00 in0.0 mm
06:50 AM 75.6°F24.2°C 68.2°F20.1°C 78% 1.0 mph NNE1.6 kmh NNE 2.7 mph4.3 kmh 29.71 in1006.1 mb 0.00 in0.0 mm 0.00 in0.0 mm 0.00 in0.0 mm
06:51 AM 75.7°F24.3°C 68.4°F20.2°C 78% 1.0 mph NNE1.6 kmh NNE 2.7 mph4.3 kmh 29.71 in1006.1 mb 0.00 in0.0 mm 0.00 in0.0 mm 0.00 in0.0 mm
06:52 AM 75.9°F24.4°C 68.6°F20.3°C 78% 0.9 mph NNE1.4 kmh NNE 2.7 mph4.3 kmh 29.71 in1006.1 mb 0.00 in0.0 mm 0.00 in0.0 mm 0.00 in0.0 mm
06:53 AM 75.9°F24.4°C 68.6°F20.3°C 78% 1.0 mph N1.6 kmh N 2.7 mph4.3 kmh 29.71 in1006.1 mb 0.00 in0.0 mm 0.00 in0.0 mm 0.00 in0.0 mm
06:54 AM 75.9°F24.4°C 68.6°F20.3°C 78% 1.1 mph N1.8 kmh N 2.7 mph4.3 kmh 29.71 in1006.1 mb 0.00 in0.0 mm 0.00 in0.0 mm 0.00 in0.0 mm
06:55 AM 75.9°F24.4°C 68.6°F20.3°C 78% 1.1 mph N1.8 kmh N 3.1 mph5.0 kmh 29.71 in1006.1 mb 0.00 in0.0 mm 0.00 in0.0 mm 0.00 in0.0 mm
06:56 AM 76.1°F24.5°C 68.4°F20.2°C 77% 1.1 mph N1.8 kmh N 3.1 mph5.0 kmh 29.71 in1006.1 mb 0.00 in0.0 mm 0.00 in0.0 mm 0.00 in0.0 mm
06:57 AM 76.1°F24.5°C 68.4°F20.2°C 77% 1.3 mph N2.1 kmh N 3.4 mph5.5 kmh 29.71 in1006.1 mb 0.00 in0.0 mm 0.00 in0.0 mm 0.00 in0.0 mm
06:58 AM 76.3°F24.6°C 68.5°F20.3°C 77% 1.3 mph NNW2.1 kmh NNW 3.4 mph5.5 kmh 29.71 in1006.1 mb 0.00 in0.0 mm 0.00 in0.0 mm 0.00 in0.0 mm
06:59 AM 76.3°F24.6°C 68.5°F20.3°C 77% 1.3 mph NW2.1 kmh NW 3.4 mph5.5 kmh 29.71 in1006.1 mb 0.00 in0.0 mm 0.00 in0.0 mm 0.00 in0.0 mm
07:00 AM 76.3°F24.6°C 68.5°F20.3°C 77% 1.3 mph NW2.1 kmh NW 3.4 mph5.5 kmh 29.71 in1006.1 mb 0.00 in0.0 mm 0.00 in0.0 mm 0.00 in0.0 mm
07:01 AM 76.3°F24.6°C 68.5°F20.3°C 77% 1.3 mph NW2.1 kmh NW 3.4 mph5.5 kmh 29.71 in1006.1 mb 0.00 in0.0 mm 0.00 in0.0 mm 0.00 in0.0 mm
07:02 AM 76.3°F24.6°C 68.2°F20.1°C 76% 1.2 mph NW1.9 kmh NW 3.4 mph5.5 kmh 29.71 in1006.1 mb 0.00 in0.0 mm 0.00 in0.0 mm 0.00 in0.0 mm
07:03 AM 76.3°F24.6°C 68.2°F20.1°C 76% 1.2 mph NNW1.9 kmh NNW 3.4 mph5.5 kmh 29.71 in1006.1 mb 0.00 in0.0 mm 0.00 in0.0 mm 0.00 in0.0 mm
07:04 AM 76.5°F24.7°C 68.7°F20.4°C 77% 1.1 mph NW1.8 kmh NW 3.4 mph5.5 kmh 29.71 in1006.1 mb 0.00 in0.0 mm 0.00 in0.0 mm 0.00 in0.0 mm
07:05 AM 76.5°F24.7°C 68.7°F20.4°C 77% 1.0 mph NW1.6 kmh NW 3.4 mph5.5 kmh 29.71 in1006.1 mb 0.00 in0.0 mm 0.00 in0.0 mm 0.00 in0.0 mm
07:06 AM 76.3°F24.6°C 68.2°F20.1°C 76% 0.8 mph WNW1.3 kmh WNW 3.4 mph5.5 kmh 29.71 in1006.1 mb 0.00 in0.0 mm 0.00 in0.0 mm 0.00 in0.0 mm
07:07 AM 76.3°F24.6°C 68.2°F20.1°C 76% 0.6 mph WNW1.0 kmh WNW 1.6 mph2.6 kmh 29.71 in1006.1 mb 0.00 in0.0 mm 0.00 in0.0 mm 0.00 in0.0 mm
07:08 AM 76.3°F24.6°C 68.2°F20.1°C 76% 0.6 mph WNW1.0 kmh WNW 1.6 mph2.6 kmh 29.71 in1006.1 mb 0.00 in0.0 mm 0.00 in0.0 mm 0.00 in0.0 mm
07:09 AM 76.3°F24.6°C 68.2°F20.1°C 76% 0.6 mph WNW1.0 kmh WNW 1.6 mph2.6 kmh 29.71 in1006.1 mb 0.00 in0.0 mm 0.00 in0.0 mm 0.00 in0.0 mm
07:10 AM 76.3°F24.6°C 68.2°F20.1°C 76% 0.5 mph NW0.8 kmh NW 1.6 mph2.6 kmh 29.71 in1006.1 mb 0.00 in0.0 mm 0.00 in0.0 mm 0.00 in0.0 mm
07:11 AM 76.3°F24.6°C 68.2°F20.1°C 76% 0.3 mph WNW0.5 kmh WNW 1.3 mph2.1 kmh 29.71 in1006.1 mb 0.00 in0.0 mm 0.00 in0.0 mm 0.00 in0.0 mm
07:12 AM 76.3°F24.6°C 68.2°F20.1°C 76% 0.5 mph NNW0.8 kmh NNW 3.1 mph5.0 kmh 29.71 in1006.1 mb 0.00 in0.0 mm 0.00 in0.0 mm 0.00 in0.0 mm
07:13 AM 76.1°F24.5°C 67.6°F19.8°C 75% 0.8 mph NNE1.3 kmh NNE 3.1 mph5.0 kmh 29.71 in1006.1 mb 0.00 in0.0 mm 0.00 in0.0 mm 0.00 in0.0 mm
07:14 AM 75.9°F24.4°C 67.4°F19.7°C 75% 1.0 mph NNE1.6 kmh NNE 3.1 mph5.0 kmh 29.71 in1006.1 mb 0.00 in0.0 mm 0.00 in0.0 mm 0.00 in0.0 mm
07:15 AM 75.9°F24.4°C 67.4°F19.7°C 75% 1.0 mph NNE1.6 kmh NNE 3.1 mph5.0 kmh 29.71 in1006.1 mb 0.00 in0.0 mm 0.00 in0.0 mm 0.00 in0.0 mm
07:16 AM 76.1°F24.5°C 68.0°F20.0°C 76% 1.0 mph NNE1.6 kmh NNE 3.1 mph5.0 kmh 29.71 in1006.1 mb 0.00 in0.0 mm 0.00 in0.0 mm 0.00 in0.0 mm
07:17 AM 76.1°F24.5°C 68.0°F20.0°C 76% 1.1 mph NNE1.8 kmh NNE 3.1 mph5.0 kmh 29.71 in1006.1 mb 0.00 in0.0 mm 0.00 in0.0 mm 0.00 in0.0 mm
07:18 AM 76.1°F24.5°C 68.0°F20.0°C 76% 1.2 mph NNE1.9 kmh NNE 3.1 mph5.0 kmh 29.71 in1006.1 mb 0.00 in0.0 mm 0.00 in0.0 mm 0.00 in0.0 mm
07:19 AM 76.1°F24.5°C 68.0°F20.0°C 76% 1.2 mph NNE1.9 kmh NNE 3.1 mph5.0 kmh 29.71 in1006.1 mb 0.00 in0.0 mm 0.00 in0.0 mm 0.00 in0.0 mm
07:20 AM 76.3°F24.6°C 68.2°F20.1°C 76% 1.3 mph N2.1 kmh N 3.1 mph5.0 kmh 29.71 in1006.1 mb 0.00 in0.0 mm 0.00 in0.0 mm 0.00 in0.0 mm
07:21 AM 76.3°F24.6°C 68.2°F20.1°C 76% 1.2 mph N1.9 kmh N 3.1 mph5.0 kmh 29.74 in1007.1 mb 0.00 in0.0 mm 0.00 in0.0 mm 0.00 in0.0 mm
07:22 AM 76.5°F24.7°C 68.3°F20.2°C 76% 1.1 mph N1.8 kmh N 2.9 mph4.7 kmh 29.74 in1007.1 mb 0.00 in0.0 mm 0.00 in0.0 mm 0.00 in0.0 mm
07:23 AM 76.5°F24.7°C 67.9°F19.9°C 75% 0.7 mph NNW1.1 kmh NNW 2.9 mph4.7 kmh 29.74 in1007.1 mb 0.00 in0.0 mm 0.00 in0.0 mm 0.00 in0.0 mm
07:24 AM 76.5°F24.7°C 67.9°F19.9°C 75% 0.7 mph NNW1.1 kmh NNW 2.9 mph4.7 kmh 29.74 in1007.1 mb 0.00 in0.0 mm 0.00 in0.0 mm 0.00 in0.0 mm
07:25 AM 76.6°F24.8°C 68.5°F20.3°C 76% 0.5 mph NNW0.8 kmh NNW 2.9 mph4.7 kmh 29.74 in1007.1 mb 0.00 in0.0 mm 0.00 in0.0 mm 0.00 in0.0 mm
07:26 AM 76.6°F24.8°C 68.5°F20.3°C 76% 0.6 mph NNW1.0 kmh NNW 2.9 mph4.7 kmh 29.74 in1007.1 mb 0.00 in0.0 mm 0.00 in0.0 mm 0.00 in0.0 mm
07:27 AM 76.8°F24.9°C 68.3°F20.2°C 75% 0.5 mph NW0.8 kmh NW 2.9 mph4.7 kmh 29.74 in1007.1 mb 0.00 in0.0 mm 0.00 in0.0 mm 0.00 in0.0 mm
07:28 AM 76.8°F24.9°C 68.3°F20.2°C 75% 0.5 mph NW0.8 kmh NW 2.9 mph4.7 kmh 29.74 in1007.1 mb 0.00 in0.0 mm 0.00 in0.0 mm 0.00 in0.0 mm
07:29 AM 77.0°F25.0°C 68.5°F20.3°C 75% 0.3 mph WNW0.5 kmh WNW 2.9 mph4.7 kmh 29.74 in1007.1 mb 0.00 in0.0 mm 0.00 in0.0 mm 0.00 in0.0 mm
07:30 AM 77.5°F25.3°C 68.6°F20.3°C 74% 0.1 mph NW0.2 kmh NW 1.3 mph2.1 kmh 29.74 in1007.1 mb 0.00 in0.0 mm 0.00 in0.0 mm 0.00 in0.0 mm
07:31 AM 77.5°F25.3°C 68.6°F20.3°C 74% 0.2 mph WNW0.3 kmh WNW 1.3 mph2.1 kmh 29.74 in1007.1 mb 0.00 in0.0 mm 0.00 in0.0 mm 0.00 in0.0 mm
07:32 AM 77.7°F25.4°C 68.8°F20.4°C 74% 0.3 mph W0.5 kmh W 1.3 mph2.1 kmh 29.74 in1007.1 mb 0.00 in0.0 mm 0.00 in0.0 mm 0.00 in0.0 mm
07:33 AM 77.7°F25.4°C 68.8°F20.4°C 74% 0.5 mph W0.8 kmh W 4.0 mph6.4 kmh 29.74 in1007.1 mb 0.00 in0.0 mm 0.00 in0.0 mm 0.00 in0.0 mm
07:34 AM 78.1°F25.6°C 68.7°F20.4°C 73% 1.0 mph WNW1.6 kmh WNW 4.0 mph6.4 kmh 29.74 in1007.1 mb 0.00 in0.0 mm 0.00 in0.0 mm 0.00 in0.0 mm
07:35 AM 78.1°F25.6°C 68.7°F20.4°C 73% 1.2 mph NW1.9 kmh NW 4.0 mph6.4 kmh 29.74 in1007.1 mb 0.00 in0.0 mm 0.00 in0.0 mm 0.00 in0.0 mm
07:36 AM 78.1°F25.6°C 68.7°F20.4°C 73% 1.3 mph NW2.1 kmh NW 4.0 mph6.4 kmh 29.74 in1007.1 mb 0.00 in0.0 mm 0.00 in0.0 mm 0.00 in0.0 mm
07:37 AM 78.3°F25.7°C 68.5°F20.3°C 72% 1.7 mph NW2.7 kmh NW 4.0 mph6.4 kmh 29.74 in1007.1 mb 0.00 in0.0 mm 0.00 in0.0 mm 0.00 in0.0 mm
07:38 AM 78.4°F25.8°C 68.7°F20.4°C 72% 1.6 mph NW2.6 kmh NW 4.0 mph6.4 kmh 29.74 in1007.1 mb 0.00 in0.0 mm 0.00 in0.0 mm 0.00 in0.0 mm
07:39 AM 78.4°F25.8°C 68.7°F20.4°C 72% 1.7 mph NW2.7 kmh NW 4.0 mph6.4 kmh 29.74 in1007.1 mb 0.00 in0.0 mm 0.00 in0.0 mm 0.00 in0.0 mm
07:40 AM 78.6°F25.9°C 68.8°F20.4°C 72% 1.6 mph NW2.6 kmh NW 4.0 mph6.4 kmh 29.74 in1007.1 mb 0.00 in0.0 mm 0.00 in0.0 mm 0.00 in0.0 mm
07:41 AM 78.6°F25.9°C 68.8°F20.4°C 72% 1.7 mph NW2.7 kmh NW 4.0 mph6.4 kmh 29.74 in1007.1 mb 0.00 in0.0 mm 0.00 in0.0 mm 0.00 in0.0 mm
07:42 AM 78.8°F26.0°C 68.6°F20.3°C 71% 1.8 mph NNW2.9 kmh NNW 4.0 mph6.4 kmh 29.74 in1007.1 mb 0.00 in0.0 mm 0.00 in0.0 mm 0.00 in0.0 mm
07:43 AM 78.8°F26.0°C 68.6°F20.3°C 71% 1.6 mph NNW2.6 kmh NNW 4.0 mph6.4 kmh 29.74 in1007.1 mb 0.00 in0.0 mm 0.00 in0.0 mm 0.00 in0.0 mm
07:44 AM 79.0°F26.1°C 68.8°F20.4°C 71% 1.2 mph N1.9 kmh N 3.1 mph5.0 kmh 29.74 in1007.1 mb 0.00 in0.0 mm 0.00 in0.0 mm 0.00 in0.0 mm
07:45 AM 79.2°F26.2°C 68.9°F20.5°C 71% 1.0 mph N1.6 kmh N 2.9 mph4.7 kmh 29.74 in1007.1 mb 0.00 in0.0 mm 0.00 in0.0 mm 0.00 in0.0 mm
07:46 AM 79.2°F26.2°C 68.9°F20.5°C 71% 0.9 mph NNE1.4 kmh NNE 2.9 mph4.7 kmh 29.74 in1007.1 mb 0.00 in0.0 mm 0.00 in0.0 mm 0.00 in0.0 mm
07:47 AM 79.2°F26.2°C 68.9°F20.5°C 71% 0.9 mph N1.4 kmh N 2.7 mph4.3 kmh 29.74 in1007.1 mb 0.00 in0.0 mm 0.00 in0.0 mm 0.00 in0.0 mm
07:48 AM 79.2°F26.2°C 68.9°F20.5°C 71% 0.9 mph N1.4 kmh N 2.7 mph4.3 kmh 29.74 in1007.1 mb 0.00 in0.0 mm 0.00 in0.0 mm 0.00 in0.0 mm
07:49 AM 79.3°F26.3°C 68.3°F20.2°C 69% 0.9 mph N1.4 kmh N 2.7 mph4.3 kmh 29.74 in1007.1 mb 0.00 in0.0 mm 0.00 in0.0 mm 0.00 in0.0 mm
07:50 AM 79.3°F26.3°C 68.3°F20.2°C 69% 0.9 mph N1.4 kmh N 2.7 mph4.3 kmh 29.74 in1007.1 mb 0.00 in0.0 mm 0.00 in0.0 mm 0.00 in0.0 mm
07:51 AM 79.7°F26.5°C 69.0°F20.6°C 70% 0.9 mph N1.4 kmh N 2.7 mph4.3 kmh 29.74 in1007.1 mb 0.00 in0.0 mm 0.00 in0.0 mm 0.00 in0.0 mm
07:52 AM 79.9°F26.6°C 69.2°F20.7°C 70% 0.6 mph NNW1.0 kmh NNW 2.7 mph4.3 kmh 29.74 in1007.1 mb 0.00 in0.0 mm 0.00 in0.0 mm 0.00 in0.0 mm
07:53 AM 79.9°F26.6°C 69.2°F20.7°C 70% 0.6 mph NNW1.0 kmh NNW 2.7 mph4.3 kmh 29.74 in1007.1 mb 0.00 in0.0 mm 0.00 in0.0 mm 0.00 in0.0 mm
07:54 AM 81.1°F27.3°C 69.6°F20.9°C 68% 0.8 mph N1.3 kmh N 2.7 mph4.3 kmh 29.74 in1007.1 mb 0.00 in0.0 mm 0.00 in0.0 mm 0.00 in0.0 mm
07:55 AM 81.1°F27.3°C 69.6°F20.9°C 68% 0.8 mph N1.3 kmh N 2.7 mph4.3 kmh 29.74 in1007.1 mb 0.00 in0.0 mm 0.00 in0.0 mm 0.00 in0.0 mm
07:56 AM 81.7°F27.6°C 69.7°F20.9°C 67% 0.7 mph N1.1 kmh N 2.7 mph4.3 kmh 29.74 in1007.1 mb 0.00 in0.0 mm 0.00 in0.0 mm 0.00 in0.0 mm
07:57 AM 81.7°F27.6°C 69.7°F20.9°C 67% 0.4 mph NNE0.6 kmh NNE 1.3 mph2.1 kmh 29.74 in1007.1 mb 0.00 in0.0 mm 0.00 in0.0 mm 0.00 in0.0 mm
07:58 AM 81.3°F27.4°C 68.4°F20.2°C 65% 0.3 mph NNE0.5 kmh NNE 1.3 mph2.1 kmh 29.74 in1007.1 mb 0.00 in0.0 mm 0.00 in0.0 mm 0.00 in0.0 mm
07:59 AM 81.3°F27.4°C 68.4°F20.2°C 65% 0.2 mph NE0.3 kmh NE 1.3 mph2.1 kmh 29.74 in1007.1 mb 0.00 in0.0 mm 0.00 in0.0 mm 0.00 in0.0 mm
08:00 AM 82.6°F28.1°C 69.6°F20.9°C 65% 0.3 mph NNE0.5 kmh NNE 1.3 mph2.1 kmh 29.74 in1007.1 mb 0.00 in0.0 mm 0.00 in0.0 mm 0.00 in0.0 mm
08:01 AM 83.8°F28.8°C 70.4°F21.3°C 64% 0.4 mph N0.6 kmh N 1.3 mph2.1 kmh 29.74 in1007.1 mb 0.00 in0.0 mm 0.00 in0.0 mm 0.00 in0.0 mm
08:02 AM 83.8°F28.8°C 70.4°F21.3°C 64% 0.4 mph N0.6 kmh N 1.3 mph2.1 kmh 29.74 in1007.1 mb 0.00 in0.0 mm 0.00 in0.0 mm 0.00 in0.0 mm
08:03 AM 85.1°F29.5°C 68.7°F20.4°C 58% 0.7 mph NNE1.1 kmh NNE 2.9 mph4.7 kmh 29.74 in1007.1 mb 0.00 in0.0 mm 0.00 in0.0 mm 0.00 in0.0 mm
08:04 AM 85.1°F29.5°C 68.7°F20.4°C 58% 0.6 mph NNE1.0 kmh NNE 2.9 mph4.7 kmh 29.74 in1007.1 mb 0.00 in0.0 mm 0.00 in0.0 mm 0.00 in0.0 mm
08:05 AM 86.5°F30.3°C 70.5°F21.4°C 59% 0.7 mph NE1.1 kmh NE 2.9 mph4.7 kmh 29.74 in1007.1 mb 0.00 in0.0 mm 0.00 in0.0 mm 0.00 in0.0 mm
08:06 AM 86.5°F30.3°C 70.5°F21.4°C 59% 0.8 mph NNE1.3 kmh NNE 2.9 mph4.7 kmh 29.74 in1007.1 mb 0.00 in0.0 mm 0.00 in0.0 mm 0.00 in0.0 mm
08:07 AM 86.5°F30.3°C 70.5°F21.4°C 59% 1.0 mph N1.6 kmh N 2.9 mph4.7 kmh 29.74 in1007.1 mb 0.00 in0.0 mm 0.00 in0.0 mm 0.00 in0.0 mm
08:08 AM 86.7°F30.4°C 70.2°F21.2°C 58% 1.1 mph N1.8 kmh N 2.9 mph4.7 kmh 29.74 in1007.1 mb 0.00 in0.0 mm 0.00 in0.0 mm 0.00 in0.0 mm
08:09 AM 87.4°F30.8°C 70.8°F21.6°C 58% 1.1 mph N1.8 kmh N 2.9 mph4.7 kmh 29.74 in1007.1 mb 0.00 in0.0 mm 0.00 in0.0 mm 0.00 in0.0 mm
08:10 AM 87.4°F30.8°C 70.8°F21.6°C 58% 1.3 mph N2.1 kmh N 3.4 mph5.5 kmh 29.74 in1007.1 mb 0.00 in0.0 mm 0.00 in0.0 mm 0.00 in0.0 mm
08:11 AM 87.4°F30.8°C 68.8°F20.4°C 54% 1.2 mph N1.9 kmh N 3.4 mph5.5 kmh 29.74 in1007.1 mb 0.00 in0.0 mm 0.00 in0.0 mm 0.00 in0.0 mm
08:12 AM 87.4°F30.8°C 68.8°F20.4°C 54% 1.2 mph N1.9 kmh N 3.4 mph5.5 kmh 29.74 in1007.1 mb 0.00 in0.0 mm 0.00 in0.0 mm 0.00 in0.0 mm
08:13 AM 88.0°F31.1°C 67.6°F19.8°C 51% 1.0 mph NW1.6 kmh NW 3.4 mph5.5 kmh 29.74 in1007.1 mb 0.00 in0.0 mm 0.00 in0.0 mm 0.00 in0.0 mm
08:14 AM 88.0°F31.1°C 67.6°F19.8°C 51% 1.0 mph NW1.6 kmh NW 3.4 mph5.5 kmh 29.74 in1007.1 mb 0.00 in0.0 mm 0.00 in0.0 mm 0.00 in0.0 mm
08:15 AM 88.7°F31.5°C 69.9°F21.1°C 54% 0.8 mph NW1.3 kmh NW 3.4 mph5.5 kmh 29.74 in1007.1 mb 0.00 in0.0 mm 0.00 in0.0 mm 0.00 in0.0 mm
08:16 AM 88.9°F31.6°C 67.2°F19.6°C 49% 0.6 mph NW1.0 kmh NW 3.4 mph5.5 kmh 29.74 in1007.1 mb 0.00 in0.0 mm 0.00 in0.0 mm 0.00 in0.0 mm
08:17 AM 88.9°F31.6°C 67.2°F19.6°C 49% 0.6 mph NW1.0 kmh NW 3.4 mph5.5 kmh 29.74 in1007.1 mb 0.00 in0.0 mm 0.00 in0.0 mm 0.00 in0.0 mm
08:18 AM 89.2°F31.8°C 69.9°F21.1°C 53% 1.0 mph NW1.6 kmh NW 4.3 mph6.9 kmh 29.74 in1007.1 mb 0.00 in0.0 mm 0.00 in0.0 mm 0.00 in0.0 mm
08:19 AM 89.2°F31.8°C 69.9°F21.1°C 53% 1.1 mph NW1.8 kmh NW 4.3 mph6.9 kmh 29.74 in1007.1 mb 0.00 in0.0 mm 0.00 in0.0 mm 0.00 in0.0 mm
08:20 AM 89.8°F32.1°C 69.2°F20.7°C 51% 1.0 mph NW1.6 kmh NW 4.3 mph6.9 kmh 29.74 in1007.1 mb 0.00 in0.0 mm 0.00 in0.0 mm 0.00 in0.0 mm
08:21 AM 89.8°F32.1°C 69.2°F20.7°C 51% 1.0 mph NW1.6 kmh NW 4.3 mph6.9 kmh 29.74 in1007.1 mb 0.00 in0.0 mm 0.00 in0.0 mm 0.00 in0.0 mm
08:22 AM 89.8°F32.1°C 70.4°F21.3°C 53% 1.2 mph WNW1.9 kmh WNW 4.3 mph6.9 kmh 29.74 in1007.1 mb 0.00 in0.0 mm 0.00 in0.0 mm 0.00 in0.0 mm
08:23 AM 89.8°F32.1°C 68.7°F20.4°C 50% 1.5 mph NW2.4 kmh NW 4.3 mph6.9 kmh 29.74 in1007.1 mb 0.00 in0.0 mm 0.00 in0.0 mm 0.00 in0.0 mm
08:24 AM 89.8°F32.1°C 68.7°F20.4°C 50% 1.6 mph NW2.6 kmh NW 4.3 mph6.9 kmh 29.74 in1007.1 mb 0.00 in0.0 mm 0.00 in0.0 mm 0.00 in0.0 mm
08:25 AM 90.5°F32.5°C 68.7°F20.4°C 49% 1.6 mph NW2.6 kmh NW 4.3 mph6.9 kmh 29.74 in1007.1 mb 0.00 in0.0 mm 0.00 in0.0 mm 0.00 in0.0 mm
08:26 AM 90.5°F32.5°C 68.7°F20.4°C 49% 1.8 mph NW2.9 kmh NW 4.3 mph6.9 kmh 29.74 in1007.1 mb 0.00 in0.0 mm 0.00 in0.0 mm 0.00 in0.0 mm
08:27 AM 90.1°F32.3°C 69.0°F20.6°C 50% 1.8 mph NW2.9 kmh NW 4.3 mph6.9 kmh 29.74 in1007.1 mb 0.00 in0.0 mm 0.00 in0.0 mm 0.00 in0.0 mm
08:28 AM 90.1°F32.3°C 69.0°F20.6°C 50% 1.4 mph NW2.3 kmh NW 3.1 mph5.0 kmh 29.74 in1007.1 mb 0.00 in0.0 mm 0.00 in0.0 mm 0.00 in0.0 mm
08:29 AM 90.9°F32.7°C 69.7°F20.9°C 50% 1.5 mph NW2.4 kmh NW 3.1 mph5.0 kmh 29.74 in1007.1 mb 0.00 in0.0 mm 0.00 in0.0 mm 0.00 in0.0 mm
08:30 AM 91.6°F33.1°C 69.7°F20.9°C 49% 1.4 mph NW2.3 kmh NW 3.1 mph5.0 kmh 29.74 in1007.1 mb 0.00 in0.0 mm 0.00 in0.0 mm 0.00 in0.0 mm
08:31 AM 91.6°F33.1°C 69.7°F20.9°C 49% 1.4 mph NW2.3 kmh NW 3.1 mph5.0 kmh 29.74 in1007.1 mb 0.00 in0.0 mm 0.00 in0.0 mm 0.00 in0.0 mm
08:32 AM 91.9°F33.3°C 69.4°F20.8°C 48% 1.3 mph N2.1 kmh N 2.9 mph4.7 kmh 29.74 in1007.1 mb 0.00 in0.0 mm 0.00 in0.0 mm 0.00 in0.0 mm
08:33 AM 91.9°F33.3°C 69.4°F20.8°C 48% 1.3 mph N2.1 kmh N 2.9 mph4.7 kmh 29.74 in1007.1 mb 0.00 in0.0 mm 0.00 in0.0 mm 0.00 in0.0 mm
08:34 AM 91.8°F33.2°C 69.3°F20.7°C 48% 1.1 mph N1.8 kmh N 2.9 mph4.7 kmh 29.74 in1007.1 mb 0.00 in0.0 mm 0.00 in0.0 mm 0.00 in0.0 mm
08:35 AM 91.8°F33.2°C 69.3°F20.7°C 48% 1.3 mph N2.1 kmh N 2.9 mph4.7 kmh 29.74 in1007.1 mb 0.00 in0.0 mm 0.00 in0.0 mm 0.00 in0.0 mm
08:36 AM 92.1°F33.4°C 69.6°F20.9°C 48% 1.3 mph N2.1 kmh N 2.9 mph4.7 kmh 29.74 in1007.1 mb 0.00 in0.0 mm 0.00 in0.0 mm 0.00 in0.0 mm
08:37 AM 92.1°F33.4°C 69.6°F20.9°C 48% 1.3 mph NNW2.1 kmh NNW 3.1 mph5.0 kmh 29.74 in1007.1 mb 0.00 in0.0 mm 0.00 in0.0 mm 0.00 in0.0 mm
08:38 AM 91.9°F33.3°C 68.2°F20.1°C 46% 1.4 mph NW2.3 kmh NW 3.1 mph5.0 kmh 29.74 in1007.1 mb 0.00 in0.0 mm 0.00 in0.0 mm 0.00 in0.0 mm
08:39 AM 92.3°F33.5°C 69.8°F21.0°C 48% 1.3 mph NW2.1 kmh NW 3.1 mph5.0 kmh 29.74 in1007.1 mb 0.00 in0.0 mm 0.00 in0.0 mm 0.00 in0.0 mm
08:40 AM 92.3°F33.5°C 69.8°F21.0°C 48% 1.5 mph NW2.4 kmh NW 3.6 mph5.8 kmh 29.74 in1007.1 mb 0.00 in0.0 mm 0.00 in0.0 mm 0.00 in0.0 mm
08:41 AM 91.8°F33.2°C 68.0°F20.0°C 46% 1.9 mph NW3.1 kmh NW 3.6 mph5.8 kmh 29.74 in1007.1 mb 0.00 in0.0 mm 0.00 in0.0 mm 0.00 in0.0 mm
08:42 AM 91.8°F33.2°C 68.0°F20.0°C 46% 1.9 mph NW3.1 kmh NW 3.6 mph5.8 kmh 29.74 in1007.1 mb 0.00 in0.0 mm 0.00 in0.0 mm 0.00 in0.0 mm
08:43 AM 90.9°F32.7°C 65.9°F18.8°C 44% 1.9 mph NNW3.1 kmh NNW 3.6 mph5.8 kmh 29.74 in1007.1 mb 0.00 in0.0 mm 0.00 in0.0 mm 0.00 in0.0 mm
08:44 AM 91.2°F32.9°C 67.5°F19.7°C 46% 1.9 mph NNW3.1 kmh NNW 3.6 mph5.8 kmh 29.74 in1007.1 mb 0.00 in0.0 mm 0.00 in0.0 mm 0.00 in0.0 mm
08:45 AM 91.2°F32.9°C 67.5°F19.7°C 46% 2.1 mph NW3.4 kmh NW 3.8 mph6.1 kmh 29.74 in1007.1 mb 0.00 in0.0 mm 0.00 in0.0 mm 0.00 in0.0 mm
08:46 AM 91.8°F33.2°C 67.4°F19.7°C 45% 2.3 mph NW3.7 kmh NW 3.8 mph6.1 kmh 29.74 in1007.1 mb 0.00 in0.0 mm 0.00 in0.0 mm 0.00 in0.0 mm
08:47 AM 91.9°F33.3°C 67.6°F19.8°C 45% 2.3 mph NNW3.7 kmh NNW 3.8 mph6.1 kmh 29.74 in1007.1 mb 0.00 in0.0 mm 0.00 in0.0 mm 0.00 in0.0 mm
08:48 AM 91.9°F33.3°C 67.6°F19.8°C 45% 2.1 mph N3.4 kmh N 3.8 mph6.1 kmh 29.74 in1007.1 mb 0.00 in0.0 mm 0.00 in0.0 mm 0.00 in0.0 mm
08:49 AM 92.3°F33.5°C 68.5°F20.3°C 46% 2.0 mph NNW3.2 kmh NNW 3.8 mph6.1 kmh 29.74 in1007.1 mb 0.00 in0.0 mm 0.00 in0.0 mm 0.00 in0.0 mm
08:50 AM 92.3°F33.5°C 68.5°F20.3°C 46% 2.2 mph NNW3.5 kmh NNW 3.8 mph6.1 kmh 29.74 in1007.1 mb 0.00 in0.0 mm 0.00 in0.0 mm 0.00 in0.0 mm
08:51 AM 92.3°F33.5°C 67.2°F19.6°C 44% 2.2 mph NNW3.5 kmh NNW 3.8 mph6.1 kmh 29.74 in1007.1 mb 0.00 in0.0 mm 0.00 in0.0 mm 0.00 in0.0 mm
08:52 AM 92.3°F33.5°C 67.2°F19.6°C 44% 2.2 mph NW3.5 kmh NW 4.3 mph6.9 kmh 29.74 in1007.1 mb 0.00 in0.0 mm 0.00 in0.0 mm 0.00 in0.0 mm
08:53 AM 91.9°F33.3°C 66.2°F19.0°C 43% 2.2 mph NW3.5 kmh NW 4.3 mph6.9 kmh 29.74 in1007.1 mb 0.00 in0.0 mm 0.00 in0.0 mm 0.00 in0.0 mm
08:54 AM 92.3°F33.5°C 67.2°F19.6°C 44% 2.3 mph NW3.7 kmh NW 4.3 mph6.9 kmh 29.74 in1007.1 mb 0.00 in0.0 mm 0.00 in0.0 mm 0.00 in0.0 mm
08:55 AM 92.3°F33.5°C 67.2°F19.6°C 44% 2.0 mph NW3.2 kmh NW 4.3 mph6.9 kmh 29.74 in1007.1 mb 0.00 in0.0 mm 0.00 in0.0 mm 0.00 in0.0 mm
08:56 AM 92.8°F33.8°C 67.1°F19.5°C 43% 1.9 mph WNW3.1 kmh WNW 4.3 mph6.9 kmh 29.74 in1007.1 mb 0.00 in0.0 mm 0.00 in0.0 mm 0.00 in0.0 mm
08:57 AM 92.8°F33.8°C 67.1°F19.5°C 43% 2.0 mph WNW3.2 kmh WNW 4.7 mph7.6 kmh 29.74 in1007.1 mb 0.00 in0.0 mm 0.00 in0.0 mm 0.00 in0.0 mm
08:58 AM 92.7°F33.7°C 66.2°F19.0°C 42% 2.1 mph WNW3.4 kmh WNW 4.7 mph7.6 kmh 29.74 in1007.1 mb 0.00 in0.0 mm 0.00 in0.0 mm 0.00 in0.0 mm
08:59 AM 92.7°F33.7°C 66.2°F19.0°C 42% 2.2 mph WNW3.5 kmh WNW 4.7 mph7.6 kmh 29.74 in1007.1 mb 0.00 in0.0 mm 0.00 in0.0 mm 0.00 in0.0 mm
09:00 AM 93.4°F34.1°C 66.9°F19.4°C 42% 2.1 mph NW3.4 kmh NW 4.7 mph7.6 kmh 29.74 in1007.1 mb 0.00 in0.0 mm 0.00 in0.0 mm 0.00 in0.0 mm
09:01 AM 93.7°F34.3°C 67.9°F19.9°C 43% 1.9 mph WNW3.1 kmh WNW 4.7 mph7.6 kmh 29.74 in1007.1 mb 0.00 in0.0 mm 0.00 in0.0 mm 0.00 in0.0 mm
09:02 AM 93.7°F34.3°C 67.9°F19.9°C 43% 1.6 mph NW2.6 kmh NW 4.7 mph7.6 kmh 29.74 in1007.1 mb 0.00 in0.0 mm 0.00 in0.0 mm 0.00 in0.0 mm
09:03 AM 93.0°F33.9°C 65.8°F18.8°C 41% 1.9 mph NW3.1 kmh NW 4.7 mph7.6 kmh 29.74 in1007.1 mb 0.00 in0.0 mm 0.00 in0.0 mm 0.00 in0.0 mm
09:04 AM 93.0°F33.9°C 65.8°F18.8°C 41% 1.7 mph NNW2.7 kmh NNW 4.7 mph7.6 kmh 29.74 in1007.1 mb 0.00 in0.0 mm 0.00 in0.0 mm 0.00 in0.0 mm
09:05 AM 93.6°F34.2°C 67.0°F19.4°C 42% 1.5 mph NNW2.4 kmh NNW 4.7 mph7.6 kmh 29.74 in1007.1 mb 0.00 in0.0 mm 0.00 in0.0 mm 0.00 in0.0 mm
09:06 AM 93.6°F34.2°C 67.0°F19.4°C 42% 1.5 mph N2.4 kmh N 4.7 mph7.6 kmh 29.74 in1007.1 mb 0.00 in0.0 mm 0.00 in0.0 mm 0.00 in0.0 mm
09:07 AM 93.7°F34.3°C 67.2°F19.6°C 42% 1.2 mph N1.9 kmh N 4.7 mph7.6 kmh 29.74 in1007.1 mb 0.00 in0.0 mm 0.00 in0.0 mm 0.00 in0.0 mm
09:08 AM 94.1°F34.5°C 67.5°F19.7°C 42% 0.9 mph NNE1.4 kmh NNE 3.8 mph6.1 kmh 29.74 in1007.1 mb 0.00 in0.0 mm 0.00 in0.0 mm 0.00 in0.0 mm
09:09 AM 94.1°F34.5°C 67.5°F19.7°C 42% 0.9 mph N1.4 kmh N 3.8 mph6.1 kmh 29.74 in1007.1 mb 0.00 in0.0 mm 0.00 in0.0 mm 0.00 in0.0 mm
09:10 AM 94.8°F34.9°C 68.8°F20.4°C 43% 0.9 mph N1.4 kmh N 3.8 mph6.1 kmh 29.74 in1007.1 mb 0.00 in0.0 mm 0.00 in0.0 mm 0.00 in0.0 mm
09:11 AM 94.8°F34.9°C 68.8°F20.4°C 43% 1.0 mph N1.6 kmh N 3.8 mph6.1 kmh 29.74 in1007.1 mb 0.00 in0.0 mm 0.00 in0.0 mm 0.00 in0.0 mm
09:12 AM 93.2°F34.0°C 66.7°F19.3°C 42% 1.2 mph N1.9 kmh N 3.8 mph6.1 kmh 29.74 in1007.1 mb 0.00 in0.0 mm 0.00 in0.0 mm 0.00 in0.0 mm
09:13 AM 93.2°F34.0°C 66.7°F19.3°C 42% 1.1 mph N1.8 kmh N 3.8 mph6.1 kmh 29.74 in1007.1 mb 0.00 in0.0 mm 0.00 in0.0 mm 0.00 in0.0 mm
09:14 AM 92.5°F33.6°C 65.4°F18.6°C 41% 1.2 mph N1.9 kmh N 2.7 mph4.3 kmh 29.74 in1007.1 mb 0.00 in0.0 mm 0.00 in0.0 mm 0.00 in0.0 mm
09:15 AM 92.5°F33.6°C 65.4°F18.6°C 41% 1.3 mph N2.1 kmh N 2.7 mph4.3 kmh 29.74 in1007.1 mb 0.00 in0.0 mm 0.00 in0.0 mm 0.00 in0.0 mm
09:16 AM 91.9°F33.3°C 65.6°F18.7°C 42% 1.4 mph N2.3 kmh N 2.7 mph4.3 kmh 29.74 in1007.1 mb 0.00 in0.0 mm 0.00 in0.0 mm 0.00 in0.0 mm
09:17 AM 91.9°F33.3°C 64.2°F17.9°C 40% 1.7 mph NNE2.7 kmh NNE 3.1 mph5.0 kmh 29.74 in1007.1 mb 0.00 in0.0 mm 0.00 in0.0 mm 0.00 in0.0 mm
09:18 AM 92.8°F33.8°C 66.4°F19.1°C 42% 1.7 mph NNE2.7 kmh NNE 3.1 mph5.0 kmh 29.74 in1007.1 mb 0.00 in0.0 mm 0.00 in0.0 mm 0.00 in0.0 mm
09:19 AM 92.8°F33.8°C 66.4°F19.1°C 42% 1.8 mph NNE2.9 kmh NNE 3.1 mph5.0 kmh 29.74 in1007.1 mb 0.00 in0.0 mm 0.00 in0.0 mm 0.00 in0.0 mm
09:20 AM 93.4°F34.1°C 66.2°F19.0°C 41% 1.7 mph NE2.7 kmh NE 3.1 mph5.0 kmh 29.74 in1007.1 mb 0.00 in0.0 mm 0.00 in0.0 mm 0.00 in0.0 mm
09:21 AM 93.4°F34.1°C 66.2°F19.0°C 41% 1.8 mph NE2.9 kmh NE 3.6 mph5.8 kmh 29.74 in1007.1 mb 0.00 in0.0 mm 0.00 in0.0 mm 0.00 in0.0 mm
09:22 AM 91.8°F33.2°C 63.3°F17.4°C 39% 1.8 mph NE2.9 kmh NE 3.6 mph5.8 kmh 29.74 in1007.1 mb 0.00 in0.0 mm 0.00 in0.0 mm 0.00 in0.0 mm
09:23 AM 91.8°F33.2°C 63.3°F17.4°C 39% 1.8 mph NE2.9 kmh NE 3.6 mph5.8 kmh 29.74 in1007.1 mb 0.00 in0.0 mm 0.00 in0.0 mm 0.00 in0.0 mm
09:24 AM 91.9°F33.3°C 63.4°F17.4°C 39% 1.9 mph NE3.1 kmh NE 3.6 mph5.8 kmh 29.74 in1007.1 mb 0.00 in0.0 mm 0.00 in0.0 mm 0.00 in0.0 mm
09:25 AM 91.0°F32.8°C 63.4°F17.4°C 40% 1.7 mph NE2.7 kmh NE 3.6 mph5.8 kmh 29.74 in1007.1 mb 0.00 in0.0 mm 0.00 in0.0 mm 0.00 in0.0 mm
09:26 AM 91.0°F32.8°C 63.4°F17.4°C 40% 1.9 mph NE3.1 kmh NE 5.6 mph9.0 kmh 29.74 in1007.1 mb 0.00 in0.0 mm 0.00 in0.0 mm 0.00 in0.0 mm
09:27 AM 91.2°F32.9°C 63.5°F17.5°C 40% 1.8 mph NE2.9 kmh NE 5.6 mph9.0 kmh 29.74 in1007.1 mb 0.00 in0.0 mm 0.00 in0.0 mm 0.00 in0.0 mm
09:28 AM 91.2°F32.9°C 63.5°F17.5°C 40% 1.7 mph NE2.7 kmh NE 5.6 mph9.0 kmh 29.74 in1007.1 mb 0.00 in0.0 mm 0.00 in0.0 mm 0.00 in0.0 mm
09:29 AM 91.8°F33.2°C 63.3°F17.4°C 39% 1.8 mph NE2.9 kmh NE 5.6 mph9.0 kmh 29.74 in1007.1 mb 0.00 in0.0 mm 0.00 in0.0 mm 0.00 in0.0 mm
09:30 AM 91.8°F33.2°C 63.3°F17.4°C 39% 1.9 mph NE3.1 kmh NE 5.6 mph9.0 kmh 29.74 in1007.1 mb 0.00 in0.0 mm 0.00 in0.0 mm 0.00 in0.0 mm
09:31 AM 91.6°F33.1°C 62.4°F16.9°C 38% 2.0 mph NE3.2 kmh NE 5.6 mph9.0 kmh 29.74 in1007.1 mb 0.00 in0.0 mm 0.00 in0.0 mm 0.00 in0.0 mm
09:32 AM 90.3°F32.4°C 61.3°F16.3°C 38% 2.0 mph NE3.2 kmh NE 5.6 mph9.0 kmh 29.74 in1007.1 mb 0.00 in0.0 mm 0.00 in0.0 mm 0.00 in0.0 mm
09:33 AM 90.3°F32.4°C 61.3°F16.3°C 38% 2.1 mph NE3.4 kmh NE 5.6 mph9.0 kmh 29.74 in1007.1 mb 0.00 in0.0 mm 0.00 in0.0 mm 0.00 in0.0 mm
09:34 AM 90.1°F32.3°C 61.8°F16.6°C 39% 2.2 mph NE3.5 kmh NE 5.6 mph9.0 kmh 29.74 in1007.1 mb 0.00 in0.0 mm 0.00 in0.0 mm 0.00 in0.0 mm
09:35 AM 90.1°F32.3°C 61.8°F16.6°C 39% 2.4 mph NE3.9 kmh NE 5.6 mph9.0 kmh 29.74 in1007.1 mb 0.00 in0.0 mm 0.00 in0.0 mm 0.00 in0.0 mm
09:36 AM 90.3°F32.4°C 62.0°F16.7°C 39% 2.2 mph NNE3.5 kmh NNE 3.8 mph6.1 kmh 29.74 in1007.1 mb 0.00 in0.0 mm 0.00 in0.0 mm 0.00 in0.0 mm
09:37 AM 90.3°F32.4°C 62.0°F16.7°C 39% 2.2 mph NNE3.5 kmh NNE 3.8 mph6.1 kmh 29.74 in1007.1 mb 0.00 in0.0 mm 0.00 in0.0 mm 0.00 in0.0 mm
09:38 AM 91.4°F33.0°C 63.7°F17.6°C 40% 2.2 mph NNE3.5 kmh NNE 3.8 mph6.1 kmh 29.74 in1007.1 mb 0.00 in0.0 mm 0.00 in0.0 mm 0.00 in0.0 mm
09:39 AM 92.3°F33.5°C 63.8°F17.7°C 39% 2.3 mph NNE3.7 kmh NNE 3.8 mph6.1 kmh 29.74 in1007.1 mb 0.00 in0.0 mm 0.00 in0.0 mm 0.00 in0.0 mm
09:40 AM 92.3°F33.5°C 63.8°F17.7°C 39% 2.2 mph NNE3.5 kmh NNE 3.8 mph6.1 kmh 29.74 in1007.1 mb 0.00 in0.0 mm 0.00 in0.0 mm 0.00 in0.0 mm
09:41 AM 93.0°F33.9°C 65.1°F18.4°C 40% 2.0 mph NNE3.2 kmh NNE 3.8 mph6.1 kmh 29.74 in1007.1 mb 0.00 in0.0 mm 0.00 in0.0 mm 0.00 in0.0 mm
09:42 AM 93.0°F33.9°C 65.1°F18.4°C 40% 1.9 mph N3.1 kmh N 3.8 mph6.1 kmh 29.74 in1007.1 mb 0.00 in0.0 mm 0.00 in0.0 mm 0.00 in0.0 mm
09:43 AM 92.7°F33.7°C 64.1°F17.8°C 39% 2.0 mph NNE3.2 kmh NNE 4.0 mph6.4 kmh 29.74 in1007.1 mb 0.00 in0.0 mm 0.00 in0.0 mm 0.00 in0.0 mm
09:44 AM 92.7°F33.7°C 64.1°F17.8°C 39% 2.2 mph N3.5 kmh N 6.5 mph10.5 kmh 29.74 in1007.1 mb 0.00 in0.0 mm 0.00 in0.0 mm 0.00 in0.0 mm
09:45 AM 92.7°F33.7°C 64.1°F17.8°C 39% 2.2 mph N3.5 kmh N 6.5 mph10.5 kmh 29.74 in1007.1 mb 0.00 in0.0 mm 0.00 in0.0 mm 0.00 in0.0 mm
09:46 AM 92.8°F33.8°C 63.5°F17.5°C 38% 2.1 mph N3.4 kmh N 6.5 mph10.5 kmh 29.74 in1007.1 mb 0.00 in0.0 mm 0.00 in0.0 mm 0.00 in0.0 mm
09:47 AM 92.8°F33.8°C 63.5°F17.5°C 38% 2.1 mph N3.4 kmh N 6.5 mph10.5 kmh 29.74 in1007.1 mb 0.00 in0.0 mm 0.00 in0.0 mm 0.00 in0.0 mm
09:48 AM 92.1°F33.4°C 62.1°F16.7°C 37% 2.3 mph N3.7 kmh N 6.5 mph10.5 kmh 29.74 in1007.1 mb 0.00 in0.0 mm 0.00 in0.0 mm 0.00 in0.0 mm
09:49 AM 92.1°F33.4°C 62.1°F16.7°C 37% 2.3 mph N3.7 kmh N 6.5 mph10.5 kmh 29.74 in1007.1 mb 0.00 in0.0 mm 0.00 in0.0 mm 0.00 in0.0 mm
09:50 AM 92.7°F33.7°C 64.1°F17.8°C 39% 2.5 mph N4.0 kmh N 6.5 mph10.5 kmh 29.74 in1007.1 mb 0.00 in0.0 mm 0.00 in0.0 mm 0.00 in0.0 mm
09:51 AM 92.7°F33.7°C 64.1°F17.8°C 39% 2.6 mph N4.2 kmh N 6.5 mph10.5 kmh 29.74 in1007.1 mb 0.00 in0.0 mm 0.00 in0.0 mm 0.00 in0.0 mm
09:52 AM 92.8°F33.8°C 64.2°F17.9°C 39% 2.3 mph NNE3.7 kmh NNE 6.5 mph10.5 kmh 29.74 in1007.1 mb 0.00 in0.0 mm 0.00 in0.0 mm 0.00 in0.0 mm
09:53 AM 92.8°F33.8°C 64.2°F17.9°C 39% 2.2 mph N3.5 kmh N 6.5 mph10.5 kmh 29.74 in1007.1 mb 0.00 in0.0 mm 0.00 in0.0 mm 0.00 in0.0 mm
09:54 AM 93.2°F34.0°C 63.8°F17.7°C 38% 2.0 mph NE3.2 kmh NE 4.3 mph6.9 kmh 29.74 in1007.1 mb 0.00 in0.0 mm 0.00 in0.0 mm 0.00 in0.0 mm
09:55 AM 92.3°F33.5°C 63.0°F17.2°C 38% 2.2 mph NE3.5 kmh NE 4.3 mph6.9 kmh 29.74 in1007.1 mb 0.00 in0.0 mm 0.00 in0.0 mm 0.00 in0.0 mm
09:56 AM 92.3°F33.5°C 63.0°F17.2°C 38% 2.2 mph NE3.5 kmh NE 4.3 mph6.9 kmh 29.74 in1007.1 mb 0.00 in0.0 mm 0.00 in0.0 mm 0.00 in0.0 mm
09:57 AM 91.8°F33.2°C 62.5°F16.9°C 38% 2.3 mph NE3.7 kmh NE 4.3 mph6.9 kmh 29.74 in1007.1 mb 0.00 in0.0 mm 0.00 in0.0 mm 0.00 in0.0 mm
09:58 AM 91.8°F33.2°C 62.5°F16.9°C 38% 2.4 mph NE3.9 kmh NE 4.3 mph6.9 kmh 29.74 in1007.1 mb 0.00 in0.0 mm 0.00 in0.0 mm 0.00 in0.0 mm
09:59 AM 92.1°F33.4°C 62.9°F17.2°C 38% 2.3 mph NE3.7 kmh NE 4.3 mph6.9 kmh 29.74 in1007.1 mb 0.00 in0.0 mm 0.00 in0.0 mm 0.00 in0.0 mm
10:00 AM 92.1°F33.4°C 62.9°F17.2°C 38% 2.3 mph NE3.7 kmh NE 4.3 mph6.9 kmh 29.74 in1007.1 mb 0.00 in0.0 mm 0.00 in0.0 mm 0.00 in0.0 mm
10:01 AM 91.6°F33.1°C 62.4°F16.9°C 38% 2.4 mph NNE3.9 kmh NNE 4.3 mph6.9 kmh 29.74 in1007.1 mb 0.00 in0.0 mm 0.00 in0.0 mm 0.00 in0.0 mm
10:02 AM 91.2°F32.9°C 62.8°F17.1°C 39% 3.0 mph NE4.8 kmh NE 4.3 mph6.9 kmh 29.74 in1007.1 mb 0.00 in0.0 mm 0.00 in0.0 mm 0.00 in0.0 mm
10:03 AM 91.2°F32.9°C 62.8°F17.1°C 39% 2.9 mph NE4.7 kmh NE 4.3 mph6.9 kmh 29.74 in1007.1 mb 0.00 in0.0 mm 0.00 in0.0 mm 0.00 in0.0 mm
10:04 AM 91.4°F33.0°C 62.2°F16.8°C 38% 2.8 mph NNE4.5 kmh NNE 4.0 mph6.4 kmh 29.74 in1007.1 mb 0.00 in0.0 mm 0.00 in0.0 mm 0.00 in0.0 mm
10:05 AM 91.4°F33.0°C 62.2°F16.8°C 38% 2.5 mph NNE4.0 kmh NNE 4.0 mph6.4 kmh 29.74 in1007.1 mb 0.00 in0.0 mm 0.00 in0.0 mm 0.00 in0.0 mm
10:06 AM 92.7°F33.7°C 64.8°F18.2°C 40% 2.1 mph NNE3.4 kmh NNE 3.8 mph6.1 kmh 29.74 in1007.1 mb 0.00 in0.0 mm 0.00 in0.0 mm 0.00 in0.0 mm
10:07 AM 92.7°F33.7°C 64.8°F18.2°C 40% 2.0 mph NNE3.2 kmh NNE 3.8 mph6.1 kmh 29.74 in1007.1 mb 0.00 in0.0 mm 0.00 in0.0 mm 0.00 in0.0 mm
10:08 AM 92.7°F33.7°C 64.1°F17.8°C 39% 1.9 mph NE3.1 kmh NE 3.8 mph6.1 kmh 29.74 in1007.1 mb 0.00 in0.0 mm 0.00 in0.0 mm 0.00 in0.0 mm
10:09 AM 92.3°F33.5°C 63.8°F17.7°C 39% 2.1 mph NE3.4 kmh NE 3.8 mph6.1 kmh 29.74 in1007.1 mb 0.00 in0.0 mm 0.00 in0.0 mm 0.00 in0.0 mm
10:10 AM 92.3°F33.5°C 63.8°F17.7°C 39% 1.9 mph NE3.1 kmh NE 3.8 mph6.1 kmh 29.74 in1007.1 mb 0.00 in0.0 mm 0.00 in0.0 mm 0.00 in0.0 mm
10:11 AM 93.2°F34.0°C 64.6°F18.1°C 39% 1.9 mph NE3.1 kmh NE 3.8 mph6.1 kmh 29.74 in1007.1 mb 0.00 in0.0 mm 0.00 in0.0 mm 0.00 in0.0 mm
10:12 AM 93.2°F34.0°C 64.6°F18.1°C 39% 1.8 mph NE2.9 kmh NE 3.8 mph6.1 kmh 29.74 in1007.1 mb 0.00 in0.0 mm 0.00 in0.0 mm 0.00 in0.0 mm
10:13 AM 93.2°F34.0°C 63.8°F17.7°C 38% 2.0 mph NNW3.2 kmh NNW 5.6 mph9.0 kmh 29.74 in1007.1 mb 0.00 in0.0 mm 0.00 in0.0 mm 0.00 in0.0 mm
10:14 AM 93.2°F34.0°C 63.8°F17.7°C 38% 2.1 mph NNW3.4 kmh NNW 5.6 mph9.0 kmh 29.74 in1007.1 mb 0.00 in0.0 mm 0.00 in0.0 mm 0.00 in0.0 mm
10:15 AM 93.4°F34.1°C 64.7°F18.2°C 39% 2.1 mph N3.4 kmh N 5.6 mph9.0 kmh 29.74 in1007.1 mb 0.00 in0.0 mm 0.00 in0.0 mm 0.00 in0.0 mm
10:16 AM 93.4°F34.1°C 64.7°F18.2°C 39% 2.4 mph N3.9 kmh N 5.6 mph9.0 kmh 29.74 in1007.1 mb 0.00 in0.0 mm 0.00 in0.0 mm 0.00 in0.0 mm
10:17 AM 93.0°F33.9°C 64.4°F18.0°C 39% 2.5 mph N4.0 kmh N 5.6 mph9.0 kmh 29.74 in1007.1 mb 0.00 in0.0 mm 0.00 in0.0 mm 0.00 in0.0 mm
10:18 AM 93.6°F34.2°C 64.1°F17.8°C 38% 2.7 mph NW4.3 kmh NW 5.6 mph9.0 kmh 29.74 in1007.1 mb 0.00 in0.0 mm 0.00 in0.0 mm 0.00 in0.0 mm
10:19 AM 93.6°F34.2°C 64.1°F17.8°C 38% 2.7 mph NW4.3 kmh NW 5.6 mph9.0 kmh 29.74 in1007.1 mb 0.00 in0.0 mm 0.00 in0.0 mm 0.00 in0.0 mm
10:20 AM 93.7°F34.3°C 64.3°F17.9°C 38% 2.9 mph NW4.7 kmh NW 5.6 mph9.0 kmh 29.74 in1007.1 mb 0.00 in0.0 mm 0.00 in0.0 mm 0.00 in0.0 mm
10:21 AM 93.7°F34.3°C 64.3°F17.9°C 38% 2.8 mph NW4.5 kmh NW 5.6 mph9.0 kmh 29.74 in1007.1 mb 0.00 in0.0 mm 0.00 in0.0 mm 0.00 in0.0 mm
10:22 AM 93.2°F34.0°C 63.8°F17.7°C 38% 2.9 mph NW4.7 kmh NW 5.6 mph9.0 kmh 29.74 in1007.1 mb 0.00 in0.0 mm 0.00 in0.0 mm 0.00 in0.0 mm
10:23 AM 93.2°F34.0°C 63.8°F17.7°C 38% 2.3 mph NW3.7 kmh NW 5.4 mph8.7 kmh 29.74 in1007.1 mb 0.00 in0.0 mm 0.00 in0.0 mm 0.00 in0.0 mm
10:24 AM 92.7°F33.7°C 63.3°F17.4°C 38% 2.1 mph NW3.4 kmh NW 5.4 mph8.7 kmh 29.74 in1007.1 mb 0.00 in0.0 mm 0.00 in0.0 mm 0.00 in0.0 mm
10:25 AM 92.8°F33.8°C 63.5°F17.5°C 38% 2.1 mph NNW3.4 kmh NNW 5.4 mph8.7 kmh 29.74 in1007.1 mb 0.00 in0.0 mm 0.00 in0.0 mm 0.00 in0.0 mm
10:26 AM 92.8°F33.8°C 63.5°F17.5°C 38% 2.0 mph NW3.2 kmh NW 5.4 mph8.7 kmh 29.74 in1007.1 mb 0.00 in0.0 mm 0.00 in0.0 mm 0.00 in0.0 mm
10:27 AM 93.6°F34.2°C 64.1°F17.8°C 38% 2.3 mph NW3.7 kmh NW 5.4 mph8.7 kmh 29.74 in1007.1 mb 0.00 in0.0 mm 0.00 in0.0 mm 0.00 in0.0 mm
10:28 AM 93.6°F34.2°C 64.1°F17.8°C 38% 2.1 mph NW3.4 kmh NW 5.4 mph8.7 kmh 29.74 in1007.1 mb 0.00 in0.0 mm 0.00 in0.0 mm 0.00 in0.0 mm
10:29 AM 92.8°F33.8°C 63.5°F17.5°C 38% 2.0 mph NNW3.2 kmh NNW 5.4 mph8.7 kmh 29.74 in1007.1 mb 0.00 in0.0 mm 0.00 in0.0 mm 0.00 in0.0 mm
10:30 AM 92.8°F33.8°C 63.5°F17.5°C 38% 2.1 mph N3.4 kmh N 5.4 mph8.7 kmh 29.74 in1007.1 mb 0.00 in0.0 mm 0.00 in0.0 mm 0.00 in0.0 mm
10:31 AM 91.9°F33.3°C 62.7°F17.1°C 38% 2.2 mph N3.5 kmh N 5.4 mph8.7 kmh 29.74 in1007.1 mb 0.00 in0.0 mm 0.00 in0.0 mm 0.00 in0.0 mm
10:32 AM 90.7°F32.6°C 62.3°F16.8°C 39% 2.2 mph NNE3.5 kmh NNE 3.8 mph6.1 kmh 29.74 in1007.1 mb 0.00 in0.0 mm 0.00 in0.0 mm 0.00 in0.0 mm
10:33 AM 90.7°F32.6°C 62.3°F16.8°C 39% 2.4 mph NNE3.9 kmh NNE 4.0 mph6.4 kmh 29.74 in1007.1 mb 0.00 in0.0 mm 0.00 in0.0 mm 0.00 in0.0 mm
10:34 AM 90.5°F32.5°C 63.6°F17.6°C 41% 2.6 mph NNE4.2 kmh NNE 4.0 mph6.4 kmh 29.74 in1007.1 mb 0.00 in0.0 mm 0.00 in0.0 mm 0.00 in0.0 mm
10:35 AM 90.5°F32.5°C 63.6°F17.6°C 41% 2.9 mph NNE4.7 kmh NNE 5.8 mph9.3 kmh 29.74 in1007.1 mb 0.00 in0.0 mm 0.00 in0.0 mm 0.00 in0.0 mm
10:36 AM 90.7°F32.6°C 63.7°F17.6°C 41% 3.2 mph NNE5.1 kmh NNE 5.8 mph9.3 kmh 29.74 in1007.1 mb 0.00 in0.0 mm 0.00 in0.0 mm 0.00 in0.0 mm
10:37 AM 90.7°F32.6°C 63.7°F17.6°C 41% 3.3 mph NE5.3 kmh NE 5.8 mph9.3 kmh 29.74 in1007.1 mb 0.00 in0.0 mm 0.00 in0.0 mm 0.00 in0.0 mm
10:38 AM 90.0°F32.2°C 63.8°F17.7°C 42% 3.4 mph NE5.5 kmh NE 5.8 mph9.3 kmh 29.74 in1007.1 mb 0.00 in0.0 mm 0.00 in0.0 mm 0.00 in0.0 mm
10:39 AM 90.0°F32.2°C 63.8°F17.7°C 42% 3.2 mph NE5.1 kmh NE 5.8 mph9.3 kmh 29.74 in1007.1 mb 0.00 in0.0 mm 0.00 in0.0 mm 0.00 in0.0 mm
10:40 AM 90.5°F32.5°C 64.3°F17.9°C 42% 3.2 mph NE5.1 kmh NE 5.8 mph9.3 kmh 29.74 in1007.1 mb 0.00 in0.0 mm 0.00 in0.0 mm 0.00 in0.0 mm
10:41 AM 89.8°F32.1°C 63.6°F17.6°C 42% 3.1 mph NE5.0 kmh NE 5.8 mph9.3 kmh 29.74 in1007.1 mb 0.00 in0.0 mm 0.00 in0.0 mm 0.00 in0.0 mm
10:42 AM 89.8°F32.1°C 63.6°F17.6°C 42% 3.3 mph ENE5.3 kmh ENE 5.8 mph9.3 kmh 29.74 in1007.1 mb 0.00 in0.0 mm 0.00 in0.0 mm 0.00 in0.0 mm
10:43 AM 90.1°F32.3°C 64.6°F18.1°C 43% 3.0 mph ENE4.8 kmh ENE 5.8 mph9.3 kmh 29.74 in1007.1 mb 0.00 in0.0 mm 0.00 in0.0 mm 0.00 in0.0 mm
10:44 AM 90.1°F32.3°C 64.6°F18.1°C 43% 3.0 mph ENE4.8 kmh ENE 5.8 mph9.3 kmh 29.74 in1007.1 mb 0.00 in0.0 mm 0.00 in0.0 mm 0.00 in0.0 mm
10:45 AM 90.1°F32.3°C 64.0°F17.8°C 42% 2.8 mph E4.5 kmh E 5.8 mph9.3 kmh 29.74 in1007.1 mb 0.00 in0.0 mm 0.00 in0.0 mm 0.00 in0.0 mm
10:46 AM 90.1°F32.3°C 64.0°F17.8°C 42% 2.5 mph E4.0 kmh E 4.7 mph7.6 kmh 29.74 in1007.1 mb 0.00 in0.0 mm 0.00 in0.0 mm 0.00 in0.0 mm
10:47 AM 90.0°F32.2°C 65.1°F18.4°C 44% 2.4 mph E3.9 kmh E 4.7 mph7.6 kmh 29.74 in1007.1 mb 0.00 in0.0 mm 0.00 in0.0 mm 0.00 in0.0 mm
10:48 AM 89.8°F32.1°C 65.0°F18.3°C 44% 2.4 mph ENE3.9 kmh ENE 4.7 mph7.6 kmh 29.74 in1007.1 mb 0.00 in0.0 mm 0.00 in0.0 mm 0.00 in0.0 mm
10:49 AM 89.8°F32.1°C 65.0°F18.3°C 44% 2.6 mph NE4.2 kmh NE 4.7 mph7.6 kmh 29.74 in1007.1 mb 0.00 in0.0 mm 0.00 in0.0 mm 0.00 in0.0 mm
10:50 AM 89.2°F31.8°C 64.5°F18.1°C 44% 2.8 mph NE4.5 kmh NE 4.7 mph7.6 kmh 29.74 in1007.1 mb 0.00 in0.0 mm 0.00 in0.0 mm 0.00 in0.0 mm
10:51 AM 89.2°F31.8°C 64.5°F18.1°C 44% 2.7 mph NE4.3 kmh NE 4.7 mph7.6 kmh 29.77 in1008.1 mb 0.00 in0.0 mm 0.00 in0.0 mm 0.00 in0.0 mm
10:52 AM 90.0°F32.2°C 65.1°F18.4°C 44% 2.5 mph NE4.0 kmh NE 4.5 mph7.2 kmh 29.77 in1008.1 mb 0.00 in0.0 mm 0.00 in0.0 mm 0.00 in0.0 mm
10:53 AM 90.0°F32.2°C 65.1°F18.4°C 44% 2.6 mph NE4.2 kmh NE 4.5 mph7.2 kmh 29.77 in1008.1 mb 0.00 in0.0 mm 0.00 in0.0 mm 0.00 in0.0 mm
10:54 AM 90.7°F32.6°C 65.8°F18.8°C 44% 2.5 mph NE4.0 kmh NE 4.5 mph7.2 kmh 29.77 in1008.1 mb 0.00 in0.0 mm 0.00 in0.0 mm 0.00 in0.0 mm
10:55 AM 91.6°F33.1°C 65.2°F18.4°C 42% 2.0 mph N3.2 kmh N 4.5 mph7.2 kmh 29.77 in1008.1 mb 0.00 in0.0 mm 0.00 in0.0 mm 0.00 in0.0 mm
10:56 AM 91.6°F33.1°C 65.2°F18.4°C 42% 2.1 mph N3.4 kmh N 4.5 mph7.2 kmh 29.77 in1008.1 mb 0.00 in0.0 mm 0.00 in0.0 mm 0.00 in0.0 mm
10:57 AM 90.5°F32.5°C 64.9°F18.3°C 43% 2.2 mph NE3.5 kmh NE 4.5 mph7.2 kmh 29.77 in1008.1 mb 0.00 in0.0 mm 0.00 in0.0 mm 0.00 in0.0 mm
10:58 AM 90.5°F32.5°C 64.9°F18.3°C 43% 2.3 mph ENE3.7 kmh ENE 4.5 mph7.2 kmh 29.77 in1008.1 mb 0.00 in0.0 mm 0.00 in0.0 mm 0.00 in0.0 mm
10:59 AM 90.1°F32.3°C 65.3°F18.5°C 44% 2.4 mph E3.9 kmh E 4.7 mph7.6 kmh 29.77 in1008.1 mb 0.00 in0.0 mm 0.00 in0.0 mm 0.00 in0.0 mm
11:00 AM 90.1°F32.3°C 65.3°F18.5°C 44% 2.4 mph E3.9 kmh E 4.7 mph7.6 kmh 29.77 in1008.1 mb 0.00 in0.0 mm 0.00 in0.0 mm 0.00 in0.0 mm
11:01 AM 89.6°F32.0°C 65.4°F18.6°C 45% 2.3 mph ENE3.7 kmh ENE 4.7 mph7.6 kmh 29.77 in1008.1 mb 0.00 in0.0 mm 0.00 in0.0 mm 0.00 in0.0 mm
11:02 AM 90.0°F32.2°C 65.8°F18.8°C 45% 2.5 mph NE4.0 kmh NE 4.7 mph7.6 kmh 29.77 in1008.1 mb 0.00 in0.0 mm 0.00 in0.0 mm 0.00 in0.0 mm
11:03 AM 90.0°F32.2°C 65.8°F18.8°C 45% 2.4 mph NE3.9 kmh NE 4.7 mph7.6 kmh 29.77 in1008.1 mb 0.00 in0.0 mm 0.00 in0.0 mm 0.00 in0.0 mm
11:04 AM 89.2°F31.8°C 65.8°F18.8°C 46% 2.8 mph NE4.5 kmh NE 4.7 mph7.6 kmh 29.77 in1008.1 mb 0.00 in0.0 mm 0.00 in0.0 mm 0.00 in0.0 mm
11:05 AM 89.2°F31.8°C 65.8°F18.8°C 46% 3.0 mph ENE4.8 kmh ENE 4.7 mph7.6 kmh 29.77 in1008.1 mb 0.00 in0.0 mm 0.00 in0.0 mm 0.00 in0.0 mm
11:06 AM 89.4°F31.9°C 65.9°F18.8°C 46% 3.3 mph NE5.3 kmh NE 4.7 mph7.6 kmh 29.77 in1008.1 mb 0.00 in0.0 mm 0.00 in0.0 mm 0.00 in0.0 mm
11:07 AM 89.4°F31.9°C 65.9°F18.8°C 46% 3.3 mph NE5.3 kmh NE 4.7 mph7.6 kmh 29.77 in1008.1 mb 0.00 in0.0 mm 0.00 in0.0 mm 0.00 in0.0 mm
11:08 AM 89.2°F31.8°C 66.4°F19.1°C 47% 3.2 mph NE5.1 kmh NE 4.7 mph7.6 kmh 29.77 in1008.1 mb 0.00 in0.0 mm 0.00 in0.0 mm 0.00 in0.0 mm
11:09 AM 89.2°F31.8°C 66.4°F19.1°C 47% 3.3 mph NE5.3 kmh NE 5.8 mph9.3 kmh 29.77 in1008.1 mb 0.00 in0.0 mm 0.00 in0.0 mm 0.00 in0.0 mm
11:10 AM 88.2°F31.2°C 64.8°F18.2°C 46% 3.4 mph NE5.5 kmh NE 5.8 mph9.3 kmh 29.77 in1008.1 mb 0.00 in0.0 mm 0.00 in0.0 mm 0.00 in0.0 mm
11:11 AM 87.6°F30.9°C 64.9°F18.3°C 47% 3.8 mph NE6.1 kmh NE 5.8 mph9.3 kmh 29.77 in1008.1 mb 0.00 in0.0 mm 0.00 in0.0 mm 0.00 in0.0 mm
11:12 AM 87.6°F30.9°C 64.9°F18.3°C 47% 3.9 mph NE6.3 kmh NE 5.8 mph9.3 kmh 29.77 in1008.1 mb 0.00 in0.0 mm 0.00 in0.0 mm 0.00 in0.0 mm
11:13 AM 87.6°F30.9°C 65.5°F18.6°C 48% 4.0 mph NE6.4 kmh NE 5.8 mph9.3 kmh 29.77 in1008.1 mb 0.00 in0.0 mm 0.00 in0.0 mm 0.00 in0.0 mm
11:14 AM 87.6°F30.9°C 65.5°F18.6°C 48% 4.1 mph NE6.6 kmh NE 5.8 mph9.3 kmh 29.77 in1008.1 mb 0.00 in0.0 mm 0.00 in0.0 mm 0.00 in0.0 mm
11:15 AM 87.6°F30.9°C 65.5°F18.6°C 48% 4.0 mph NE6.4 kmh NE 5.8 mph9.3 kmh 29.77 in1008.1 mb 0.00 in0.0 mm 0.00 in0.0 mm 0.00 in0.0 mm
11:16 AM 87.6°F30.9°C 65.5°F18.6°C 48% 3.8 mph NE6.1 kmh NE 5.8 mph9.3 kmh 29.77 in1008.1 mb 0.00 in0.0 mm 0.00 in0.0 mm 0.00 in0.0 mm
11:17 AM 88.9°F31.6°C 67.2°F19.6°C 49% 3.6 mph NE5.8 kmh NE 5.8 mph9.3 kmh 29.77 in1008.1 mb 0.00 in0.0 mm 0.00 in0.0 mm 0.00 in0.0 mm
11:18 AM 89.1°F31.7°C 66.2°F19.0°C 47% 4.1 mph NE6.6 kmh NE 6.0 mph9.7 kmh 29.77 in1008.1 mb 0.00 in0.0 mm 0.00 in0.0 mm 0.00 in0.0 mm
11:19 AM 89.1°F31.7°C 66.2°F19.0°C 47% 4.0 mph NE6.4 kmh NE 6.0 mph9.7 kmh 29.77 in1008.1 mb 0.00 in0.0 mm 0.00 in0.0 mm 0.00 in0.0 mm
11:20 AM 88.5°F31.4°C 65.1°F18.4°C 46% 4.2 mph ENE6.8 kmh ENE 6.3 mph10.1 kmh 29.77 in1008.1 mb 0.00 in0.0 mm 0.00 in0.0 mm 0.00 in0.0 mm
11:21 AM 88.5°F31.4°C 65.1°F18.4°C 46% 4.0 mph ENE6.4 kmh ENE 6.3 mph10.1 kmh 29.77 in1008.1 mb 0.00 in0.0 mm 0.00 in0.0 mm 0.00 in0.0 mm
11:22 AM 88.5°F31.4°C 65.1°F18.4°C 46% 3.6 mph ENE5.8 kmh ENE 6.3 mph10.1 kmh 29.77 in1008.1 mb 0.00 in0.0 mm 0.00 in0.0 mm 0.00 in0.0 mm
11:23 AM 88.5°F31.4°C 65.1°F18.4°C 46% 3.6 mph ENE5.8 kmh ENE 6.3 mph10.1 kmh 29.77 in1008.1 mb 0.00 in0.0 mm 0.00 in0.0 mm 0.00 in0.0 mm
11:24 AM 88.9°F31.6°C 65.4°F18.6°C 46% 3.8 mph NE6.1 kmh NE 6.3 mph10.1 kmh 29.77 in1008.1 mb 0.00 in0.0 mm 0.00 in0.0 mm 0.00 in0.0 mm
11:25 AM 88.3°F31.3°C 65.6°F18.7°C 47% 4.0 mph NE6.4 kmh NE 6.3 mph10.1 kmh 29.77 in1008.1 mb 0.00 in0.0 mm 0.00 in0.0 mm 0.00 in0.0 mm
11:26 AM 88.3°F31.3°C 65.6°F18.7°C 47% 3.9 mph NE6.3 kmh NE 6.3 mph10.1 kmh 29.77 in1008.1 mb 0.00 in0.0 mm 0.00 in0.0 mm 0.00 in0.0 mm
11:27 AM 89.2°F31.8°C 66.4°F19.1°C 47% 4.2 mph NE6.8 kmh NE 6.3 mph10.1 kmh 29.77 in1008.1 mb 0.00 in0.0 mm 0.00 in0.0 mm 0.00 in0.0 mm
11:28 AM 89.2°F31.8°C 66.4°F19.1°C 47% 3.8 mph NE6.1 kmh NE 6.3 mph10.1 kmh 29.77 in1008.1 mb 0.00 in0.0 mm 0.00 in0.0 mm 0.00 in0.0 mm
11:29 AM 90.3°F32.4°C 66.7°F19.3°C 46% 3.6 mph NE5.8 kmh NE 6.3 mph10.1 kmh 29.77 in1008.1 mb 0.00 in0.0 mm 0.00 in0.0 mm 0.00 in0.0 mm
11:30 AM 90.3°F32.4°C 66.7°F19.3°C 46% 3.3 mph NNE5.3 kmh NNE 5.8 mph9.3 kmh 29.77 in1008.1 mb 0.00 in0.0 mm 0.00 in0.0 mm 0.00 in0.0 mm
11:31 AM 88.5°F31.4°C 65.1°F18.4°C 46% 3.4 mph NNE5.5 kmh NNE 5.8 mph9.3 kmh 29.77 in1008.1 mb 0.00 in0.0 mm 0.00 in0.0 mm 0.00 in0.0 mm
11:32 AM 88.5°F31.4°C 65.1°F18.4°C 46% 3.5 mph NNE5.6 kmh NNE 5.8 mph9.3 kmh 29.77 in1008.1 mb 0.00 in0.0 mm 0.00 in0.0 mm 0.00 in0.0 mm
11:33 AM 89.1°F31.7°C 66.2°F19.0°C 47% 3.5 mph NNE5.6 kmh NNE 5.8 mph9.3 kmh 29.77 in1008.1 mb 0.00 in0.0 mm 0.00 in0.0 mm 0.00 in0.0 mm
11:34 AM 89.1°F31.7°C 66.8°F19.3°C 48% 3.1 mph NE5.0 kmh NE 5.8 mph9.3 kmh 29.77 in1008.1 mb 0.00 in0.0 mm 0.00 in0.0 mm 0.00 in0.0 mm
11:35 AM 89.1°F31.7°C 66.8°F19.3°C 48% 3.4 mph NE5.5 kmh NE 9.4 mph15.1 kmh 29.77 in1008.1 mb 0.00 in0.0 mm 0.00 in0.0 mm 0.00 in0.0 mm
11:36 AM 87.6°F30.9°C 64.9°F18.3°C 47% 3.6 mph NE5.8 kmh NE 9.4 mph15.1 kmh 29.77 in1008.1 mb 0.00 in0.0 mm 0.00 in0.0 mm 0.00 in0.0 mm
11:37 AM 87.6°F30.9°C 64.9°F18.3°C 47% 3.6 mph NE5.8 kmh NE 9.4 mph15.1 kmh 29.77 in1008.1 mb 0.00 in0.0 mm 0.00 in0.0 mm 0.00 in0.0 mm
11:38 AM 88.5°F31.4°C 65.7°F18.7°C 47% 3.3 mph NE5.3 kmh NE 9.4 mph15.1 kmh 29.77 in1008.1 mb 0.00 in0.0 mm 0.00 in0.0 mm 0.00 in0.0 mm
11:39 AM 88.5°F31.4°C 65.7°F18.7°C 47% 3.6 mph NE5.8 kmh NE 9.4 mph15.1 kmh 29.77 in1008.1 mb 0.00 in0.0 mm 0.00 in0.0 mm 0.00 in0.0 mm
11:40 AM 88.3°F31.3°C 65.6°F18.7°C 47% 3.7 mph NE6.0 kmh NE 9.4 mph15.1 kmh 29.77 in1008.1 mb 0.00 in0.0 mm 0.00 in0.0 mm 0.00 in0.0 mm
11:41 AM 88.7°F31.5°C 65.9°F18.8°C 47% 3.6 mph NE5.8 kmh NE 9.4 mph15.1 kmh 29.77 in1008.1 mb 0.00 in0.0 mm 0.00 in0.0 mm 0.00 in0.0 mm
11:42 AM 88.7°F31.5°C 65.9°F18.8°C 47% 3.6 mph NE5.8 kmh NE 9.4 mph15.1 kmh 29.77 in1008.1 mb 0.00 in0.0 mm 0.00 in0.0 mm 0.00 in0.0 mm
11:43 AM 89.1°F31.7°C 66.8°F19.3°C 48% 3.4 mph NE5.5 kmh NE 9.4 mph15.1 kmh 29.77 in1008.1 mb 0.00 in0.0 mm 0.00 in0.0 mm 0.00 in0.0 mm
11:44 AM 89.1°F31.7°C 66.8°F19.3°C 48% 3.7 mph NE6.0 kmh NE 9.4 mph15.1 kmh 29.77 in1008.1 mb 0.00 in0.0 mm 0.00 in0.0 mm 0.00 in0.0 mm
11:45 AM 88.7°F31.5°C 65.3°F18.5°C 46% 3.6 mph NE5.8 kmh NE 8.1 mph13.0 kmh 29.77 in1008.1 mb 0.00 in0.0 mm 0.00 in0.0 mm 0.00 in0.0 mm
11:46 AM 88.7°F31.5°C 65.3°F18.5°C 46% 3.6 mph NE5.8 kmh NE 8.1 mph13.0 kmh 29.77 in1008.1 mb 0.00 in0.0 mm 0.00 in0.0 mm 0.00 in0.0 mm
11:47 AM 89.1°F31.7°C 65.6°F18.7°C 46% 3.7 mph NE6.0 kmh NE 8.1 mph13.0 kmh 29.77 in1008.1 mb 0.00 in0.0 mm 0.00 in0.0 mm 0.00 in0.0 mm
11:48 AM 87.8°F31.0°C 65.1°F18.4°C 47% 4.0 mph NE6.4 kmh NE 8.1 mph13.0 kmh 29.77 in1008.1 mb 0.00 in0.0 mm 0.00 in0.0 mm 0.00 in0.0 mm
11:49 AM 87.8°F31.0°C 65.1°F18.4°C 47% 3.9 mph NE6.3 kmh NE 8.1 mph13.0 kmh 29.77 in1008.1 mb 0.00 in0.0 mm 0.00 in0.0 mm 0.00 in0.0 mm
11:50 AM 88.5°F31.4°C 65.7°F18.7°C 47% 3.9 mph NE6.3 kmh NE 8.1 mph13.0 kmh 29.77 in1008.1 mb 0.00 in0.0 mm 0.00 in0.0 mm 0.00 in0.0 mm
11:51 AM 88.5°F31.4°C 65.7°F18.7°C 47% 4.2 mph NE6.8 kmh NE 8.1 mph13.0 kmh 29.77 in1008.1 mb 0.00 in0.0 mm 0.00 in0.0 mm 0.00 in0.0 mm
11:52 AM 88.5°F31.4°C 65.1°F18.4°C 46% 4.0 mph NE6.4 kmh NE 8.1 mph13.0 kmh 29.77 in1008.1 mb 0.00 in0.0 mm 0.00 in0.0 mm 0.00 in0.0 mm
11:53 AM 88.5°F31.4°C 65.1°F18.4°C 46% 4.1 mph NE6.6 kmh NE 8.1 mph13.0 kmh 29.77 in1008.1 mb 0.00 in0.0 mm 0.00 in0.0 mm 0.00 in0.0 mm
11:54 AM 88.3°F31.3°C 64.9°F18.3°C 46% 4.6 mph NE7.4 kmh NE 8.1 mph13.0 kmh 29.77 in1008.1 mb 0.00 in0.0 mm 0.00 in0.0 mm 0.00 in0.0 mm
11:55 AM 88.3°F31.3°C 64.9°F18.3°C 46% 4.5 mph NE7.2 kmh NE 8.1 mph13.0 kmh 29.77 in1008.1 mb 0.00 in0.0 mm 0.00 in0.0 mm 0.00 in0.0 mm
11:56 AM 88.3°F31.3°C 65.6°F18.7°C 47% 4.6 mph NE7.4 kmh NE 8.1 mph13.0 kmh 29.77 in1008.1 mb 0.00 in0.0 mm 0.00 in0.0 mm 0.00 in0.0 mm
11:57 AM 87.8°F31.0°C 65.1°F18.4°C 47% 4.9 mph NE7.9 kmh NE 8.1 mph13.0 kmh 29.77 in1008.1 mb 0.00 in0.0 mm 0.00 in0.0 mm 0.00 in0.0 mm
11:58 AM 87.8°F31.0°C 65.1°F18.4°C 47% 4.6 mph NE7.4 kmh NE 8.1 mph13.0 kmh 29.77 in1008.1 mb 0.00 in0.0 mm 0.00 in0.0 mm 0.00 in0.0 mm
11:59 AM 89.2°F31.8°C 66.4°F19.1°C 47% 4.3 mph NE6.9 kmh NE 8.1 mph13.0 kmh 29.77 in1008.1 mb 0.00 in0.0 mm 0.00 in0.0 mm 0.00 in0.0 mm
12:00 PM 89.2°F31.8°C 66.4°F19.1°C 47% 4.4 mph NE7.1 kmh NE 8.1 mph13.0 kmh 29.77 in1008.1 mb 0.00 in0.0 mm 0.00 in0.0 mm 0.00 in0.0 mm
12:01 PM 88.3°F31.3°C 64.9°F18.3°C 46% 4.0 mph NNE6.4 kmh NNE 8.1 mph13.0 kmh 29.77 in1008.1 mb 0.00 in0.0 mm 0.00 in0.0 mm 0.00 in0.0 mm
12:02 PM 88.3°F31.3°C 64.9°F18.3°C 46% 4.0 mph NNE6.4 kmh NNE 8.1 mph13.0 kmh 29.77 in1008.1 mb 0.00 in0.0 mm 0.00 in0.0 mm 0.00 in0.0 mm
12:03 PM 89.6°F32.0°C 66.7°F19.3°C 47% 3.8 mph NNE6.1 kmh NNE 8.1 mph13.0 kmh 29.77 in1008.1 mb 0.00 in0.0 mm 0.00 in0.0 mm 0.00 in0.0 mm
12:04 PM 90.0°F32.2°C 65.8°F18.8°C 45% 3.0 mph NE4.8 kmh NE 7.6 mph12.2 kmh 29.77 in1008.1 mb 0.00 in0.0 mm 0.00 in0.0 mm 0.00 in0.0 mm
12:05 PM 90.0°F32.2°C 65.8°F18.8°C 45% 3.0 mph NNE4.8 kmh NNE 7.6 mph12.2 kmh 29.77 in1008.1 mb 0.00 in0.0 mm 0.00 in0.0 mm 0.00 in0.0 mm
12:06 PM 89.4°F31.9°C 65.3°F18.5°C 45% 2.6 mph NE4.2 kmh NE 7.6 mph12.2 kmh 29.77 in1008.1 mb 0.00 in0.0 mm 0.00 in0.0 mm 0.00 in0.0 mm
12:07 PM 89.4°F31.9°C 65.3°F18.5°C 45% 2.0 mph NE3.2 kmh NE 4.0 mph6.4 kmh 29.77 in1008.1 mb 0.00 in0.0 mm 0.00 in0.0 mm 0.00 in0.0 mm
12:08 PM 89.6°F32.0°C 65.4°F18.6°C 45% 2.4 mph NE3.9 kmh NE 5.8 mph9.3 kmh 29.77 in1008.1 mb 0.00 in0.0 mm 0.00 in0.0 mm 0.00 in0.0 mm
12:09 PM 89.6°F32.0°C 65.4°F18.6°C 45% 2.6 mph NNE4.2 kmh NNE 5.8 mph9.3 kmh 29.77 in1008.1 mb 0.00 in0.0 mm 0.00 in0.0 mm 0.00 in0.0 mm
12:10 PM 89.1°F31.7°C 65.6°F18.7°C 46% 2.5 mph NNE4.0 kmh NNE 5.8 mph9.3 kmh 29.77 in1008.1 mb 0.00 in0.0 mm 0.00 in0.0 mm 0.00 in0.0 mm
12:11 PM 88.3°F31.3°C 64.9°F18.3°C 46% 2.5 mph NNE4.0 kmh NNE 5.8 mph9.3 kmh 29.77 in1008.1 mb 0.00 in0.0 mm 0.00 in0.0 mm 0.00 in0.0 mm
12:12 PM 88.3°F31.3°C 64.9°F18.3°C 46% 2.6 mph NE4.2 kmh NE 5.8 mph9.3 kmh 29.77 in1008.1 mb 0.00 in0.0 mm 0.00 in0.0 mm 0.00 in0.0 mm
12:13 PM 88.7°F31.5°C 65.3°F18.5°C 46% 2.7 mph NE4.3 kmh NE 5.8 mph9.3 kmh 29.77 in1008.1 mb 0.00 in0.0 mm 0.00 in0.0 mm 0.00 in0.0 mm
12:14 PM 88.7°F31.5°C 65.3°F18.5°C 46% 2.9 mph NE4.7 kmh NE 5.8 mph9.3 kmh 29.77 in1008.1 mb 0.00 in0.0 mm 0.00 in0.0 mm 0.00 in0.0 mm
12:15 PM 88.3°F31.3°C 64.9°F18.3°C 46% 3.2 mph N5.1 kmh N 5.8 mph9.3 kmh 29.77 in1008.1 mb 0.00 in0.0 mm 0.00 in0.0 mm 0.00 in0.0 mm
12:16 PM 88.3°F31.3°C 64.9°F18.3°C 46% 3.3 mph NNW5.3 kmh NNW 5.8 mph9.3 kmh 29.77 in1008.1 mb 0.00 in0.0 mm 0.00 in0.0 mm 0.00 in0.0 mm
12:17 PM 88.5°F31.4°C 65.1°F18.4°C 46% 3.7 mph N6.0 kmh N 6.5 mph10.5 kmh 29.77 in1008.1 mb 0.00 in0.0 mm 0.00 in0.0 mm 0.00 in0.0 mm
12:18 PM 87.4°F30.8°C 64.7°F18.2°C 47% 3.9 mph NNW6.3 kmh NNW 6.5 mph10.5 kmh 29.77 in1008.1 mb 0.00 in0.0 mm 0.00 in0.0 mm 0.00 in0.0 mm
12:19 PM 87.4°F30.8°C 64.7°F18.2°C 47% 3.5 mph NNW5.6 kmh NNW 6.5 mph10.5 kmh 29.77 in1008.1 mb 0.00 in0.0 mm 0.00 in0.0 mm 0.00 in0.0 mm
12:20 PM 87.3°F30.7°C 64.6°F18.1°C 47% 4.0 mph N6.4 kmh N 6.5 mph10.5 kmh 29.77 in1008.1 mb 0.00 in0.0 mm 0.00 in0.0 mm 0.00 in0.0 mm
12:21 PM 87.3°F30.7°C 64.6°F18.1°C 47% 4.0 mph N6.4 kmh N 6.5 mph10.5 kmh 29.77 in1008.1 mb 0.00 in0.0 mm 0.00 in0.0 mm 0.00 in0.0 mm
12:22 PM 87.6°F30.9°C 65.5°F18.6°C 48% 3.9 mph N6.3 kmh N 6.5 mph10.5 kmh 29.77 in1008.1 mb 0.00 in0.0 mm 0.00 in0.0 mm 0.00 in0.0 mm
12:23 PM 87.6°F30.9°C 65.5°F18.6°C 48% 4.0 mph N6.4 kmh N 6.5 mph10.5 kmh 29.77 in1008.1 mb 0.00 in0.0 mm 0.00 in0.0 mm 0.00 in0.0 mm
12:24 PM 88.5°F31.4°C 65.1°F18.4°C 46% 4.0 mph NNE6.4 kmh NNE 6.5 mph10.5 kmh 29.77 in1008.1 mb 0.00 in0.0 mm 0.00 in0.0 mm 0.00 in0.0 mm
12:25 PM 88.5°F31.4°C 65.1°F18.4°C 46% 3.6 mph NE5.8 kmh NE 6.5 mph10.5 kmh 29.77 in1008.1 mb 0.00 in0.0 mm 0.00 in0.0 mm 0.00 in0.0 mm
12:26 PM 88.7°F31.5°C 65.9°F18.8°C 47% 3.3 mph NE5.3 kmh NE 6.5 mph10.5 kmh 29.77 in1008.1 mb 0.00 in0.0 mm 0.00 in0.0 mm 0.00 in0.0 mm
12:27 PM 90.0°F32.2°C 65.1°F18.4°C 44% 3.3 mph NNE5.3 kmh NNE 6.3 mph10.1 kmh 29.77 in1008.1 mb 0.00 in0.0 mm 0.00 in0.0 mm 0.00 in0.0 mm
12:28 PM 90.0°F32.2°C 65.1°F18.4°C 44% 3.2 mph NNE5.1 kmh NNE 6.3 mph10.1 kmh 29.77 in1008.1 mb 0.00 in0.0 mm 0.00 in0.0 mm 0.00 in0.0 mm
12:29 PM 88.9°F31.6°C 64.1°F17.8°C 44% 3.5 mph NE5.6 kmh NE 6.3 mph10.1 kmh 29.77 in1008.1 mb 0.00 in0.0 mm 0.00 in0.0 mm 0.00 in0.0 mm
12:30 PM 88.9°F31.6°C 64.1°F17.8°C 44% 3.3 mph NE5.3 kmh NE 6.3 mph10.1 kmh 29.77 in1008.1 mb 0.00 in0.0 mm 0.00 in0.0 mm 0.00 in0.0 mm
12:31 PM 89.2°F31.8°C 65.1°F18.4°C 45% 3.1 mph NE5.0 kmh NE 5.4 mph8.7 kmh 29.77 in1008.1 mb 0.00 in0.0 mm 0.00 in0.0 mm 0.00 in0.0 mm
12:32 PM 89.2°F31.8°C 65.1°F18.4°C 45% 3.2 mph NE5.1 kmh NE 5.4 mph8.7 kmh 29.77 in1008.1 mb 0.00 in0.0 mm 0.00 in0.0 mm 0.00 in0.0 mm
12:33 PM 88.5°F31.4°C 64.5°F18.1°C 45% 3.5 mph NE5.6 kmh NE 5.4 mph8.7 kmh 29.77 in1008.1 mb 0.00 in0.0 mm 0.00 in0.0 mm 0.00 in0.0 mm
12:34 PM 88.2°F31.2°C 64.8°F18.2°C 46% 3.6 mph NNE5.8 kmh NNE 5.4 mph8.7 kmh 29.77 in1008.1 mb 0.00 in0.0 mm 0.00 in0.0 mm 0.00 in0.0 mm
12:35 PM 88.2°F31.2°C 64.8°F18.2°C 46% 3.6 mph NE5.8 kmh NE 5.4 mph8.7 kmh 29.77 in1008.1 mb 0.00 in0.0 mm 0.00 in0.0 mm 0.00 in0.0 mm
12:36 PM 88.0°F31.1°C 65.2°F18.4°C 47% 4.0 mph NE6.4 kmh NE 5.4 mph8.7 kmh 29.77 in1008.1 mb 0.00 in0.0 mm 0.00 in0.0 mm 0.00 in0.0 mm
12:37 PM 88.0°F31.1°C 65.2°F18.4°C 47% 3.9 mph NE6.3 kmh NE 5.4 mph8.7 kmh 29.77 in1008.1 mb 0.00 in0.0 mm 0.00 in0.0 mm 0.00 in0.0 mm
12:38 PM 89.2°F31.8°C 67.0°F19.4°C 48% 3.8 mph NE6.1 kmh NE 5.4 mph8.7 kmh 29.77 in1008.1 mb 0.00 in0.0 mm 0.00 in0.0 mm 0.00 in0.0 mm
12:39 PM 89.2°F31.8°C 67.0°F19.4°C 48% 3.7 mph NE6.0 kmh NE 5.6 mph9.0 kmh 29.77 in1008.1 mb 0.00 in0.0 mm 0.00 in0.0 mm 0.00 in0.0 mm
12:40 PM 89.8°F32.1°C 65.6°F18.7°C 45% 4.0 mph NE6.4 kmh NE 5.6 mph9.0 kmh 29.77 in1008.1 mb 0.00 in0.0 mm 0.00 in0.0 mm 0.00 in0.0 mm
12:41 PM 88.9°F31.6°C 65.4°F18.6°C 46% 3.9 mph NE6.3 kmh NE 5.6 mph9.0 kmh 29.77 in1008.1 mb 0.00 in0.0 mm 0.00 in0.0 mm 0.00 in0.0 mm
12:42 PM 88.9°F31.6°C 65.4°F18.6°C 46% 3.8 mph NNE6.1 kmh NNE 5.6 mph9.0 kmh 29.77 in1008.1 mb 0.00 in0.0 mm 0.00 in0.0 mm 0.00 in0.0 mm
12:43 PM 89.6°F32.0°C 66.1°F18.9°C 46% 3.7 mph NNE6.0 kmh NNE 5.6 mph9.0 kmh 29.77 in1008.1 mb 0.00 in0.0 mm 0.00 in0.0 mm 0.00 in0.0 mm
12:44 PM 89.6°F32.0°C 66.1°F18.9°C 46% 3.5 mph NNE5.6 kmh NNE 5.6 mph9.0 kmh 29.77 in1008.1 mb 0.00 in0.0 mm 0.00 in0.0 mm 0.00 in0.0 mm
12:45 PM 89.2°F31.8°C 65.8°F18.8°C 46% 3.3 mph NNE5.3 kmh NNE 5.6 mph9.0 kmh 29.77 in1008.1 mb 0.00 in0.0 mm 0.00 in0.0 mm 0.00 in0.0 mm
12:46 PM 89.2°F31.8°C 65.8°F18.8°C 46% 3.3 mph NNE5.3 kmh NNE 5.6 mph9.0 kmh 29.77 in1008.1 mb 0.00 in0.0 mm 0.00 in0.0 mm 0.00 in0.0 mm
12:47 PM 86.9°F30.5°C 63.6°F17.6°C 46% 4.0 mph NE6.4 kmh NE 8.7 mph14.0 kmh 29.77 in1008.1 mb 0.00 in0.0 mm 0.00 in0.0 mm 0.00 in0.0 mm
12:48 PM 86.9°F30.5°C 63.6°F17.6°C 46% 4.1 mph NE6.6 kmh NE 8.7 mph14.0 kmh 29.77 in1008.1 mb 0.00 in0.0 mm 0.00 in0.0 mm 0.00 in0.0 mm
12:49 PM 85.8°F29.9°C 64.5°F18.1°C 49% 4.3 mph NE6.9 kmh NE 8.7 mph14.0 kmh 29.77 in1008.1 mb 0.00 in0.0 mm 0.00 in0.0 mm 0.00 in0.0 mm
12:50 PM 87.1°F30.6°C 66.2°F19.0°C 50% 3.9 mph NE6.3 kmh NE 8.7 mph14.0 kmh 29.77 in1008.1 mb 0.00 in0.0 mm 0.00 in0.0 mm 0.00 in0.0 mm
12:51 PM 87.1°F30.6°C 66.2°F19.0°C 50% 3.8 mph NE6.1 kmh NE 8.7 mph14.0 kmh 29.77 in1008.1 mb 0.00 in0.0 mm 0.00 in0.0 mm 0.00 in0.0 mm
12:52 PM 88.7°F31.5°C 67.1°F19.5°C 49% 3.7 mph NE6.0 kmh NE 8.7 mph14.0 kmh 29.77 in1008.1 mb 0.00 in0.0 mm 0.00 in0.0 mm 0.00 in0.0 mm
12:53 PM 88.7°F31.5°C 67.1°F19.5°C 49% 3.9 mph ENE6.3 kmh ENE 8.7 mph14.0 kmh 29.77 in1008.1 mb 0.00 in0.0 mm 0.00 in0.0 mm 0.00 in0.0 mm
12:54 PM 88.2°F31.2°C 66.6°F19.2°C 49% 4.1 mph ENE6.6 kmh ENE 8.7 mph14.0 kmh 29.77 in1008.1 mb 0.00 in0.0 mm 0.00 in0.0 mm 0.00 in0.0 mm
12:55 PM 88.2°F31.2°C 66.6°F19.2°C 49% 4.2 mph E6.8 kmh E 8.7 mph14.0 kmh 29.77 in1008.1 mb 0.00 in0.0 mm 0.00 in0.0 mm 0.00 in0.0 mm
12:56 PM 88.5°F31.4°C 66.9°F19.4°C 49% 4.2 mph E6.8 kmh E 8.7 mph14.0 kmh 29.77 in1008.1 mb 0.00 in0.0 mm 0.00 in0.0 mm 0.00 in0.0 mm
12:57 PM 89.2°F31.8°C 67.0°F19.4°C 48% 3.4 mph E5.5 kmh E 7.8 mph12.6 kmh 29.77 in1008.1 mb 0.00 in0.0 mm 0.00 in0.0 mm 0.00 in0.0 mm
12:58 PM 89.2°F31.8°C 67.0°F19.4°C 48% 3.5 mph E5.6 kmh E 7.8 mph12.6 kmh 29.77 in1008.1 mb 0.00 in0.0 mm 0.00 in0.0 mm 0.00 in0.0 mm
12:59 PM 88.5°F31.4°C 66.3°F19.1°C 48% 3.2 mph ESE5.1 kmh ESE 6.0 mph9.7 kmh 29.77 in1008.1 mb 0.00 in0.0 mm 0.00 in0.0 mm 0.00 in0.0 mm
01:00 PM 88.5°F31.4°C 66.3°F19.1°C 48% 3.1 mph ESE5.0 kmh ESE 6.0 mph9.7 kmh 29.77 in1008.1 mb 0.00 in0.0 mm 0.00 in0.0 mm 0.00 in0.0 mm
01:01 PM 89.4°F31.9°C 67.1°F19.5°C 48% 3.0 mph SE4.8 kmh SE 6.0 mph9.7 kmh 29.77 in1008.1 mb 0.00 in0.0 mm 0.00 in0.0 mm 0.00 in0.0 mm
01:02 PM 89.4°F31.9°C 67.1°F19.5°C 48% 3.0 mph SE4.8 kmh SE 6.0 mph9.7 kmh 29.77 in1008.1 mb 0.00 in0.0 mm 0.00 in0.0 mm 0.00 in0.0 mm
01:03 PM 88.5°F31.4°C 66.3°F19.1°C 48% 3.1 mph SE5.0 kmh SE 6.0 mph9.7 kmh 29.77 in1008.1 mb 0.00 in0.0 mm 0.00 in0.0 mm 0.00 in0.0 mm
01:04 PM 87.3°F30.7°C 65.8°F18.8°C 49% 2.8 mph E4.5 kmh E 3.8 mph6.1 kmh 29.77 in1008.1 mb 0.00 in0.0 mm 0.00 in0.0 mm 0.00 in0.0 mm
01:05 PM 87.3°F30.7°C 65.8°F18.8°C 49% 3.0 mph E4.8 kmh E 5.6 mph9.0 kmh 29.77 in1008.1 mb 0.00 in0.0 mm 0.00 in0.0 mm 0.00 in0.0 mm
01:06 PM 88.3°F31.3°C 66.8°F19.3°C 49% 3.3 mph E5.3 kmh E 5.8 mph9.3 kmh 29.77 in1008.1 mb 0.00 in0.0 mm 0.00 in0.0 mm 0.00 in0.0 mm
01:07 PM 88.3°F31.3°C 66.8°F19.3°C 49% 3.1 mph E5.0 kmh E 5.8 mph9.3 kmh 29.77 in1008.1 mb 0.00 in0.0 mm 0.00 in0.0 mm 0.00 in0.0 mm
01:08 PM 89.4°F31.9°C 67.1°F19.5°C 48% 2.9 mph E4.7 kmh E 5.8 mph9.3 kmh 29.77 in1008.1 mb 0.00 in0.0 mm 0.00 in0.0 mm 0.00 in0.0 mm
01:09 PM 89.4°F31.9°C 67.1°F19.5°C 48% 2.8 mph E4.5 kmh E 5.8 mph9.3 kmh 29.77 in1008.1 mb 0.00 in0.0 mm 0.00 in0.0 mm 0.00 in0.0 mm
01:10 PM 88.3°F31.3°C 64.9°F18.3°C 46% 2.8 mph ENE4.5 kmh ENE 5.8 mph9.3 kmh 29.77 in1008.1 mb 0.00 in0.0 mm 0.00 in0.0 mm 0.00 in0.0 mm
01:11 PM 87.4°F30.8°C 64.7°F18.2°C 47% 3.2 mph ENE5.1 kmh ENE 5.8 mph9.3 kmh 29.77 in1008.1 mb 0.00 in0.0 mm 0.00 in0.0 mm 0.00 in0.0 mm
01:12 PM 87.4°F30.8°C 64.7°F18.2°C 47% 3.2 mph ENE5.1 kmh ENE 5.8 mph9.3 kmh 29.77 in1008.1 mb 0.00 in0.0 mm 0.00 in0.0 mm 0.00 in0.0 mm
01:13 PM 88.5°F31.4°C 66.3°F19.1°C 48% 3.3 mph NE5.3 kmh NE 5.8 mph9.3 kmh 29.77 in1008.1 mb 0.00 in0.0 mm 0.00 in0.0 mm 0.00 in0.0 mm
01:14 PM 88.5°F31.4°C 66.3°F19.1°C 48% 3.2 mph NE5.1 kmh NE 5.8 mph9.3 kmh 29.77 in1008.1 mb 0.00 in0.0 mm 0.00 in0.0 mm 0.00 in0.0 mm
01:15 PM 88.0°F31.1°C 65.2°F18.4°C 47% 3.5 mph NE5.6 kmh NE 5.8 mph9.3 kmh 29.77 in1008.1 mb 0.00 in0.0 mm 0.00 in0.0 mm 0.00 in0.0 mm
01:16 PM 88.0°F31.1°C 65.2°F18.4°C 47% 3.5 mph NE5.6 kmh NE 5.8 mph9.3 kmh 29.77 in1008.1 mb 0.00 in0.0 mm 0.00 in0.0 mm 0.00 in0.0 mm
01:17 PM 87.3°F30.7°C 65.2°F18.4°C 48% 3.3 mph NE5.3 kmh NE 5.8 mph9.3 kmh 29.77 in1008.1 mb 0.00 in0.0 mm 0.00 in0.0 mm 0.00 in0.0 mm
01:18 PM 87.3°F30.7°C 65.2°F18.4°C 48% 3.7 mph NE6.0 kmh NE 5.8 mph9.3 kmh 29.77 in1008.1 mb 0.00 in0.0 mm 0.00 in0.0 mm 0.00 in0.0 mm
01:19 PM 87.3°F30.7°C 65.8°F18.8°C 49% 3.8 mph NE6.1 kmh NE 5.8 mph9.3 kmh 29.77 in1008.1 mb 0.00 in0.0 mm 0.00 in0.0 mm 0.00 in0.0 mm
01:20 PM 87.3°F30.7°C 65.8°F18.8°C 49% 3.8 mph NE6.1 kmh NE 5.8 mph9.3 kmh 29.77 in1008.1 mb 0.00 in0.0 mm 0.00 in0.0 mm 0.00 in0.0 mm
01:21 PM 87.3°F30.7°C 65.8°F18.8°C 49% 4.1 mph NE6.6 kmh NE 7.2 mph11.6 kmh 29.77 in1008.1 mb 0.00 in0.0 mm 0.00 in0.0 mm 0.00 in0.0 mm
01:22 PM 86.5°F30.3°C 65.7°F18.7°C 50% 4.3 mph NE6.9 kmh NE 7.2 mph11.6 kmh 29.77 in1008.1 mb 0.00 in0.0 mm 0.00 in0.0 mm 0.00 in0.0 mm
01:23 PM 86.5°F30.3°C 65.7°F18.7°C 50% 4.3 mph NE6.9 kmh NE 7.2 mph11.6 kmh 29.77 in1008.1 mb 0.00 in0.0 mm 0.00 in0.0 mm 0.00 in0.0 mm
01:24 PM 87.3°F30.7°C 66.4°F19.1°C 50% 4.4 mph NE7.1 kmh NE 7.2 mph11.6 kmh 29.77 in1008.1 mb 0.00 in0.0 mm 0.00 in0.0 mm 0.00 in0.0 mm
01:25 PM 87.3°F30.7°C 66.4°F19.1°C 50% 4.2 mph NE6.8 kmh NE 7.2 mph11.6 kmh 29.77 in1008.1 mb 0.00 in0.0 mm 0.00 in0.0 mm 0.00 in0.0 mm
01:26 PM 87.1°F30.6°C 66.2°F19.0°C 50% 4.2 mph NE6.8 kmh NE 7.2 mph11.6 kmh 29.77 in1008.1 mb 0.00 in0.0 mm 0.00 in0.0 mm 0.00 in0.0 mm
01:27 PM 87.8°F31.0°C 66.3°F19.1°C 49% 4.1 mph ENE6.6 kmh ENE 7.2 mph11.6 kmh 29.77 in1008.1 mb 0.00 in0.0 mm 0.00 in0.0 mm 0.00 in0.0 mm
01:28 PM 87.8°F31.0°C 66.3°F19.1°C 49% 4.1 mph NE6.6 kmh NE 7.2 mph11.6 kmh 29.77 in1008.1 mb 0.00 in0.0 mm 0.00 in0.0 mm 0.00 in0.0 mm
01:29 PM 87.6°F30.9°C 66.7°F19.3°C 50% 4.4 mph NE7.1 kmh NE 7.2 mph11.6 kmh 29.77 in1008.1 mb 0.00 in0.0 mm 0.00 in0.0 mm 0.00 in0.0 mm
01:30 PM 87.6°F30.9°C 66.7°F19.3°C 50% 4.2 mph NE6.8 kmh NE 7.2 mph11.6 kmh 29.77 in1008.1 mb 0.00 in0.0 mm 0.00 in0.0 mm 0.00 in0.0 mm
01:31 PM 86.7°F30.4°C 66.4°F19.1°C 51% 4.4 mph NE7.1 kmh NE 7.2 mph11.6 kmh 29.77 in1008.1 mb 0.00 in0.0 mm 0.00 in0.0 mm 0.00 in0.0 mm
01:32 PM 86.7°F30.4°C 66.4°F19.1°C 51% 4.3 mph ENE6.9 kmh ENE 6.5 mph10.5 kmh 29.77 in1008.1 mb 0.00 in0.0 mm 0.00 in0.0 mm 0.00 in0.0 mm
01:33 PM 86.2°F30.1°C 65.9°F18.8°C 51% 4.4 mph ENE7.1 kmh ENE 6.5 mph10.5 kmh 29.77 in1008.1 mb 0.00 in0.0 mm 0.00 in0.0 mm 0.00 in0.0 mm
01:34 PM 86.0°F30.0°C 66.3°F19.1°C 52% 4.8 mph NE7.7 kmh NE 7.6 mph12.2 kmh 29.77 in1008.1 mb 0.00 in0.0 mm 0.00 in0.0 mm 0.00 in0.0 mm
01:35 PM 87.1°F30.6°C 67.3°F19.6°C 52% 4.6 mph NE7.4 kmh NE 7.6 mph12.2 kmh 29.77 in1008.1 mb 0.00 in0.0 mm 0.00 in0.0 mm 0.00 in0.0 mm
01:36 PM 87.1°F30.6°C 67.3°F19.6°C 52% 4.4 mph NE7.1 kmh NE 7.6 mph12.2 kmh 29.77 in1008.1 mb 0.00 in0.0 mm 0.00 in0.0 mm 0.00 in0.0 mm
01:37 PM 86.9°F30.5°C 66.6°F19.2°C 51% 4.2 mph NE6.8 kmh NE 7.6 mph12.2 kmh 29.77 in1008.1 mb 0.00 in0.0 mm 0.00 in0.0 mm 0.00 in0.0 mm
01:38 PM 86.9°F30.5°C 66.6°F19.2°C 51% 4.1 mph NE6.6 kmh NE 7.6 mph12.2 kmh 29.77 in1008.1 mb 0.00 in0.0 mm 0.00 in0.0 mm 0.00 in0.0 mm
01:39 PM 87.1°F30.6°C 67.3°F19.6°C 52% 4.1 mph NE6.6 kmh NE 7.6 mph12.2 kmh 29.77 in1008.1 mb 0.00 in0.0 mm 0.00 in0.0 mm 0.00 in0.0 mm
01:40 PM 87.1°F30.6°C 67.3°F19.6°C 52% 4.3 mph NE6.9 kmh NE 7.6 mph12.2 kmh 29.77 in1008.1 mb 0.00 in0.0 mm 0.00 in0.0 mm 0.00 in0.0 mm
01:41 PM 87.1°F30.6°C 66.8°F19.3°C 51% 4.2 mph NE6.8 kmh NE 7.6 mph12.2 kmh 29.77 in1008.1 mb 0.00 in0.0 mm 0.00 in0.0 mm 0.00 in0.0 mm
01:42 PM 87.6°F30.9°C 68.4°F20.2°C 53% 4.0 mph NE6.4 kmh NE 7.6 mph12.2 kmh 29.77 in1008.1 mb 0.00 in0.0 mm 0.00 in0.0 mm 0.00 in0.0 mm
01:43 PM 87.6°F30.9°C 68.4°F20.2°C 53% 3.8 mph NE6.1 kmh NE 7.6 mph12.2 kmh 29.77 in1008.1 mb 0.00 in0.0 mm 0.00 in0.0 mm 0.00 in0.0 mm
01:44 PM 87.8°F31.0°C 66.8°F19.3°C 50% 3.4 mph NE5.5 kmh NE 6.3 mph10.1 kmh 29.77 in1008.1 mb 0.00 in0.0 mm 0.00 in0.0 mm 0.00 in0.0 mm
01:45 PM 87.8°F31.0°C 66.8°F19.3°C 50% 3.3 mph NE5.3 kmh NE 6.3 mph10.1 kmh 29.77 in1008.1 mb 0.00 in0.0 mm 0.00 in0.0 mm 0.00 in0.0 mm
01:46 PM 87.1°F30.6°C 65.6°F18.7°C 49% 3.5 mph NE5.6 kmh NE 6.3 mph10.1 kmh 29.77 in1008.1 mb 0.00 in0.0 mm 0.00 in0.0 mm 0.00 in0.0 mm
01:47 PM 87.1°F30.6°C 65.6°F18.7°C 49% 3.7 mph NE6.0 kmh NE 6.3 mph10.1 kmh 29.77 in1008.1 mb 0.00 in0.0 mm 0.00 in0.0 mm 0.00 in0.0 mm
01:48 PM 86.4°F30.2°C 66.1°F18.9°C 51% 4.1 mph NE6.6 kmh NE 6.3 mph10.1 kmh 29.77 in1008.1 mb 0.00 in0.0 mm 0.00 in0.0 mm 0.00 in0.0 mm
01:49 PM 86.4°F30.2°C 66.1°F18.9°C 51% 3.9 mph NE6.3 kmh NE 6.3 mph10.1 kmh 29.77 in1008.1 mb 0.00 in0.0 mm 0.00 in0.0 mm 0.00 in0.0 mm
01:50 PM 87.3°F30.7°C 66.4°F19.1°C 50% 3.7 mph NNE6.0 kmh NNE 6.3 mph10.1 kmh 29.77 in1008.1 mb 0.00 in0.0 mm 0.00 in0.0 mm 0.00 in0.0 mm
01:51 PM 88.2°F31.2°C 67.2°F19.6°C 50% 3.1 mph NNE5.0 kmh NNE 5.6 mph9.0 kmh 29.77 in1008.1 mb 0.00 in0.0 mm 0.00 in0.0 mm 0.00 in0.0 mm
01:52 PM 88.2°F31.2°C 67.2°F19.6°C 50% 3.5 mph NNE5.6 kmh NNE 8.7 mph14.0 kmh 29.77 in1008.1 mb 0.00 in0.0 mm 0.00 in0.0 mm 0.00 in0.0 mm
01:53 PM 88.2°F31.2°C 67.2°F19.6°C 50% 3.2 mph NNE5.1 kmh NNE 8.7 mph14.0 kmh 29.77 in1008.1 mb 0.00 in0.0 mm 0.00 in0.0 mm 0.00 in0.0 mm
01:54 PM 88.2°F31.2°C 67.2°F19.6°C 50% 3.2 mph NNE5.1 kmh NNE 8.7 mph14.0 kmh 29.77 in1008.1 mb 0.00 in0.0 mm 0.00 in0.0 mm 0.00 in0.0 mm
01:55 PM 87.6°F30.9°C 66.7°F19.3°C 50% 3.3 mph NNE5.3 kmh NNE 8.7 mph14.0 kmh 29.77 in1008.1 mb 0.00 in0.0 mm 0.00 in0.0 mm 0.00 in0.0 mm
01:56 PM 87.6°F30.9°C 66.7°F19.3°C 50% 3.3 mph NE5.3 kmh NE 8.7 mph14.0 kmh 29.77 in1008.1 mb 0.00 in0.0 mm 0.00 in0.0 mm 0.00 in0.0 mm
01:57 PM 87.8°F31.0°C 67.4°F19.7°C 51% 3.1 mph NE5.0 kmh NE 8.7 mph14.0 kmh 29.77 in1008.1 mb 0.00 in0.0 mm 0.00 in0.0 mm 0.00 in0.0 mm
01:58 PM 88.0°F31.1°C 67.0°F19.4°C 50% 3.0 mph NE4.8 kmh NE 8.7 mph14.0 kmh 29.77 in1008.1 mb 0.00 in0.0 mm 0.00 in0.0 mm 0.00 in0.0 mm
01:59 PM 88.0°F31.1°C 67.0°F19.4°C 50% 3.2 mph NE5.1 kmh NE 8.7 mph14.0 kmh 29.77 in1008.1 mb 0.00 in0.0 mm 0.00 in0.0 mm 0.00 in0.0 mm
02:00 PM 87.1°F30.6°C 66.8°F19.3°C 51% 3.2 mph NE5.1 kmh NE 8.7 mph14.0 kmh 29.77 in1008.1 mb 0.00 in0.0 mm 0.00 in0.0 mm 0.00 in0.0 mm
02:01 PM 87.1°F30.6°C 66.8°F19.3°C 51% 3.3 mph NE5.3 kmh NE 8.7 mph14.0 kmh 29.77 in1008.1 mb 0.00 in0.0 mm 0.00 in0.0 mm 0.00 in0.0 mm
02:02 PM 87.1°F30.6°C 66.8°F19.3°C 51% 3.5 mph NE5.6 kmh NE 8.7 mph14.0 kmh 29.77 in1008.1 mb 0.00 in0.0 mm 0.00 in0.0 mm 0.00 in0.0 mm
02:03 PM 87.1°F30.6°C 66.8°F19.3°C 51% 3.5 mph NNE5.6 kmh NNE 6.7 mph10.8 kmh 29.77 in1008.1 mb 0.00 in0.0 mm 0.00 in0.0 mm 0.00 in0.0 mm
02:04 PM 88.5°F31.4°C 67.5°F19.7°C 50% 3.7 mph NNE6.0 kmh NNE 6.7 mph10.8 kmh 29.77 in1008.1 mb 0.00 in0.0 mm 0.00 in0.0 mm 0.00 in0.0 mm
02:05 PM 89.2°F31.8°C 68.7°F20.4°C 51% 3.6 mph NE5.8 kmh NE 6.7 mph10.8 kmh 29.77 in1008.1 mb 0.00 in0.0 mm 0.00 in0.0 mm 0.00 in0.0 mm
02:06 PM 89.2°F31.8°C 68.7°F20.4°C 51% 3.5 mph NE5.6 kmh NE 6.7 mph10.8 kmh 29.77 in1008.1 mb 0.00 in0.0 mm 0.00 in0.0 mm 0.00 in0.0 mm
02:07 PM 89.4°F31.9°C 68.3°F20.2°C 50% 3.6 mph NE5.8 kmh NE 6.7 mph10.8 kmh 29.77 in1008.1 mb 0.00 in0.0 mm 0.00 in0.0 mm 0.00 in0.0 mm
02:08 PM 89.2°F31.8°C 68.2°F20.1°C 50% 3.6 mph NNE5.8 kmh NNE 6.7 mph10.8 kmh 29.77 in1008.1 mb 0.00 in0.0 mm 0.00 in0.0 mm 0.00 in0.0 mm
02:09 PM 89.2°F31.8°C 68.2°F20.1°C 50% 3.4 mph NNE5.5 kmh NNE 6.7 mph10.8 kmh 29.77 in1008.1 mb 0.00 in0.0 mm 0.00 in0.0 mm 0.00 in0.0 mm
02:10 PM 88.0°F31.1°C 66.4°F19.1°C 49% 3.6 mph NE5.8 kmh NE 6.7 mph10.8 kmh 29.77 in1008.1 mb 0.00 in0.0 mm 0.00 in0.0 mm 0.00 in0.0 mm
02:11 PM 88.0°F31.1°C 66.4°F19.1°C 49% 3.7 mph NE6.0 kmh NE 6.7 mph10.8 kmh 29.77 in1008.1 mb 0.00 in0.0 mm 0.00 in0.0 mm 0.00 in0.0 mm
02:12 PM 88.5°F31.4°C 68.1°F20.1°C 51% 3.8 mph NE6.1 kmh NE 6.7 mph10.8 kmh 29.77 in1008.1 mb 0.00 in0.0 mm 0.00 in0.0 mm 0.00 in0.0 mm
02:13 PM 88.5°F31.4°C 66.9°F19.4°C 49% 3.7 mph NE6.0 kmh NE 6.7 mph10.8 kmh 29.77 in1008.1 mb 0.00 in0.0 mm 0.00 in0.0 mm 0.00 in0.0 mm
02:14 PM 88.5°F31.4°C 66.9°F19.4°C 49% 3.3 mph ENE5.3 kmh ENE 6.0 mph9.7 kmh 29.77 in1008.1 mb 0.00 in0.0 mm 0.00 in0.0 mm 0.00 in0.0 mm
02:15 PM 87.6°F30.9°C 66.7°F19.3°C 50% 3.3 mph NE5.3 kmh NE 6.0 mph9.7 kmh 29.77 in1008.1 mb 0.00 in0.0 mm 0.00 in0.0 mm 0.00 in0.0 mm
02:16 PM 87.6°F30.9°C 66.7°F19.3°C 50% 3.4 mph NE5.5 kmh NE 6.0 mph9.7 kmh 29.77 in1008.1 mb 0.00 in0.0 mm 0.00 in0.0 mm 0.00 in0.0 mm
02:17 PM 87.1°F30.6°C 66.2°F19.0°C 50% 4.2 mph NE6.8 kmh NE 10.3 mph16.6 kmh 29.77 in1008.1 mb 0.00 in0.0 mm 0.00 in0.0 mm 0.00 in0.0 mm
02:18 PM 87.1°F30.6°C 66.2°F19.0°C 50% 4.2 mph NE6.8 kmh NE 10.3 mph16.6 kmh 29.77 in1008.1 mb 0.00 in0.0 mm 0.00 in0.0 mm 0.00 in0.0 mm
02:19 PM 88.0°F31.1°C 67.6°F19.8°C 51% 4.1 mph NE6.6 kmh NE 10.3 mph16.6 kmh 29.77 in1008.1 mb 0.00 in0.0 mm 0.00 in0.0 mm 0.00 in0.0 mm
02:20 PM 88.7°F31.5°C 67.1°F19.5°C 49% 4.3 mph NE6.9 kmh NE 10.3 mph16.6 kmh 29.77 in1008.1 mb 0.00 in0.0 mm 0.00 in0.0 mm 0.00 in0.0 mm
02:21 PM 88.7°F31.5°C 67.1°F19.5°C 49% 4.3 mph NE6.9 kmh NE 10.3 mph16.6 kmh 29.77 in1008.1 mb 0.00 in0.0 mm 0.00 in0.0 mm 0.00 in0.0 mm
02:22 PM 87.6°F30.9°C 66.7°F19.3°C 50% 4.4 mph NE7.1 kmh NE 10.3 mph16.6 kmh 29.77 in1008.1 mb 0.00 in0.0 mm 0.00 in0.0 mm 0.00 in0.0 mm
02:23 PM 87.6°F30.9°C 66.7°F19.3°C 50% 4.6 mph NE7.4 kmh NE 10.3 mph16.6 kmh 29.77 in1008.1 mb 0.00 in0.0 mm 0.00 in0.0 mm 0.00 in0.0 mm
02:24 PM 88.5°F31.4°C 67.5°F19.7°C 50% 4.7 mph NE7.6 kmh NE 10.3 mph16.6 kmh 29.77 in1008.1 mb 0.00 in0.0 mm 0.00 in0.0 mm 0.00 in0.0 mm
02:28 PM 90.3°F32.4°C 68.0°F20.0°C 48% 3.2 mph NE5.1 kmh NE 5.8 mph9.3 kmh 29.77 in1008.1 mb 0.00 in0.0 mm 0.00 in0.0 mm 0.00 in0.0 mm
02:29 PM 89.8°F32.1°C 68.1°F20.1°C 49% 3.1 mph NE5.0 kmh NE 5.8 mph9.3 kmh 29.77 in1008.1 mb 0.00 in0.0 mm 0.00 in0.0 mm 0.00 in0.0 mm
02:30 PM 89.8°F32.1°C 68.1°F20.1°C 49% 3.3 mph NE5.3 kmh NE 5.8 mph9.3 kmh 29.77 in1008.1 mb 0.00 in0.0 mm 0.00 in0.0 mm 0.00 in0.0 mm
02:31 PM 89.8°F32.1°C 68.1°F20.1°C 49% 2.8 mph NE4.5 kmh NE 5.4 mph8.7 kmh 29.77 in1008.1 mb 0.00 in0.0 mm 0.00 in0.0 mm 0.00 in0.0 mm
02:32 PM 89.8°F32.1°C 68.1°F20.1°C 49% 2.5 mph ENE4.0 kmh ENE 5.4 mph8.7 kmh 29.77 in1008.1 mb 0.00 in0.0 mm 0.00 in0.0 mm 0.00 in0.0 mm
02:33 PM 90.1°F32.3°C 68.4°F20.2°C 49% 2.4 mph ENE3.9 kmh ENE 5.4 mph8.7 kmh 29.77 in1008.1 mb 0.00 in0.0 mm 0.00 in0.0 mm 0.00 in0.0 mm
02:34 PM 90.1°F32.3°C 68.4°F20.2°C 49% 2.3 mph ENE3.7 kmh ENE 5.4 mph8.7 kmh 29.77 in1008.1 mb 0.00 in0.0 mm 0.00 in0.0 mm 0.00 in0.0 mm
02:35 PM 89.4°F31.9°C 67.7°F19.8°C 49% 2.7 mph ENE4.3 kmh ENE 5.4 mph8.7 kmh 29.77 in1008.1 mb 0.00 in0.0 mm 0.00 in0.0 mm 0.00 in0.0 mm
02:36 PM 89.2°F31.8°C 67.6°F19.8°C 49% 2.8 mph ENE4.5 kmh ENE 5.4 mph8.7 kmh 29.77 in1008.1 mb 0.00 in0.0 mm 0.00 in0.0 mm 0.00 in0.0 mm
02:37 PM 89.2°F31.8°C 67.6°F19.8°C 49% 3.3 mph E5.3 kmh E 10.1 mph16.3 kmh 29.77 in1008.1 mb 0.00 in0.0 mm 0.00 in0.0 mm 0.00 in0.0 mm
02:38 PM 88.0°F31.1°C 67.0°F19.4°C 50% 3.3 mph E5.3 kmh E 10.1 mph16.3 kmh 29.77 in1008.1 mb 0.00 in0.0 mm 0.00 in0.0 mm 0.00 in0.0 mm
02:39 PM 88.0°F31.1°C 67.0°F19.4°C 50% 3.5 mph E5.6 kmh E 10.1 mph16.3 kmh 29.77 in1008.1 mb 0.00 in0.0 mm 0.00 in0.0 mm 0.00 in0.0 mm
02:40 PM 89.1°F31.7°C 68.0°F20.0°C 50% 3.5 mph E5.6 kmh E 10.1 mph16.3 kmh 29.77 in1008.1 mb 0.00 in0.0 mm 0.00 in0.0 mm 0.00 in0.0 mm
02:41 PM 89.1°F31.7°C 68.0°F20.0°C 50% 3.5 mph E5.6 kmh E 10.1 mph16.3 kmh 29.77 in1008.1 mb 0.00 in0.0 mm 0.00 in0.0 mm 0.00 in0.0 mm
02:42 PM 89.8°F32.1°C 68.1°F20.1°C 49% 3.6 mph ESE5.8 kmh ESE 10.1 mph16.3 kmh 29.77 in1008.1 mb 0.00 in0.0 mm 0.00 in0.0 mm 0.00 in0.0 mm
02:43 PM 89.4°F31.9°C 67.1°F19.5°C 48% 3.6 mph ESE5.8 kmh ESE 10.1 mph16.3 kmh 29.77 in1008.1 mb 0.00 in0.0 mm 0.00 in0.0 mm 0.00 in0.0 mm
02:44 PM 90.0°F32.2°C 67.6°F19.8°C 48% 3.3 mph ESE5.3 kmh ESE 10.1 mph16.3 kmh 29.77 in1008.1 mb 0.00 in0.0 mm 0.00 in0.0 mm 0.00 in0.0 mm
02:45 PM 90.0°F32.2°C 67.6°F19.8°C 48% 3.2 mph ESE5.1 kmh ESE 10.1 mph16.3 kmh 29.77 in1008.1 mb 0.00 in0.0 mm 0.00 in0.0 mm 0.00 in0.0 mm
02:46 PM 89.1°F31.7°C 67.4°F19.7°C 49% 3.6 mph ESE5.8 kmh ESE 10.1 mph16.3 kmh 29.77 in1008.1 mb 0.00 in0.0 mm 0.00 in0.0 mm 0.00 in0.0 mm
02:47 PM 89.1°F31.7°C 67.4°F19.7°C 49% 3.2 mph E5.1 kmh E 8.7 mph14.0 kmh 29.77 in1008.1 mb 0.00 in0.0 mm 0.00 in0.0 mm 0.00 in0.0 mm
02:48 PM 87.6°F30.9°C 66.7°F19.3°C 50% 3.4 mph E5.5 kmh E 8.7 mph14.0 kmh 29.77 in1008.1 mb 0.00 in0.0 mm 0.00 in0.0 mm 0.00 in0.0 mm
02:49 PM 87.6°F30.9°C 66.7°F19.3°C 50% 3.8 mph E6.1 kmh E 10.1 mph16.3 kmh 29.77 in1008.1 mb 0.00 in0.0 mm 0.00 in0.0 mm 0.00 in0.0 mm
02:50 PM 87.3°F30.7°C 66.9°F19.4°C 51% 4.1 mph E6.6 kmh E 10.1 mph16.3 kmh 29.77 in1008.1 mb 0.00 in0.0 mm 0.00 in0.0 mm 0.00 in0.0 mm
02:51 PM 87.1°F30.6°C 66.8°F19.3°C 51% 4.4 mph E7.1 kmh E 10.1 mph16.3 kmh 29.77 in1008.1 mb 0.00 in0.0 mm 0.00 in0.0 mm 0.00 in0.0 mm
02:52 PM 87.1°F30.6°C 66.8°F19.3°C 51% 4.7 mph E7.6 kmh E 10.1 mph16.3 kmh 29.77 in1008.1 mb 0.00 in0.0 mm 0.00 in0.0 mm 0.00 in0.0 mm
02:53 PM 86.9°F30.5°C 66.6°F19.2°C 51% 4.6 mph ENE7.4 kmh ENE 10.1 mph16.3 kmh 29.77 in1008.1 mb 0.00 in0.0 mm 0.00 in0.0 mm 0.00 in0.0 mm
02:54 PM 86.9°F30.5°C 66.6°F19.2°C 51% 4.8 mph ENE7.7 kmh ENE 10.1 mph16.3 kmh 29.77 in1008.1 mb 0.00 in0.0 mm 0.00 in0.0 mm 0.00 in0.0 mm
02:55 PM 86.7°F30.4°C 67.0°F19.4°C 52% 5.3 mph ENE8.5 kmh ENE 10.1 mph16.3 kmh 29.77 in1008.1 mb 0.00 in0.0 mm 0.00 in0.0 mm 0.00 in0.0 mm
02:56 PM 86.7°F30.4°C 67.0°F19.4°C 52% 5.5 mph NE8.9 kmh NE 10.1 mph16.3 kmh 29.77 in1008.1 mb 0.00 in0.0 mm 0.00 in0.0 mm 0.00 in0.0 mm
02:57 PM 86.9°F30.5°C 67.2°F19.6°C 52% 5.5 mph NE8.9 kmh NE 10.1 mph16.3 kmh 29.77 in1008.1 mb 0.00 in0.0 mm 0.00 in0.0 mm 0.00 in0.0 mm
02:58 PM 88.0°F31.1°C 67.6°F19.8°C 51% 5.5 mph NE8.9 kmh NE 10.1 mph16.3 kmh 29.77 in1008.1 mb 0.00 in0.0 mm 0.00 in0.0 mm 0.00 in0.0 mm
02:59 PM 88.0°F31.1°C 67.6°F19.8°C 51% 5.2 mph NE8.4 kmh NE 10.1 mph16.3 kmh 29.77 in1008.1 mb 0.00 in0.0 mm 0.00 in0.0 mm 0.00 in0.0 mm
03:00 PM 88.2°F31.2°C 68.3°F20.2°C 52% 4.9 mph NE7.9 kmh NE 7.8 mph12.6 kmh 29.77 in1008.1 mb 0.00 in0.0 mm 0.00 in0.0 mm 0.00 in0.0 mm
03:01 PM 88.2°F31.2°C 68.3°F20.2°C 52% 4.4 mph NE7.1 kmh NE 7.8 mph12.6 kmh 29.77 in1008.1 mb 0.00 in0.0 mm 0.00 in0.0 mm 0.00 in0.0 mm
03:02 PM 89.2°F31.8°C 68.7°F20.4°C 51% 4.0 mph NE6.4 kmh NE 7.8 mph12.6 kmh 29.77 in1008.1 mb 0.00 in0.0 mm 0.00 in0.0 mm 0.00 in0.0 mm
03:03 PM 89.2°F31.8°C 68.7°F20.4°C 51% 4.4 mph NE7.1 kmh NE 7.8 mph12.6 kmh 29.77 in1008.1 mb 0.00 in0.0 mm 0.00 in0.0 mm 0.00 in0.0 mm
03:04 PM 87.4°F30.8°C 67.7°F19.8°C 52% 4.6 mph NE7.4 kmh NE 7.8 mph12.6 kmh 29.77 in1008.1 mb 0.00 in0.0 mm 0.00 in0.0 mm 0.00 in0.0 mm
03:05 PM 87.6°F30.9°C 67.3°F19.6°C 51% 4.0 mph NE6.4 kmh NE 7.8 mph12.6 kmh 29.77 in1008.1 mb 0.00 in0.0 mm 0.00 in0.0 mm 0.00 in0.0 mm
03:06 PM 87.6°F30.9°C 67.3°F19.6°C 51% 3.9 mph NE6.3 kmh NE 7.8 mph12.6 kmh 29.77 in1008.1 mb 0.00 in0.0 mm 0.00 in0.0 mm 0.00 in0.0 mm
03:07 PM 87.4°F30.8°C 67.1°F19.5°C 51% 4.4 mph NE7.1 kmh NE 9.8 mph15.8 kmh 29.77 in1008.1 mb 0.00 in0.0 mm 0.00 in0.0 mm 0.00 in0.0 mm
03:08 PM 87.4°F30.8°C 67.1°F19.5°C 51% 4.3 mph NE6.9 kmh NE 9.8 mph15.8 kmh 29.77 in1008.1 mb 0.00 in0.0 mm 0.00 in0.0 mm 0.00 in0.0 mm
03:09 PM 87.3°F30.7°C 66.9°F19.4°C 51% 4.0 mph NE6.4 kmh NE 9.8 mph15.8 kmh 29.77 in1008.1 mb 0.00 in0.0 mm 0.00 in0.0 mm 0.00 in0.0 mm
03:10 PM 87.3°F30.7°C 66.9°F19.4°C 51% 3.8 mph NE6.1 kmh NE 9.8 mph15.8 kmh 29.77 in1008.1 mb 0.00 in0.0 mm 0.00 in0.0 mm 0.00 in0.0 mm
03:11 PM 88.2°F31.2°C 67.8°F19.9°C 51% 3.7 mph NE6.0 kmh NE 9.8 mph15.8 kmh 29.77 in1008.1 mb 0.00 in0.0 mm 0.00 in0.0 mm 0.00 in0.0 mm
03:12 PM 88.2°F31.2°C 67.8°F19.9°C 51% 3.9 mph NE6.3 kmh NE 9.8 mph15.8 kmh 29.77 in1008.1 mb 0.00 in0.0 mm 0.00 in0.0 mm 0.00 in0.0 mm
03:13 PM 87.6°F30.9°C 67.8°F19.9°C 52% 4.3 mph NE6.9 kmh NE 9.8 mph15.8 kmh 29.77 in1008.1 mb 0.00 in0.0 mm 0.00 in0.0 mm 0.00 in0.0 mm
03:14 PM 86.2°F30.1°C 67.0°F19.4°C 53% 4.4 mph NE7.1 kmh NE 9.8 mph15.8 kmh 29.77 in1008.1 mb 0.00 in0.0 mm 0.00 in0.0 mm 0.00 in0.0 mm
03:15 PM 86.2°F30.1°C 67.0°F19.4°C 53% 4.4 mph NE7.1 kmh NE 9.8 mph15.8 kmh 29.77 in1008.1 mb 0.00 in0.0 mm 0.00 in0.0 mm 0.00 in0.0 mm
03:16 PM 87.1°F30.6°C 67.9°F19.9°C 53% 4.3 mph NE6.9 kmh NE 9.8 mph15.8 kmh 29.77 in1008.1 mb 0.00 in0.0 mm 0.00 in0.0 mm 0.00 in0.0 mm
03:17 PM 87.1°F30.6°C 67.3°F19.6°C 52% 3.9 mph NE6.3 kmh NE 9.8 mph15.8 kmh 29.77 in1008.1 mb 0.00 in0.0 mm 0.00 in0.0 mm 0.00 in0.0 mm
03:18 PM 87.1°F30.6°C 67.3°F19.6°C 52% 3.6 mph NE5.8 kmh NE 7.2 mph11.6 kmh 29.77 in1008.1 mb 0.00 in0.0 mm 0.00 in0.0 mm 0.00 in0.0 mm
03:19 PM 87.3°F30.7°C 68.0°F20.0°C 53% 4.0 mph NE6.4 kmh NE 7.2 mph11.6 kmh 29.77 in1008.1 mb 0.00 in0.0 mm 0.00 in0.0 mm 0.00 in0.0 mm
03:20 PM 87.3°F30.7°C 68.0°F20.0°C 53% 4.5 mph NE7.2 kmh NE 7.2 mph11.6 kmh 29.77 in1008.1 mb 0.00 in0.0 mm 0.00 in0.0 mm 0.00 in0.0 mm
03:21 PM 86.0°F30.0°C 66.9°F19.4°C 53% 4.8 mph NE7.7 kmh NE 7.2 mph11.6 kmh 29.77 in1008.1 mb 0.00 in0.0 mm 0.00 in0.0 mm 0.00 in0.0 mm
03:22 PM 86.7°F30.4°C 68.1°F20.1°C 54% 4.8 mph NNE7.7 kmh NNE 7.2 mph11.6 kmh 29.77 in1008.1 mb 0.00 in0.0 mm 0.00 in0.0 mm 0.00 in0.0 mm
03:23 PM 86.7°F30.4°C 68.1°F20.1°C 54% 4.7 mph NNE7.6 kmh NNE 7.2 mph11.6 kmh 29.77 in1008.1 mb 0.00 in0.0 mm 0.00 in0.0 mm 0.00 in0.0 mm
03:24 PM 87.3°F30.7°C 68.6°F20.3°C 54% 4.4 mph NE7.1 kmh NE 7.2 mph11.6 kmh 29.77 in1008.1 mb 0.00 in0.0 mm 0.00 in0.0 mm 0.00 in0.0 mm
03:25 PM 87.3°F30.7°C 68.6°F20.3°C 54% 4.3 mph NE6.9 kmh NE 6.9 mph11.1 kmh 29.77 in1008.1 mb 0.00 in0.0 mm 0.00 in0.0 mm 0.00 in0.0 mm
03:26 PM 87.8°F31.0°C 68.0°F20.0°C 52% 4.3 mph NE6.9 kmh NE 6.9 mph11.1 kmh 29.77 in1008.1 mb 0.00 in0.0 mm 0.00 in0.0 mm 0.00 in0.0 mm
03:27 PM 87.8°F31.0°C 68.0°F20.0°C 52% 4.7 mph NE7.6 kmh NE 6.9 mph11.1 kmh 29.77 in1008.1 mb 0.00 in0.0 mm 0.00 in0.0 mm 0.00 in0.0 mm
03:28 PM 87.6°F30.9°C 68.4°F20.2°C 53% 4.7 mph NE7.6 kmh NE 6.9 mph11.1 kmh 29.77 in1008.1 mb 0.00 in0.0 mm 0.00 in0.0 mm 0.00 in0.0 mm
03:29 PM 88.2°F31.2°C 68.3°F20.2°C 52% 4.5 mph NE7.2 kmh NE 6.9 mph11.1 kmh 29.77 in1008.1 mb 0.00 in0.0 mm 0.00 in0.0 mm 0.00 in0.0 mm
03:30 PM 88.2°F31.2°C 68.3°F20.2°C 52% 4.2 mph NE6.8 kmh NE 6.9 mph11.1 kmh 29.77 in1008.1 mb 0.00 in0.0 mm 0.00 in0.0 mm 0.00 in0.0 mm
03:31 PM 87.1°F30.6°C 66.8°F19.3°C 51% 3.7 mph NE6.0 kmh NE 5.8 mph9.3 kmh 29.77 in1008.1 mb 0.00 in0.0 mm 0.00 in0.0 mm 0.00 in0.0 mm
03:32 PM 87.1°F30.6°C 66.8°F19.3°C 51% 3.7 mph NE6.0 kmh NE 5.8 mph9.3 kmh 29.77 in1008.1 mb 0.00 in0.0 mm 0.00 in0.0 mm 0.00 in0.0 mm
03:33 PM 88.3°F31.3°C 68.5°F20.3°C 52% 3.6 mph NE5.8 kmh NE 5.8 mph9.3 kmh 29.77 in1008.1 mb 0.00 in0.0 mm 0.00 in0.0 mm 0.00 in0.0 mm
03:34 PM 88.3°F31.3°C 68.5°F20.3°C 52% 3.5 mph NE5.6 kmh NE 5.8 mph9.3 kmh 29.77 in1008.1 mb 0.00 in0.0 mm 0.00 in0.0 mm 0.00 in0.0 mm
03:35 PM 88.7°F31.5°C 67.7°F19.8°C 50% 3.2 mph NE5.1 kmh NE 5.8 mph9.3 kmh 29.77 in1008.1 mb 0.00 in0.0 mm 0.00 in0.0 mm 0.00 in0.0 mm
03:36 PM 88.2°F31.2°C 66.6°F19.2°C 49% 3.3 mph NE5.3 kmh NE 5.8 mph9.3 kmh 29.80 in1009.1 mb 0.00 in0.0 mm 0.00 in0.0 mm 0.00 in0.0 mm
03:37 PM 88.2°F31.2°C 66.6°F19.2°C 49% 3.3 mph NE5.3 kmh NE 5.8 mph9.3 kmh 29.80 in1009.1 mb 0.00 in0.0 mm 0.00 in0.0 mm 0.00 in0.0 mm
03:38 PM 87.6°F30.9°C 67.3°F19.6°C 51% 3.0 mph NE4.8 kmh NE 5.8 mph9.3 kmh 29.80 in1009.1 mb 0.00 in0.0 mm 0.00 in0.0 mm 0.00 in0.0 mm
03:39 PM 87.6°F30.9°C 67.3°F19.6°C 51% 3.3 mph NNE5.3 kmh NNE 8.7 mph14.0 kmh 29.80 in1009.1 mb 0.00 in0.0 mm 0.00 in0.0 mm 0.00 in0.0 mm
03:40 PM 87.1°F30.6°C 67.3°F19.6°C 52% 3.7 mph NNE6.0 kmh NNE 8.7 mph14.0 kmh 29.80 in1009.1 mb 0.00 in0.0 mm 0.00 in0.0 mm 0.00 in0.0 mm
03:41 PM 87.1°F30.6°C 67.3°F19.6°C 52% 4.1 mph NNE6.6 kmh NNE 8.7 mph14.0 kmh 29.80 in1009.1 mb 0.00 in0.0 mm 0.00 in0.0 mm 0.00 in0.0 mm
03:42 PM 86.2°F30.1°C 67.0°F19.4°C 53% 4.1 mph NNE6.6 kmh NNE 8.7 mph14.0 kmh 29.80 in1009.1 mb 0.00 in0.0 mm 0.00 in0.0 mm 0.00 in0.0 mm
03:43 PM 86.0°F30.0°C 68.0°F20.0°C 55% 4.2 mph NNE6.8 kmh NNE 8.7 mph14.0 kmh 29.80 in1009.1 mb 0.00 in0.0 mm 0.00 in0.0 mm 0.00 in0.0 mm
03:44 PM 86.0°F30.0°C 68.0°F20.0°C 55% 4.2 mph NNE6.8 kmh NNE 8.7 mph14.0 kmh 29.80 in1009.1 mb 0.00 in0.0 mm 0.00 in0.0 mm 0.00 in0.0 mm
03:45 PM 87.1°F30.6°C 68.4°F20.2°C 54% 4.6 mph NNE7.4 kmh NNE 8.7 mph14.0 kmh 29.80 in1009.1 mb 0.00 in0.0 mm 0.00 in0.0 mm 0.00 in0.0 mm
03:46 PM 87.1°F30.6°C 68.4°F20.2°C 54% 4.7 mph NE7.6 kmh NE 8.7 mph14.0 kmh 29.80 in1009.1 mb 0.00 in0.0 mm 0.00 in0.0 mm 0.00 in0.0 mm
03:47 PM 87.3°F30.7°C 68.0°F20.0°C 53% 4.8 mph NE7.7 kmh NE 8.7 mph14.0 kmh 29.80 in1009.1 mb 0.00 in0.0 mm 0.00 in0.0 mm 0.00 in0.0 mm
03:48 PM 87.3°F30.7°C 68.0°F20.0°C 53% 4.7 mph NE7.6 kmh NE 8.7 mph14.0 kmh 29.80 in1009.1 mb 0.00 in0.0 mm 0.00 in0.0 mm 0.00 in0.0 mm
03:49 PM 86.9°F30.5°C 67.2°F19.6°C 52% 4.5 mph NE7.2 kmh NE 7.8 mph12.6 kmh 29.80 in1009.1 mb 0.00 in0.0 mm 0.00 in0.0 mm 0.00 in0.0 mm
03:50 PM 86.9°F30.5°C 67.2°F19.6°C 52% 4.4 mph NE7.1 kmh NE 7.8 mph12.6 kmh 29.80 in1009.1 mb 0.00 in0.0 mm 0.00 in0.0 mm 0.00 in0.0 mm
03:51 PM 87.4°F30.8°C 68.8°F20.4°C 54% 4.3 mph NE6.9 kmh NE 7.8 mph12.6 kmh 29.80 in1009.1 mb 0.00 in0.0 mm 0.00 in0.0 mm 0.00 in0.0 mm
03:52 PM 87.4°F30.8°C 68.8°F20.4°C 54% 4.4 mph NE7.1 kmh NE 7.8 mph12.6 kmh 29.80 in1009.1 mb 0.00 in0.0 mm 0.00 in0.0 mm 0.00 in0.0 mm
03:53 PM 87.6°F30.9°C 67.3°F19.6°C 51% 4.4 mph ENE7.1 kmh ENE 7.8 mph12.6 kmh 29.80 in1009.1 mb 0.00 in0.0 mm 0.00 in0.0 mm 0.00 in0.0 mm
03:54 PM 87.6°F30.9°C 67.3°F19.6°C 51% 4.4 mph NE7.1 kmh NE 7.8 mph12.6 kmh 29.80 in1009.1 mb 0.00 in0.0 mm 0.00 in0.0 mm 0.00 in0.0 mm
03:55 PM 87.3°F30.7°C 68.0°F20.0°C 53% 4.5 mph NE7.2 kmh NE 7.8 mph12.6 kmh 29.80 in1009.1 mb 0.00 in0.0 mm 0.00 in0.0 mm 0.00 in0.0 mm
03:56 PM 87.3°F30.7°C 68.0°F20.0°C 53% 4.3 mph NE6.9 kmh NE 7.8 mph12.6 kmh 29.80 in1009.1 mb 0.00 in0.0 mm 0.00 in0.0 mm 0.00 in0.0 mm
03:57 PM 88.2°F31.2°C 68.3°F20.2°C 52% 4.0 mph NE6.4 kmh NE 7.8 mph12.6 kmh 29.80 in1009.1 mb 0.00 in0.0 mm 0.00 in0.0 mm 0.00 in0.0 mm
03:58 PM 88.2°F31.2°C 68.3°F20.2°C 52% 3.8 mph NE6.1 kmh NE 7.8 mph12.6 kmh 29.80 in1009.1 mb 0.00 in0.0 mm 0.00 in0.0 mm 0.00 in0.0 mm
03:59 PM 88.3°F31.3°C 68.5°F20.3°C 52% 3.6 mph NE5.8 kmh NE 6.5 mph10.5 kmh 29.80 in1009.1 mb 0.00 in0.0 mm 0.00 in0.0 mm 0.00 in0.0 mm
04:00 PM 87.4°F30.8°C 68.2°F20.1°C 53% 3.4 mph NE5.5 kmh NE 6.5 mph10.5 kmh 29.80 in1009.1 mb 0.00 in0.0 mm 0.00 in0.0 mm 0.00 in0.0 mm
04:01 PM 87.4°F30.8°C 68.2°F20.1°C 53% 3.4 mph NE5.5 kmh NE 6.5 mph10.5 kmh 29.80 in1009.1 mb 0.00 in0.0 mm 0.00 in0.0 mm 0.00 in0.0 mm
04:02 PM 86.9°F30.5°C 68.3°F20.2°C 54% 3.1 mph NE5.0 kmh NE 6.5 mph10.5 kmh 29.80 in1009.1 mb 0.00 in0.0 mm 0.00 in0.0 mm 0.00 in0.0 mm
04:03 PM 86.9°F30.5°C 68.3°F20.2°C 54% 2.9 mph NE4.7 kmh NE 6.5 mph10.5 kmh 29.80 in1009.1 mb 0.00 in0.0 mm 0.00 in0.0 mm 0.00 in0.0 mm
04:04 PM 88.0°F31.1°C 69.3°F20.7°C 54% 2.6 mph NE4.2 kmh NE 6.5 mph10.5 kmh 29.80 in1009.1 mb 0.00 in0.0 mm 0.00 in0.0 mm 0.00 in0.0 mm
04:05 PM 88.0°F31.1°C 69.3°F20.7°C 54% 2.4 mph NE3.9 kmh NE 6.5 mph10.5 kmh 29.80 in1009.1 mb 0.00 in0.0 mm 0.00 in0.0 mm 0.00 in0.0 mm
04:06 PM 88.3°F31.3°C 69.0°F20.6°C 53% 2.1 mph NE3.4 kmh NE 5.4 mph8.7 kmh 29.80 in1009.1 mb 0.00 in0.0 mm 0.00 in0.0 mm 0.00 in0.0 mm
04:07 PM 87.6°F30.9°C 68.4°F20.2°C 53% 2.2 mph NE3.5 kmh NE 5.4 mph8.7 kmh 29.80 in1009.1 mb 0.00 in0.0 mm 0.00 in0.0 mm 0.00 in0.0 mm
04:08 PM 87.6°F30.9°C 68.4°F20.2°C 53% 2.4 mph NE3.9 kmh NE 6.0 mph9.7 kmh 29.80 in1009.1 mb 0.00 in0.0 mm 0.00 in0.0 mm 0.00 in0.0 mm
04:09 PM 88.5°F31.4°C 69.8°F21.0°C 54% 2.7 mph NE4.3 kmh NE 6.0 mph9.7 kmh 29.80 in1009.1 mb 0.00 in0.0 mm 0.00 in0.0 mm 0.00 in0.0 mm
04:10 PM 88.5°F31.4°C 69.8°F21.0°C 54% 2.7 mph ENE4.3 kmh ENE 6.0 mph9.7 kmh 29.80 in1009.1 mb 0.00 in0.0 mm 0.00 in0.0 mm 0.00 in0.0 mm
04:11 PM 89.2°F31.8°C 69.3°F20.7°C 52% 2.5 mph ENE4.0 kmh ENE 6.0 mph9.7 kmh 29.80 in1009.1 mb 0.00 in0.0 mm 0.00 in0.0 mm 0.00 in0.0 mm
04:12 PM 89.2°F31.8°C 69.3°F20.7°C 52% 2.8 mph NE4.5 kmh NE 6.0 mph9.7 kmh 29.80 in1009.1 mb 0.00 in0.0 mm 0.00 in0.0 mm 0.00 in0.0 mm
04:13 PM 88.5°F31.4°C 68.6°F20.3°C 52% 2.8 mph NE4.5 kmh NE 6.0 mph9.7 kmh 29.80 in1009.1 mb 0.00 in0.0 mm 0.00 in0.0 mm 0.00 in0.0 mm
04:14 PM 89.4°F31.9°C 69.5°F20.8°C 52% 2.9 mph NE4.7 kmh NE 6.0 mph9.7 kmh 29.80 in1009.1 mb 0.00 in0.0 mm 0.00 in0.0 mm 0.00 in0.0 mm
04:15 PM 89.4°F31.9°C 69.5°F20.8°C 52% 3.1 mph ENE5.0 kmh ENE 6.0 mph9.7 kmh 29.80 in1009.1 mb 0.00 in0.0 mm 0.00 in0.0 mm 0.00 in0.0 mm
04:16 PM 88.7°F31.5°C 69.4°F20.8°C 53% 3.1 mph NE5.0 kmh NE 6.0 mph9.7 kmh 29.80 in1009.1 mb 0.00 in0.0 mm 0.00 in0.0 mm 0.00 in0.0 mm
04:17 PM 88.7°F31.5°C 69.4°F20.8°C 53% 3.2 mph NE5.1 kmh NE 6.0 mph9.7 kmh 29.80 in1009.1 mb 0.00 in0.0 mm 0.00 in0.0 mm 0.00 in0.0 mm
04:18 PM 88.0°F31.1°C 68.7°F20.4°C 53% 3.1 mph NE5.0 kmh NE 5.8 mph9.3 kmh 29.80 in1009.1 mb 0.00 in0.0 mm 0.00 in0.0 mm 0.00 in0.0 mm
04:19 PM 88.0°F31.1°C 68.7°F20.4°C 53% 3.0 mph NE4.8 kmh NE 5.8 mph9.3 kmh 29.80 in1009.1 mb 0.00 in0.0 mm 0.00 in0.0 mm 0.00 in0.0 mm
04:20 PM 87.8°F31.0°C 68.5°F20.3°C 53% 3.0 mph NE4.8 kmh NE 5.8 mph9.3 kmh 29.80 in1009.1 mb 0.00 in0.0 mm 0.00 in0.0 mm 0.00 in0.0 mm
04:21 PM 87.8°F31.0°C 68.5°F20.3°C 53% 2.9 mph NE4.7 kmh NE 5.8 mph9.3 kmh 29.80 in1009.1 mb 0.00 in0.0 mm 0.00 in0.0 mm 0.00 in0.0 mm
04:22 PM 87.4°F30.8°C 69.3°F20.7°C 55% 3.1 mph NE5.0 kmh NE 6.5 mph10.5 kmh 29.80 in1009.1 mb 0.00 in0.0 mm 0.00 in0.0 mm 0.00 in0.0 mm
04:23 PM 87.6°F30.9°C 70.5°F21.4°C 57% 3.2 mph NE5.1 kmh NE 6.5 mph10.5 kmh 29.80 in1009.1 mb 0.00 in0.0 mm 0.00 in0.0 mm 0.00 in0.0 mm
04:24 PM 87.6°F30.9°C 70.5°F21.4°C 57% 3.0 mph NE4.8 kmh NE 6.5 mph10.5 kmh 29.80 in1009.1 mb 0.00 in0.0 mm 0.00 in0.0 mm 0.00 in0.0 mm
04:25 PM 88.9°F31.6°C 70.6°F21.4°C 55% 2.8 mph NE4.5 kmh NE 6.5 mph10.5 kmh 29.80 in1009.1 mb 0.00 in0.0 mm 0.00 in0.0 mm 0.00 in0.0 mm
04:26 PM 88.9°F31.6°C 70.6°F21.4°C 55% 2.5 mph NE4.0 kmh NE 6.5 mph10.5 kmh 29.80 in1009.1 mb 0.00 in0.0 mm 0.00 in0.0 mm 0.00 in0.0 mm
04:27 PM 87.4°F30.8°C 70.3°F21.3°C 57% 2.4 mph NE3.9 kmh NE 6.5 mph10.5 kmh 29.80 in1009.1 mb 0.00 in0.0 mm 0.00 in0.0 mm 0.00 in0.0 mm
04:28 PM 87.4°F30.8°C 70.3°F21.3°C 57% 2.1 mph N3.4 kmh N 6.5 mph10.5 kmh 29.80 in1009.1 mb 0.00 in0.0 mm 0.00 in0.0 mm 0.00 in0.0 mm
04:29 PM 86.9°F30.5°C 70.3°F21.3°C 58% 2.2 mph N3.5 kmh N 6.5 mph10.5 kmh 29.80 in1009.1 mb 0.00 in0.0 mm 0.00 in0.0 mm 0.00 in0.0 mm
04:30 PM 85.8°F29.9°C 69.8°F21.0°C 59% 2.3 mph NNE3.7 kmh NNE 6.5 mph10.5 kmh 29.80 in1009.1 mb 0.00 in0.0 mm 0.00 in0.0 mm 0.00 in0.0 mm
04:31 PM 85.8°F29.9°C 69.8°F21.0°C 59% 2.5 mph NE4.0 kmh NE 6.5 mph10.5 kmh 29.80 in1009.1 mb 0.00 in0.0 mm 0.00 in0.0 mm 0.00 in0.0 mm
04:32 PM 85.1°F29.5°C 69.7°F20.9°C 60% 2.0 mph NE3.2 kmh NE 6.5 mph10.5 kmh 29.80 in1009.1 mb 0.00 in0.0 mm 0.00 in0.0 mm 0.00 in0.0 mm
04:33 PM 85.1°F29.5°C 69.7°F20.9°C 60% 2.0 mph NE3.2 kmh NE 6.5 mph10.5 kmh 29.80 in1009.1 mb 0.00 in0.0 mm 0.00 in0.0 mm 0.00 in0.0 mm
04:34 PM 84.4°F29.1°C 69.5°F20.8°C 61% 1.9 mph NE3.1 kmh NE 4.3 mph6.9 kmh 29.80 in1009.1 mb 0.00 in0.0 mm 0.00 in0.0 mm 0.00 in0.0 mm
04:35 PM 84.4°F29.1°C 69.5°F20.8°C 61% 2.2 mph NE3.5 kmh NE 4.3 mph6.9 kmh 29.80 in1009.1 mb 0.00 in0.0 mm 0.00 in0.0 mm 0.00 in0.0 mm
04:36 PM 84.0°F28.9°C 69.6°F20.9°C 62% 2.5 mph NE4.0 kmh NE 4.3 mph6.9 kmh 29.80 in1009.1 mb 0.00 in0.0 mm 0.00 in0.0 mm 0.00 in0.0 mm
04:37 PM 82.8°F28.2°C 69.3°F20.7°C 64% 2.5 mph NE4.0 kmh NE 4.3 mph6.9 kmh 29.80 in1009.1 mb 0.00 in0.0 mm 0.00 in0.0 mm 0.00 in0.0 mm
04:38 PM 82.8°F28.2°C 69.3°F20.7°C 64% 2.3 mph ENE3.7 kmh ENE 4.3 mph6.9 kmh 29.80 in1009.1 mb 0.00 in0.0 mm 0.00 in0.0 mm 0.00 in0.0 mm
04:39 PM 83.1°F28.4°C 69.7°F20.9°C 64% 2.3 mph NE3.7 kmh NE 4.3 mph6.9 kmh 29.80 in1009.1 mb 0.00 in0.0 mm 0.00 in0.0 mm 0.00 in0.0 mm
04:40 PM 83.1°F28.4°C 69.7°F20.9°C 64% 2.2 mph NE3.5 kmh NE 4.3 mph6.9 kmh 29.80 in1009.1 mb 0.00 in0.0 mm 0.00 in0.0 mm 0.00 in0.0 mm
04:41 PM 83.3°F28.5°C 69.8°F21.0°C 64% 2.1 mph NE3.4 kmh NE 5.4 mph8.7 kmh 29.80 in1009.1 mb 0.00 in0.0 mm 0.00 in0.0 mm 0.00 in0.0 mm
04:42 PM 83.3°F28.5°C 69.8°F21.0°C 64% 2.5 mph NE4.0 kmh NE 5.4 mph8.7 kmh 29.80 in1009.1 mb 0.00 in0.0 mm 0.00 in0.0 mm 0.00 in0.0 mm
04:43 PM 82.8°F28.2°C 69.3°F20.7°C 64% 2.6 mph NNE4.2 kmh NNE 5.6 mph9.0 kmh 29.80 in1009.1 mb 0.00 in0.0 mm 0.00 in0.0 mm 0.00 in0.0 mm
04:44 PM 81.9°F27.7°C 69.4°F20.8°C 66% 2.9 mph NE4.7 kmh NE 5.6 mph9.0 kmh 29.80 in1009.1 mb 0.00 in0.0 mm 0.00 in0.0 mm 0.00 in0.0 mm
04:45 PM 81.9°F27.7°C 69.4°F20.8°C 66% 2.7 mph NNE4.3 kmh NNE 5.6 mph9.0 kmh 29.80 in1009.1 mb 0.00 in0.0 mm 0.00 in0.0 mm 0.00 in0.0 mm
04:46 PM 83.1°F28.4°C 70.1°F21.2°C 65% 2.7 mph NNE4.3 kmh NNE 5.6 mph9.0 kmh 29.80 in1009.1 mb 0.00 in0.0 mm 0.00 in0.0 mm 0.00 in0.0 mm
04:47 PM 83.1°F28.4°C 70.1°F21.2°C 65% 2.7 mph NNE4.3 kmh NNE 5.6 mph9.0 kmh 29.80 in1009.1 mb 0.00 in0.0 mm 0.00 in0.0 mm 0.00 in0.0 mm
04:48 PM 83.7°F28.7°C 70.2°F21.2°C 64% 3.0 mph NNE4.8 kmh NNE 5.6 mph9.0 kmh 29.80 in1009.1 mb 0.00 in0.0 mm 0.00 in0.0 mm 0.00 in0.0 mm
04:49 PM 83.7°F28.7°C 70.2°F21.2°C 64% 3.1 mph NNE5.0 kmh NNE 5.6 mph9.0 kmh 29.80 in1009.1 mb 0.00 in0.0 mm 0.00 in0.0 mm 0.00 in0.0 mm
04:50 PM 84.6°F29.2°C 70.6°F21.4°C 63% 3.4 mph NNE5.5 kmh NNE 5.6 mph9.0 kmh 29.80 in1009.1 mb 0.00 in0.0 mm 0.00 in0.0 mm 0.00 in0.0 mm
04:51 PM 84.6°F29.2°C 70.6°F21.4°C 63% 3.3 mph NNE5.3 kmh NNE 5.6 mph9.0 kmh 29.80 in1009.1 mb 0.00 in0.0 mm 0.00 in0.0 mm 0.00 in0.0 mm
04:52 PM 85.3°F29.6°C 70.8°F21.6°C 62% 3.1 mph NNE5.0 kmh NNE 5.6 mph9.0 kmh 29.80 in1009.1 mb 0.00 in0.0 mm 0.00 in0.0 mm 0.00 in0.0 mm
04:53 PM 84.2°F29.0°C 69.8°F21.0°C 62% 2.8 mph NNE4.5 kmh NNE 5.4 mph8.7 kmh 29.80 in1009.1 mb 0.00 in0.0 mm 0.00 in0.0 mm 0.00 in0.0 mm
04:54 PM 84.2°F29.0°C 69.8°F21.0°C 62% 2.7 mph NNE4.3 kmh NNE 5.4 mph8.7 kmh 29.80 in1009.1 mb 0.00 in0.0 mm 0.00 in0.0 mm 0.00 in0.0 mm
04:55 PM 82.9°F28.3°C 69.0°F20.6°C 63% 2.7 mph NE4.3 kmh NE 4.7 mph7.6 kmh 29.80 in1009.1 mb 0.00 in0.0 mm 0.00 in0.0 mm 0.00 in0.0 mm
04:56 PM 82.9°F28.3°C 69.0°F20.6°C 63% 2.6 mph NE4.2 kmh NE 4.7 mph7.6 kmh 29.80 in1009.1 mb 0.00 in0.0 mm 0.00 in0.0 mm 0.00 in0.0 mm
04:57 PM 82.0°F27.8°C 68.7°F20.4°C 64% 2.6 mph N4.2 kmh N 4.7 mph7.6 kmh 29.80 in1009.1 mb 0.00 in0.0 mm 0.00 in0.0 mm 0.00 in0.0 mm
04:58 PM 82.0°F27.8°C 68.7°F20.4°C 64% 2.2 mph NNE3.5 kmh NNE 4.0 mph6.4 kmh 29.80 in1009.1 mb 0.00 in0.0 mm 0.00 in0.0 mm 0.00 in0.0 mm
04:59 PM 81.7°F27.6°C 68.8°F20.4°C 65% 2.1 mph NNE3.4 kmh NNE 4.0 mph6.4 kmh 29.80 in1009.1 mb 0.00 in0.0 mm 0.00 in0.0 mm 0.00 in0.0 mm
05:00 PM 82.0°F27.8°C 69.1°F20.6°C 65% 1.6 mph N2.6 kmh N 3.1 mph5.0 kmh 29.80 in1009.1 mb 0.00 in0.0 mm 0.00 in0.0 mm 0.00 in0.0 mm
05:01 PM 82.0°F27.8°C 69.1°F20.6°C 65% 1.6 mph N2.6 kmh N 3.1 mph5.0 kmh 29.80 in1009.1 mb 0.00 in0.0 mm 0.00 in0.0 mm 0.00 in0.0 mm
05:02 PM 81.9°F27.7°C 69.4°F20.8°C 66% 2.1 mph NNE3.4 kmh NNE 8.7 mph14.0 kmh 29.80 in1009.1 mb 0.00 in0.0 mm 0.00 in0.0 mm 0.00 in0.0 mm
05:03 PM 81.9°F27.7°C 69.4°F20.8°C 66% 2.3 mph NE3.7 kmh NE 8.7 mph14.0 kmh 29.80 in1009.1 mb 0.00 in0.0 mm 0.00 in0.0 mm 0.00 in0.0 mm
05:04 PM 81.5°F27.5°C 69.0°F20.6°C 66% 2.4 mph NE3.9 kmh NE 8.7 mph14.0 kmh 29.80 in1009.1 mb 0.00 in0.0 mm 0.00 in0.0 mm 0.00 in0.0 mm
05:05 PM 81.5°F27.5°C 69.0°F20.6°C 66% 2.4 mph NE3.9 kmh NE 8.7 mph14.0 kmh 29.80 in1009.1 mb 0.00 in0.0 mm 0.00 in0.0 mm 0.00 in0.0 mm
05:06 PM 82.9°F28.3°C 70.0°F21.1°C 65% 2.3 mph NE3.7 kmh NE 8.7 mph14.0 kmh 29.80 in1009.1 mb 0.00 in0.0 mm 0.00 in0.0 mm 0.00 in0.0 mm
05:07 PM 83.3°F28.5°C 70.3°F21.3°C 65% 2.3 mph ENE3.7 kmh ENE 8.7 mph14.0 kmh 29.80 in1009.1 mb 0.00 in0.0 mm 0.00 in0.0 mm 0.00 in0.0 mm
05:08 PM 83.3°F28.5°C 70.3°F21.3°C 65% 2.2 mph ENE3.5 kmh ENE 8.7 mph14.0 kmh 29.80 in1009.1 mb 0.00 in0.0 mm 0.00 in0.0 mm 0.00 in0.0 mm
05:09 PM 84.2°F29.0°C 70.7°F21.5°C 64% 2.3 mph ENE3.7 kmh ENE 8.7 mph14.0 kmh 29.80 in1009.1 mb 0.00 in0.0 mm 0.00 in0.0 mm 0.00 in0.0 mm
05:10 PM 84.2°F29.0°C 70.7°F21.5°C 64% 2.2 mph ENE3.5 kmh ENE 8.7 mph14.0 kmh 29.80 in1009.1 mb 0.00 in0.0 mm 0.00 in0.0 mm 0.00 in0.0 mm
05:11 PM 84.0°F28.9°C 70.5°F21.4°C 64% 2.1 mph ENE3.4 kmh ENE 8.7 mph14.0 kmh 29.80 in1009.1 mb 0.00 in0.0 mm 0.00 in0.0 mm 0.00 in0.0 mm
05:12 PM 84.0°F28.9°C 70.5°F21.4°C 64% 1.6 mph E2.6 kmh E 3.8 mph6.1 kmh 29.80 in1009.1 mb 0.00 in0.0 mm 0.00 in0.0 mm 0.00 in0.0 mm
05:13 PM 84.4°F29.1°C 70.4°F21.3°C 63% 1.4 mph E2.3 kmh E 3.8 mph6.1 kmh 29.80 in1009.1 mb 0.00 in0.0 mm 0.00 in0.0 mm 0.00 in0.0 mm
05:14 PM 84.4°F29.1°C 70.4°F21.3°C 63% 1.6 mph ENE2.6 kmh ENE 4.3 mph6.9 kmh 29.80 in1009.1 mb 0.00 in0.0 mm 0.00 in0.0 mm 0.00 in0.0 mm
05:15 PM 84.0°F28.9°C 70.5°F21.4°C 64% 2.0 mph NE3.2 kmh NE 9.6 mph15.4 kmh 29.80 in1009.1 mb 0.00 in0.0 mm 0.00 in0.0 mm 0.00 in0.0 mm
05:16 PM 82.8°F28.2°C 69.8°F21.0°C 65% 1.8 mph NNE2.9 kmh NNE 9.6 mph15.4 kmh 29.80 in1009.1 mb 0.00 in0.0 mm 0.00 in0.0 mm 0.00 in0.0 mm
05:17 PM 82.8°F28.2°C 69.8°F21.0°C 65% 2.2 mph NE3.5 kmh NE 9.6 mph15.4 kmh 29.80 in1009.1 mb 0.00 in0.0 mm 0.00 in0.0 mm 0.00 in0.0 mm
05:18 PM 82.8°F28.2°C 70.2°F21.2°C 66% 2.8 mph ENE4.5 kmh ENE 9.6 mph15.4 kmh 29.80 in1009.1 mb 0.00 in0.0 mm 0.00 in0.0 mm 0.00 in0.0 mm
05:19 PM 82.8°F28.2°C 70.2°F21.2°C 66% 2.9 mph NE4.7 kmh NE 9.6 mph15.4 kmh 29.80 in1009.1 mb 0.00 in0.0 mm 0.00 in0.0 mm 0.00 in0.0 mm
05:20 PM 82.9°F28.3°C 70.4°F21.3°C 66% 3.1 mph NE5.0 kmh NE 9.6 mph15.4 kmh 29.80 in1009.1 mb 0.00 in0.0 mm 0.00 in0.0 mm 0.00 in0.0 mm
05:21 PM 82.9°F28.3°C 70.4°F21.3°C 66% 3.2 mph NE5.1 kmh NE 9.6 mph15.4 kmh 29.80 in1009.1 mb 0.00 in0.0 mm 0.00 in0.0 mm 0.00 in0.0 mm
05:22 PM 83.3°F28.5°C 70.8°F21.6°C 66% 3.6 mph NE5.8 kmh NE 9.6 mph15.4 kmh 29.80 in1009.1 mb 0.00 in0.0 mm 0.00 in0.0 mm 0.00 in0.0 mm
05:23 PM 82.9°F28.3°C 70.4°F21.3°C 66% 3.9 mph NE6.3 kmh NE 9.6 mph15.4 kmh 29.80 in1009.1 mb 0.00 in0.0 mm 0.00 in0.0 mm 0.00 in0.0 mm
05:24 PM 82.9°F28.3°C 70.4°F21.3°C 66% 4.0 mph NE6.4 kmh NE 9.6 mph15.4 kmh 29.80 in1009.1 mb 0.00 in0.0 mm 0.00 in0.0 mm 0.00 in0.0 mm
05:25 PM 82.0°F27.8°C 70.0°F21.1°C 67% 4.0 mph NE6.4 kmh NE 9.6 mph15.4 kmh 29.80 in1009.1 mb 0.00 in0.0 mm 0.00 in0.0 mm 0.00 in0.0 mm
05:26 PM 82.0°F27.8°C 70.0°F21.1°C 67% 4.0 mph NE6.4 kmh NE 7.8 mph12.6 kmh 29.80 in1009.1 mb 0.00 in0.0 mm 0.00 in0.0 mm 0.00 in0.0 mm
05:27 PM 80.4°F26.9°C 69.3°F20.7°C 69% 3.8 mph NE6.1 kmh NE 7.8 mph12.6 kmh 29.80 in1009.1 mb 0.00 in0.0 mm 0.00 in0.0 mm 0.00 in0.0 mm
05:28 PM 80.4°F26.9°C 69.3°F20.7°C 69% 3.5 mph NE5.6 kmh NE 6.0 mph9.7 kmh 29.80 in1009.1 mb 0.00 in0.0 mm 0.00 in0.0 mm 0.00 in0.0 mm
05:29 PM 80.8°F27.1°C 69.2°F20.7°C 68% 3.4 mph NE5.5 kmh NE 6.0 mph9.7 kmh 29.80 in1009.1 mb 0.00 in0.0 mm 0.00 in0.0 mm 0.00 in0.0 mm
05:30 PM 80.8°F27.1°C 69.2°F20.7°C 68% 3.5 mph NE5.6 kmh NE 6.0 mph9.7 kmh 29.80 in1009.1 mb 0.00 in0.0 mm 0.00 in0.0 mm 0.00 in0.0 mm
05:31 PM 80.8°F27.1°C 69.2°F20.7°C 68% 3.4 mph NE5.5 kmh NE 6.0 mph9.7 kmh 29.80 in1009.1 mb 0.00 in0.0 mm 0.00 in0.0 mm 0.00 in0.0 mm
05:32 PM 81.7°F27.6°C 69.7°F20.9°C 67% 3.3 mph NE5.3 kmh NE 6.0 mph9.7 kmh 29.80 in1009.1 mb 0.00 in0.0 mm 0.00 in0.0 mm 0.00 in0.0 mm
05:33 PM 81.7°F27.6°C 69.7°F20.9°C 67% 3.1 mph NE5.0 kmh NE 6.0 mph9.7 kmh 29.80 in1009.1 mb 0.00 in0.0 mm 0.00 in0.0 mm 0.00 in0.0 mm
05:34 PM 82.2°F27.9°C 70.2°F21.2°C 67% 3.0 mph NE4.8 kmh NE 6.0 mph9.7 kmh 29.80 in1009.1 mb 0.00 in0.0 mm 0.00 in0.0 mm 0.00 in0.0 mm
05:35 PM 82.2°F27.9°C 70.2°F21.2°C 67% 3.0 mph NE4.8 kmh NE 6.0 mph9.7 kmh 29.80 in1009.1 mb 0.00 in0.0 mm 0.00 in0.0 mm 0.00 in0.0 mm
05:36 PM 82.6°F28.1°C 70.1°F21.2°C 66% 3.0 mph NE4.8 kmh NE 6.0 mph9.7 kmh 29.80 in1009.1 mb 0.00 in0.0 mm 0.00 in0.0 mm 0.00 in0.0 mm
05:37 PM 82.9°F28.3°C 70.0°F21.1°C 65% 2.6 mph E4.2 kmh E 3.8 mph6.1 kmh 29.80 in1009.1 mb 0.00 in0.0 mm 0.00 in0.0 mm 0.00 in0.0 mm
05:38 PM 82.9°F28.3°C 70.0°F21.1°C 65% 2.9 mph ENE4.7 kmh ENE 7.2 mph11.6 kmh 29.80 in1009.1 mb 0.00 in0.0 mm 0.00 in0.0 mm 0.00 in0.0 mm
05:39 PM 82.4°F28.0°C 69.9°F21.1°C 66% 2.8 mph NE4.5 kmh NE 7.2 mph11.6 kmh 29.80 in1009.1 mb 0.00 in0.0 mm 0.00 in0.0 mm 0.00 in0.0 mm
05:40 PM 82.4°F28.0°C 69.9°F21.1°C 66% 2.9 mph ENE4.7 kmh ENE 7.2 mph11.6 kmh 29.80 in1009.1 mb 0.00 in0.0 mm 0.00 in0.0 mm 0.00 in0.0 mm
05:41 PM 82.6°F28.1°C 70.1°F21.2°C 66% 2.9 mph ENE4.7 kmh ENE 7.2 mph11.6 kmh 29.80 in1009.1 mb 0.00 in0.0 mm 0.00 in0.0 mm 0.00 in0.0 mm
05:42 PM 82.6°F28.1°C 70.1°F21.2°C 66% 2.9 mph ENE4.7 kmh ENE 7.2 mph11.6 kmh 29.80 in1009.1 mb 0.00 in0.0 mm 0.00 in0.0 mm 0.00 in0.0 mm
05:43 PM 82.8°F28.2°C 69.8°F21.0°C 65% 2.9 mph E4.7 kmh E 7.2 mph11.6 kmh 29.80 in1009.1 mb 0.00 in0.0 mm 0.00 in0.0 mm 0.00 in0.0 mm
05:44 PM 82.8°F28.2°C 69.8°F21.0°C 65% 2.9 mph E4.7 kmh E 7.2 mph11.6 kmh 29.80 in1009.1 mb 0.00 in0.0 mm 0.00 in0.0 mm 0.00 in0.0 mm
05:45 PM 82.8°F28.2°C 69.8°F21.0°C 65% 2.7 mph E4.3 kmh E 7.2 mph11.6 kmh 29.80 in1009.1 mb 0.00 in0.0 mm 0.00 in0.0 mm 0.00 in0.0 mm
05:46 PM 82.9°F28.3°C 70.4°F21.3°C 66% 2.7 mph E4.3 kmh E 7.2 mph11.6 kmh 29.80 in1009.1 mb 0.00 in0.0 mm 0.00 in0.0 mm 0.00 in0.0 mm
05:47 PM 82.9°F28.3°C 70.4°F21.3°C 66% 2.7 mph E4.3 kmh E 7.2 mph11.6 kmh 29.80 in1009.1 mb 0.00 in0.0 mm 0.00 in0.0 mm 0.00 in0.0 mm
05:48 PM 82.6°F28.1°C 69.6°F20.9°C 65% 2.4 mph E3.9 kmh E 3.6 mph5.8 kmh 29.80 in1009.1 mb 0.00 in0.0 mm 0.00 in0.0 mm 0.00 in0.0 mm
05:49 PM 82.6°F28.1°C 69.6°F20.9°C 65% 2.3 mph E3.7 kmh E 3.6 mph5.8 kmh 29.80 in1009.1 mb 0.00 in0.0 mm 0.00 in0.0 mm 0.00 in0.0 mm
05:50 PM 82.0°F27.8°C 69.6°F20.9°C 66% 2.2 mph E3.5 kmh E 3.6 mph5.8 kmh 29.80 in1009.1 mb 0.00 in0.0 mm 0.00 in0.0 mm 0.00 in0.0 mm
05:51 PM 82.0°F27.8°C 69.6°F20.9°C 66% 2.2 mph ESE3.5 kmh ESE 3.6 mph5.8 kmh 29.80 in1009.1 mb 0.00 in0.0 mm 0.00 in0.0 mm 0.00 in0.0 mm
05:52 PM 81.1°F27.3°C 69.1°F20.6°C 67% 2.4 mph SE3.9 kmh SE 6.0 mph9.7 kmh 29.80 in1009.1 mb 0.00 in0.0 mm 0.00 in0.0 mm 0.00 in0.0 mm
05:53 PM 81.0°F27.2°C 69.0°F20.6°C 67% 2.2 mph SE3.5 kmh SE 6.0 mph9.7 kmh 29.80 in1009.1 mb 0.00 in0.0 mm 0.00 in0.0 mm 0.00 in0.0 mm
05:54 PM 81.0°F27.2°C 69.0°F20.6°C 67% 2.5 mph SE4.0 kmh SE 6.0 mph9.7 kmh 29.80 in1009.1 mb 0.00 in0.0 mm 0.00 in0.0 mm 0.00 in0.0 mm
05:55 PM 81.1°F27.3°C 69.6°F20.9°C 68% 2.8 mph SSE4.5 kmh SSE 6.0 mph9.7 kmh 29.80 in1009.1 mb 0.00 in0.0 mm 0.00 in0.0 mm 0.00 in0.0 mm
05:56 PM 81.1°F27.3°C 69.6°F20.9°C 68% 2.8 mph S4.5 kmh S 6.0 mph9.7 kmh 29.80 in1009.1 mb 0.00 in0.0 mm 0.00 in0.0 mm 0.00 in0.0 mm
05:57 PM 81.7°F27.6°C 69.7°F20.9°C 67% 2.8 mph S4.5 kmh S 6.0 mph9.7 kmh 29.80 in1009.1 mb 0.00 in0.0 mm 0.00 in0.0 mm 0.00 in0.0 mm
05:58 PM 81.7°F27.6°C 69.7°F20.9°C 67% 3.0 mph S4.8 kmh S 6.0 mph9.7 kmh 29.80 in1009.1 mb 0.00 in0.0 mm 0.00 in0.0 mm 0.00 in0.0 mm
05:59 PM 81.5°F27.5°C 69.5°F20.8°C 67% 3.2 mph NW5.1 kmh NW 6.0 mph9.7 kmh 29.80 in1009.1 mb 0.00 in0.0 mm 0.00 in0.0 mm 0.00 in0.0 mm
06:00 PM 81.5°F27.5°C 69.5°F20.8°C 67% 3.1 mph NW5.0 kmh NW 6.0 mph9.7 kmh 29.80 in1009.1 mb 0.00 in0.0 mm 0.00 in0.0 mm 0.00 in0.0 mm
06:01 PM 81.5°F27.5°C 69.5°F20.8°C 67% 3.0 mph NW4.8 kmh NW 6.0 mph9.7 kmh 29.80 in1009.1 mb 0.00 in0.0 mm 0.00 in0.0 mm 0.00 in0.0 mm
06:02 PM 81.3°F27.4°C 68.9°F20.5°C 66% 3.1 mph N5.0 kmh N 6.0 mph9.7 kmh 29.80 in1009.1 mb 0.00 in0.0 mm 0.00 in0.0 mm 0.00 in0.0 mm
06:03 PM 81.3°F27.4°C 68.9°F20.5°C 66% 3.2 mph N5.1 kmh N 6.0 mph9.7 kmh 29.80 in1009.1 mb 0.00 in0.0 mm 0.00 in0.0 mm 0.00 in0.0 mm
06:04 PM 81.0°F27.2°C 69.0°F20.6°C 67% 4.1 mph N6.6 kmh N 8.7 mph14.0 kmh 29.80 in1009.1 mb 0.00 in0.0 mm 0.00 in0.0 mm 0.00 in0.0 mm
06:05 PM 81.0°F27.2°C 69.0°F20.6°C 67% 3.9 mph NNE6.3 kmh NNE 8.7 mph14.0 kmh 29.80 in1009.1 mb 0.00 in0.0 mm 0.00 in0.0 mm 0.00 in0.0 mm
06:06 PM 80.4°F26.9°C 68.9°F20.5°C 68% 3.8 mph NE6.1 kmh NE 8.7 mph14.0 kmh 29.80 in1009.1 mb 0.00 in0.0 mm 0.00 in0.0 mm 0.00 in0.0 mm
06:07 PM 80.4°F26.9°C 68.9°F20.5°C 68% 3.9 mph NE6.3 kmh NE 8.7 mph14.0 kmh 29.80 in1009.1 mb 0.00 in0.0 mm 0.00 in0.0 mm 0.00 in0.0 mm
06:08 PM 81.1°F27.3°C 69.1°F20.6°C 67% 3.6 mph NE5.8 kmh NE 8.7 mph14.0 kmh 29.80 in1009.1 mb 0.00 in0.0 mm 0.00 in0.0 mm 0.00 in0.0 mm
06:09 PM 80.6°F27.0°C 68.6°F20.3°C 67% 3.4 mph NE5.5 kmh NE 8.7 mph14.0 kmh 29.80 in1009.1 mb 0.00 in0.0 mm 0.00 in0.0 mm 0.00 in0.0 mm
06:10 PM 80.6°F27.0°C 68.6°F20.3°C 67% 3.4 mph NE5.5 kmh NE 8.7 mph14.0 kmh 29.80 in1009.1 mb 0.00 in0.0 mm 0.00 in0.0 mm 0.00 in0.0 mm
06:11 PM 81.7°F27.6°C 69.7°F20.9°C 67% 3.5 mph NE5.6 kmh NE 8.7 mph14.0 kmh 29.80 in1009.1 mb 0.00 in0.0 mm 0.00 in0.0 mm 0.00 in0.0 mm
06:12 PM 81.7°F27.6°C 69.7°F20.9°C 67% 3.5 mph NE5.6 kmh NE 8.7 mph14.0 kmh 29.80 in1009.1 mb 0.00 in0.0 mm 0.00 in0.0 mm 0.00 in0.0 mm
06:13 PM 81.0°F27.2°C 69.0°F20.6°C 67% 3.6 mph NE5.8 kmh NE 8.7 mph14.0 kmh 29.80 in1009.1 mb 0.00 in0.0 mm 0.00 in0.0 mm 0.00 in0.0 mm
06:14 PM 81.0°F27.2°C 69.0°F20.6°C 67% 3.1 mph NNE5.0 kmh NNE 6.3 mph10.1 kmh 29.80 in1009.1 mb 0.00 in0.0 mm 0.00 in0.0 mm 0.00 in0.0 mm
06:15 PM 81.7°F27.6°C 69.7°F20.9°C 67% 3.1 mph N5.0 kmh N 6.3 mph10.1 kmh 29.80 in1009.1 mb 0.00 in0.0 mm 0.00 in0.0 mm 0.00 in0.0 mm
06:16 PM 82.0°F27.8°C 70.0°F21.1°C 67% 2.8 mph N4.5 kmh N 6.3 mph10.1 kmh 29.80 in1009.1 mb 0.00 in0.0 mm 0.00 in0.0 mm 0.00 in0.0 mm
06:17 PM 82.0°F27.8°C 70.0°F21.1°C 67% 2.8 mph N4.5 kmh N 6.3 mph10.1 kmh 29.80 in1009.1 mb 0.00 in0.0 mm 0.00 in0.0 mm 0.00 in0.0 mm
06:18 PM 82.0°F27.8°C 69.6°F20.9°C 66% 2.8 mph N4.5 kmh N 6.3 mph10.1 kmh 29.80 in1009.1 mb 0.00 in0.0 mm 0.00 in0.0 mm 0.00 in0.0 mm
06:19 PM 82.0°F27.8°C 69.6°F20.9°C 66% 2.8 mph N4.5 kmh N 6.3 mph10.1 kmh 29.80 in1009.1 mb 0.00 in0.0 mm 0.00 in0.0 mm 0.00 in0.0 mm
06:20 PM 81.7°F27.6°C 69.7°F20.9°C 67% 2.5 mph N4.0 kmh N 6.3 mph10.1 kmh 29.80 in1009.1 mb 0.00 in0.0 mm 0.00 in0.0 mm 0.00 in0.0 mm
06:21 PM 81.7°F27.6°C 69.7°F20.9°C 67% 2.4 mph NNW3.9 kmh NNW 6.3 mph10.1 kmh 29.80 in1009.1 mb 0.00 in0.0 mm 0.00 in0.0 mm 0.00 in0.0 mm
06:22 PM 81.3°F27.4°C 69.3°F20.7°C 67% 2.1 mph NW3.4 kmh NW 6.3 mph10.1 kmh 29.80 in1009.1 mb 0.00 in0.0 mm 0.00 in0.0 mm 0.00 in0.0 mm
06:23 PM 81.5°F27.5°C 69.5°F20.8°C 67% 1.9 mph NNW3.1 kmh NNW 3.8 mph6.1 kmh 29.80 in1009.1 mb 0.00 in0.0 mm 0.00 in0.0 mm 0.00 in0.0 mm
06:24 PM 81.5°F27.5°C 69.5°F20.8°C 67% 1.9 mph N3.1 kmh N 3.8 mph6.1 kmh 29.80 in1009.1 mb 0.00 in0.0 mm 0.00 in0.0 mm 0.00 in0.0 mm
06:25 PM 81.3°F27.4°C 69.3°F20.7°C 67% 1.6 mph NNE2.6 kmh NNE 3.8 mph6.1 kmh 29.80 in1009.1 mb 0.00 in0.0 mm 0.00 in0.0 mm 0.00 in0.0 mm
06:26 PM 81.3°F27.4°C 69.3°F20.7°C 67% 1.5 mph NNE2.4 kmh NNE 3.8 mph6.1 kmh 29.80 in1009.1 mb 0.00 in0.0 mm 0.00 in0.0 mm 0.00 in0.0 mm
06:27 PM 81.3°F27.4°C 69.3°F20.7°C 67% 1.6 mph NNE2.6 kmh NNE 3.8 mph6.1 kmh 29.80 in1009.1 mb 0.00 in0.0 mm 0.00 in0.0 mm 0.00 in0.0 mm
06:28 PM 81.3°F27.4°C 69.3°F20.7°C 67% 1.7 mph NE2.7 kmh NE 3.8 mph6.1 kmh 29.80 in1009.1 mb 0.00 in0.0 mm 0.00 in0.0 mm 0.00 in0.0 mm
06:29 PM 81.3°F27.4°C 69.3°F20.7°C 67% 1.7 mph NE2.7 kmh NE 3.8 mph6.1 kmh 29.80 in1009.1 mb 0.00 in0.0 mm 0.00 in0.0 mm 0.00 in0.0 mm
06:30 PM 81.3°F27.4°C 69.3°F20.7°C 67% 2.0 mph ENE3.2 kmh ENE 3.8 mph6.1 kmh 29.80 in1009.1 mb 0.00 in0.0 mm 0.00 in0.0 mm 0.00 in0.0 mm
06:31 PM 81.3°F27.4°C 69.3°F20.7°C 67% 2.1 mph E3.4 kmh E 3.8 mph6.1 kmh 29.80 in1009.1 mb 0.00 in0.0 mm 0.00 in0.0 mm 0.00 in0.0 mm
06:32 PM 80.6°F27.0°C 68.6°F20.3°C 67% 2.0 mph E3.2 kmh E 3.8 mph6.1 kmh 29.80 in1009.1 mb 0.00 in0.0 mm 0.00 in0.0 mm 0.00 in0.0 mm
06:33 PM 80.6°F27.0°C 68.6°F20.3°C 67% 2.0 mph E3.2 kmh E 3.8 mph6.1 kmh 29.80 in1009.1 mb 0.00 in0.0 mm 0.00 in0.0 mm 0.00 in0.0 mm
06:34 PM 81.1°F27.3°C 69.1°F20.6°C 67% 1.8 mph E2.9 kmh E 3.1 mph5.0 kmh 29.80 in1009.1 mb 0.00 in0.0 mm 0.00 in0.0 mm 0.00 in0.0 mm
06:35 PM 81.1°F27.3°C 69.1°F20.6°C 67% 1.8 mph ESE2.9 kmh ESE 3.1 mph5.0 kmh 29.80 in1009.1 mb 0.00 in0.0 mm 0.00 in0.0 mm 0.00 in0.0 mm
06:36 PM 80.4°F26.9°C 68.5°F20.3°C 67% 2.4 mph E3.9 kmh E 4.7 mph7.6 kmh 29.80 in1009.1 mb 0.00 in0.0 mm 0.00 in0.0 mm 0.00 in0.0 mm
06:37 PM 80.4°F26.9°C 68.5°F20.3°C 67% 2.2 mph E3.5 kmh E 4.7 mph7.6 kmh 29.80 in1009.1 mb 0.00 in0.0 mm 0.00 in0.0 mm 0.00 in0.0 mm
06:38 PM 80.2°F26.8°C 68.7°F20.4°C 68% 2.0 mph E3.2 kmh E 4.7 mph7.6 kmh 29.80 in1009.1 mb 0.00 in0.0 mm 0.00 in0.0 mm 0.00 in0.0 mm
06:39 PM 79.7°F26.5°C 68.2°F20.1°C 68% 1.9 mph E3.1 kmh E 4.7 mph7.6 kmh 29.80 in1009.1 mb 0.00 in0.0 mm 0.00 in0.0 mm 0.00 in0.0 mm
06:40 PM 79.7°F26.5°C 68.2°F20.1°C 68% 1.9 mph E3.1 kmh E 4.7 mph7.6 kmh 29.80 in1009.1 mb 0.00 in0.0 mm 0.00 in0.0 mm 0.00 in0.0 mm
06:41 PM 79.3°F26.3°C 67.9°F19.9°C 68% 1.9 mph E3.1 kmh E 4.7 mph7.6 kmh 29.80 in1009.1 mb 0.00 in0.0 mm 0.00 in0.0 mm 0.00 in0.0 mm
06:42 PM 79.3°F26.3°C 67.9°F19.9°C 68% 1.9 mph ENE3.1 kmh ENE 4.7 mph7.6 kmh 29.80 in1009.1 mb 0.00 in0.0 mm 0.00 in0.0 mm 0.00 in0.0 mm
06:43 PM 79.5°F26.4°C 68.0°F20.0°C 68% 2.1 mph ENE3.4 kmh ENE 4.7 mph7.6 kmh 29.80 in1009.1 mb 0.00 in0.0 mm 0.00 in0.0 mm 0.00 in0.0 mm
06:44 PM 79.5°F26.4°C 68.0°F20.0°C 68% 2.2 mph NE3.5 kmh NE 4.7 mph7.6 kmh 29.80 in1009.1 mb 0.00 in0.0 mm 0.00 in0.0 mm 0.00 in0.0 mm
06:45 PM 78.6°F25.9°C 67.6°F19.8°C 69% 2.3 mph NE3.7 kmh NE 4.7 mph7.6 kmh 29.80 in1009.1 mb 0.00 in0.0 mm 0.00 in0.0 mm 0.00 in0.0 mm
06:46 PM 78.6°F25.9°C 68.0°F20.0°C 70% 1.8 mph ENE2.9 kmh ENE 3.6 mph5.8 kmh 29.80 in1009.1 mb 0.00 in0.0 mm 0.00 in0.0 mm 0.00 in0.0 mm
06:47 PM 78.6°F25.9°C 68.0°F20.0°C 70% 1.7 mph ENE2.7 kmh ENE 3.6 mph5.8 kmh 29.80 in1009.1 mb 0.00 in0.0 mm 0.00 in0.0 mm 0.00 in0.0 mm
06:48 PM 78.8°F26.0°C 67.8°F19.9°C 69% 2.2 mph E3.5 kmh E 4.3 mph6.9 kmh 29.80 in1009.1 mb 0.00 in0.0 mm 0.00 in0.0 mm 0.00 in0.0 mm
06:49 PM 78.8°F26.0°C 67.8°F19.9°C 69% 2.1 mph E3.4 kmh E 4.3 mph6.9 kmh 29.80 in1009.1 mb 0.00 in0.0 mm 0.00 in0.0 mm 0.00 in0.0 mm
06:50 PM 78.8°F26.0°C 67.8°F19.9°C 69% 2.0 mph E3.2 kmh E 4.3 mph6.9 kmh 29.80 in1009.1 mb 0.00 in0.0 mm 0.00 in0.0 mm 0.00 in0.0 mm
06:51 PM 78.8°F26.0°C 67.8°F19.9°C 69% 1.9 mph E3.1 kmh E 4.3 mph6.9 kmh 29.80 in1009.1 mb 0.00 in0.0 mm 0.00 in0.0 mm 0.00 in0.0 mm
06:52 PM 79.0°F26.1°C 67.9°F19.9°C 69% 1.7 mph E2.7 kmh E 4.3 mph6.9 kmh 29.80 in1009.1 mb 0.00 in0.0 mm 0.00 in0.0 mm 0.00 in0.0 mm
06:53 PM 79.0°F26.1°C 67.9°F19.9°C 69% 1.7 mph E2.7 kmh E 4.3 mph6.9 kmh 29.80 in1009.1 mb 0.00 in0.0 mm 0.00 in0.0 mm 0.00 in0.0 mm
06:54 PM 79.0°F26.1°C 67.9°F19.9°C 69% 1.7 mph E2.7 kmh E 4.3 mph6.9 kmh 29.80 in1009.1 mb 0.00 in0.0 mm 0.00 in0.0 mm 0.00 in0.0 mm
06:55 PM 78.1°F25.6°C 67.9°F19.9°C 71% 1.8 mph E2.9 kmh E 4.3 mph6.9 kmh 29.80 in1009.1 mb 0.00 in0.0 mm 0.00 in0.0 mm 0.00 in0.0 mm
06:56 PM 78.1°F25.6°C 67.9°F19.9°C 71% 1.9 mph E3.1 kmh E 4.3 mph6.9 kmh 29.80 in1009.1 mb 0.00 in0.0 mm 0.00 in0.0 mm 0.00 in0.0 mm
06:57 PM 77.7°F25.4°C 67.2°F19.6°C 70% 2.0 mph E3.2 kmh E 4.3 mph6.9 kmh 29.80 in1009.1 mb 0.00 in0.0 mm 0.00 in0.0 mm 0.00 in0.0 mm
06:58 PM 77.7°F25.4°C 67.2°F19.6°C 70% 1.9 mph ENE3.1 kmh ENE 4.3 mph6.9 kmh 29.80 in1009.1 mb 0.00 in0.0 mm 0.00 in0.0 mm 0.00 in0.0 mm
06:59 PM 77.7°F25.4°C 67.2°F19.6°C 70% 1.9 mph NE3.1 kmh NE 3.4 mph5.5 kmh 29.80 in1009.1 mb 0.00 in0.0 mm 0.00 in0.0 mm 0.00 in0.0 mm
07:00 PM 77.7°F25.4°C 67.2°F19.6°C 70% 1.7 mph NE2.7 kmh NE 3.4 mph5.5 kmh 29.80 in1009.1 mb 0.00 in0.0 mm 0.00 in0.0 mm 0.00 in0.0 mm
07:01 PM 77.7°F25.4°C 67.6°F19.8°C 71% 1.8 mph NE2.9 kmh NE 3.4 mph5.5 kmh 29.80 in1009.1 mb 0.00 in0.0 mm 0.00 in0.0 mm 0.00 in0.0 mm
07:02 PM 77.7°F25.4°C 67.2°F19.6°C 70% 1.8 mph NE2.9 kmh NE 3.4 mph5.5 kmh 29.80 in1009.1 mb 0.00 in0.0 mm 0.00 in0.0 mm 0.00 in0.0 mm
07:03 PM 77.7°F25.4°C 67.2°F19.6°C 70% 1.7 mph NE2.7 kmh NE 3.4 mph5.5 kmh 29.80 in1009.1 mb 0.00 in0.0 mm 0.00 in0.0 mm 0.00 in0.0 mm
07:04 PM 77.4°F25.2°C 67.2°F19.6°C 71% 1.4 mph NE2.3 kmh NE 3.4 mph5.5 kmh 29.80 in1009.1 mb 0.00 in0.0 mm 0.00 in0.0 mm 0.00 in0.0 mm
07:05 PM 77.4°F25.2°C 67.2°F19.6°C 71% 1.1 mph NE1.8 kmh NE 3.1 mph5.0 kmh 29.80 in1009.1 mb 0.00 in0.0 mm 0.00 in0.0 mm 0.00 in0.0 mm
07:06 PM 77.4°F25.2°C 67.2°F19.6°C 71% 1.0 mph ENE1.6 kmh ENE 3.1 mph5.0 kmh 29.80 in1009.1 mb 0.00 in0.0 mm 0.00 in0.0 mm 0.00 in0.0 mm
07:07 PM 77.4°F25.2°C 67.2°F19.6°C 71% 0.9 mph E1.4 kmh E 3.1 mph5.0 kmh 29.80 in1009.1 mb 0.00 in0.0 mm 0.00 in0.0 mm 0.00 in0.0 mm
07:08 PM 77.4°F25.2°C 67.6°F19.8°C 72% 0.8 mph ESE1.3 kmh ESE 3.1 mph5.0 kmh 29.80 in1009.1 mb 0.00 in0.0 mm 0.00 in0.0 mm 0.00 in0.0 mm
07:09 PM 77.2°F25.1°C 67.5°F19.7°C 72% 0.7 mph SE1.1 kmh SE 3.1 mph5.0 kmh 29.80 in1009.1 mb 0.00 in0.0 mm 0.00 in0.0 mm 0.00 in0.0 mm
07:10 PM 77.2°F25.1°C 67.5°F19.7°C 72% 0.8 mph ESE1.3 kmh ESE 3.1 mph5.0 kmh 29.80 in1009.1 mb 0.00 in0.0 mm 0.00 in0.0 mm 0.00 in0.0 mm
07:11 PM 76.6°F24.8°C 67.3°F19.6°C 73% 0.7 mph E1.1 kmh E 2.2 mph3.5 kmh 29.80 in1009.1 mb 0.00 in0.0 mm 0.00 in0.0 mm 0.00 in0.0 mm
07:12 PM 76.6°F24.8°C 67.3°F19.6°C 73% 0.7 mph E1.1 kmh E 2.2 mph3.5 kmh 29.80 in1009.1 mb 0.00 in0.0 mm 0.00 in0.0 mm 0.00 in0.0 mm
07:13 PM 76.6°F24.8°C 68.1°F20.1°C 75% 1.0 mph E1.6 kmh E 2.9 mph4.7 kmh 29.80 in1009.1 mb 0.00 in0.0 mm 0.00 in0.0 mm 0.00 in0.0 mm
07:14 PM 76.6°F24.8°C 68.1°F20.1°C 75% 1.0 mph E1.6 kmh E 2.9 mph4.7 kmh 29.80 in1009.1 mb 0.00 in0.0 mm 0.00 in0.0 mm 0.00 in0.0 mm
07:15 PM 76.3°F24.6°C 67.8°F19.9°C 75% 1.2 mph ENE1.9 kmh ENE 3.6 mph5.8 kmh 29.80 in1009.1 mb 0.00 in0.0 mm 0.00 in0.0 mm 0.00 in0.0 mm
07:16 PM 76.1°F24.5°C 68.0°F20.0°C 76% 1.7 mph NE2.7 kmh NE 5.4 mph8.7 kmh 29.80 in1009.1 mb 0.00 in0.0 mm 0.00 in0.0 mm 0.00 in0.0 mm
07:17 PM 76.1°F24.5°C 68.0°F20.0°C 76% 1.8 mph NE2.9 kmh NE 5.4 mph8.7 kmh 29.80 in1009.1 mb 0.00 in0.0 mm 0.00 in0.0 mm 0.00 in0.0 mm
07:18 PM 76.1°F24.5°C 67.2°F19.6°C 74% 1.8 mph NE2.9 kmh NE 5.4 mph8.7 kmh 29.80 in1009.1 mb 0.00 in0.0 mm 0.00 in0.0 mm 0.00 in0.0 mm
07:19 PM 76.1°F24.5°C 67.2°F19.6°C 74% 2.2 mph NNE3.5 kmh NNE 6.5 mph10.5 kmh 29.80 in1009.1 mb 0.00 in0.0 mm 0.00 in0.0 mm 0.00 in0.0 mm
07:20 PM 75.7°F24.3°C 67.6°F19.8°C 76% 2.5 mph NNE4.0 kmh NNE 6.5 mph10.5 kmh 29.80 in1009.1 mb 0.00 in0.0 mm 0.00 in0.0 mm 0.00 in0.0 mm
07:21 PM 75.7°F24.3°C 67.6°F19.8°C 76% 2.8 mph NNE4.5 kmh NNE 6.5 mph10.5 kmh 29.83 in1010.2 mb 0.00 in0.0 mm 0.00 in0.0 mm 0.00 in0.0 mm
07:22 PM 75.6°F24.2°C 67.5°F19.7°C 76% 2.8 mph NE4.5 kmh NE 6.5 mph10.5 kmh 29.83 in1010.2 mb 0.00 in0.0 mm 0.00 in0.0 mm 0.00 in0.0 mm
07:23 PM 75.6°F24.2°C 67.5°F19.7°C 76% 2.6 mph NNE4.2 kmh NNE 6.5 mph10.5 kmh 29.83 in1010.2 mb 0.00 in0.0 mm 0.00 in0.0 mm 0.00 in0.0 mm
07:24 PM 75.7°F24.3°C 67.6°F19.8°C 76% 2.7 mph NNE4.3 kmh NNE 6.5 mph10.5 kmh 29.83 in1010.2 mb 0.00 in0.0 mm 0.00 in0.0 mm 0.00 in0.0 mm
07:25 PM 75.9°F24.4°C 67.8°F19.9°C 76% 2.5 mph NNE4.0 kmh NNE 6.5 mph10.5 kmh 29.83 in1010.2 mb 0.00 in0.0 mm 0.00 in0.0 mm 0.00 in0.0 mm
07:26 PM 75.9°F24.4°C 67.8°F19.9°C 76% 2.2 mph NNE3.5 kmh NNE 6.5 mph10.5 kmh 29.83 in1010.2 mb 0.00 in0.0 mm 0.00 in0.0 mm 0.00 in0.0 mm
07:27 PM 75.9°F24.4°C 67.8°F19.9°C 76% 1.8 mph NNE2.9 kmh NNE 6.5 mph10.5 kmh 29.83 in1010.2 mb 0.00 in0.0 mm 0.00 in0.0 mm 0.00 in0.0 mm
07:28 PM 75.9°F24.4°C 67.8°F19.9°C 76% 1.9 mph NE3.1 kmh NE 6.5 mph10.5 kmh 29.83 in1010.2 mb 0.00 in0.0 mm 0.00 in0.0 mm 0.00 in0.0 mm
07:29 PM 75.6°F24.2°C 67.5°F19.7°C 76% 1.8 mph NE2.9 kmh NE 6.5 mph10.5 kmh 29.83 in1010.2 mb 0.00 in0.0 mm 0.00 in0.0 mm 0.00 in0.0 mm
07:30 PM 75.6°F24.2°C 67.5°F19.7°C 76% 1.4 mph NE2.3 kmh NE 6.5 mph10.5 kmh 29.83 in1010.2 mb 0.00 in0.0 mm 0.00 in0.0 mm 0.00 in0.0 mm
07:31 PM 75.6°F24.2°C 67.5°F19.7°C 76% 0.8 mph NE1.3 kmh NE 2.7 mph4.3 kmh 29.83 in1010.2 mb 0.00 in0.0 mm 0.00 in0.0 mm 0.00 in0.0 mm
07:32 PM 75.7°F24.3°C 67.6°F19.8°C 76% 0.7 mph E1.1 kmh E 4.9 mph7.9 kmh 29.83 in1010.2 mb 0.00 in0.0 mm 0.00 in0.0 mm 0.00 in0.0 mm
07:33 PM 75.7°F24.3°C 67.6°F19.8°C 76% 0.7 mph E1.1 kmh E 4.9 mph7.9 kmh 29.83 in1010.2 mb 0.00 in0.0 mm 0.00 in0.0 mm 0.00 in0.0 mm
07:34 PM 75.4°F24.1°C 67.3°F19.6°C 76% 0.5 mph E0.8 kmh E 4.9 mph7.9 kmh 29.83 in1010.2 mb 0.00 in0.0 mm 0.00 in0.0 mm 0.00 in0.0 mm
07:35 PM 75.4°F24.1°C 67.3°F19.6°C 76% 0.6 mph E1.0 kmh E 4.9 mph7.9 kmh 29.83 in1010.2 mb 0.00 in0.0 mm 0.00 in0.0 mm 0.00 in0.0 mm
07:36 PM 75.6°F24.2°C 67.5°F19.7°C 76% 0.5 mph E0.8 kmh E 4.9 mph7.9 kmh 29.83 in1010.2 mb 0.00 in0.0 mm 0.00 in0.0 mm 0.00 in0.0 mm
07:37 PM 75.6°F24.2°C 67.5°F19.7°C 76% 0.4 mph E0.6 kmh E 4.9 mph7.9 kmh 29.83 in1010.2 mb 0.00 in0.0 mm 0.00 in0.0 mm 0.00 in0.0 mm
07:38 PM 75.7°F24.3°C 67.6°F19.8°C 76% 0.3 mph ESE0.5 kmh ESE 4.9 mph7.9 kmh 29.83 in1010.2 mb 0.00 in0.0 mm 0.00 in0.0 mm 0.00 in0.0 mm
07:39 PM 75.7°F24.3°C 67.6°F19.8°C 76% 0.3 mph ESE0.5 kmh ESE 4.9 mph7.9 kmh 29.83 in1010.2 mb 0.00 in0.0 mm 0.00 in